<?xml version="1.0" encoding="UTF-8" standalone="no" ?>
<gpx xmlns="http://www.topografix.com/GPX/1/1" xmlns:xsi="http://www.w3.org/2001/XMLSchema-instance" xsi:schemaLocation="http://www.topografix.com/GPX/1/1 http://www.topografix.com/GPX/1/1/gpx.xsd" version="1.1" creator="VisuGPX - https://www.visugpx.com">
  <metadata>
    <name>Liar-couraduque</name>
    <desc><![CDATA[Arras-liar, Liar-couraduque, couraduqye-Arras.]]></desc>
  </metadata>
  <trk>
    <name><![CDATA[Liar-couraduque]]></name>
    <desc><![CDATA[23 oct. 2013  1:30 pm]]></desc>
    <trkseg>
      <trkpt lat="42.99992" lon="-0.13226">
        <ele>917.331</ele>
        <time>2013-10-23T11:30:15.567Z</time>
      </trkpt>
      <trkpt lat="43.00001" lon="-0.1323">
        <ele>918.158</ele>
        <time>2013-10-23T11:30:26.153Z</time>
      </trkpt>
      <trkpt lat="43.00012" lon="-0.13233">
        <ele>920.725</ele>
        <time>2013-10-23T11:30:31.169Z</time>
      </trkpt>
      <trkpt lat="43.00024" lon="-0.13235">
        <ele>923.017</ele>
        <time>2013-10-23T11:30:35.209Z</time>
      </trkpt>
      <trkpt lat="43.00033" lon="-0.13238">
        <ele>923.292</ele>
        <time>2013-10-23T11:30:38.044Z</time>
      </trkpt>
      <trkpt lat="43.00042" lon="-0.13243">
        <ele>922.559</ele>
        <time>2013-10-23T11:30:40.731Z</time>
      </trkpt>
      <trkpt lat="43.00052" lon="-0.13246">
        <ele>922.231</ele>
        <time>2013-10-23T11:30:43.793Z</time>
      </trkpt>
      <trkpt lat="43.00065" lon="-0.13248">
        <ele>923.519</ele>
        <time>2013-10-23T11:30:47.075Z</time>
      </trkpt>
      <trkpt lat="43.00078" lon="-0.13247">
        <ele>926.696</ele>
        <time>2013-10-23T11:30:50.226Z</time>
      </trkpt>
      <trkpt lat="43.00091" lon="-0.13249">
        <ele>930.129</ele>
        <time>2013-10-23T11:30:53.169Z</time>
      </trkpt>
      <trkpt lat="43.00105" lon="-0.13248">
        <ele>932.945</ele>
        <time>2013-10-23T11:30:56.160Z</time>
      </trkpt>
      <trkpt lat="43.0012" lon="-0.13247">
        <ele>936.155</ele>
        <time>2013-10-23T11:30:59.351Z</time>
      </trkpt>
      <trkpt lat="43.00134" lon="-0.13246">
        <ele>939.589</ele>
        <time>2013-10-23T11:31:02.215Z</time>
      </trkpt>
      <trkpt lat="43.00147" lon="-0.13245">
        <ele>942.007</ele>
        <time>2013-10-23T11:31:04.949Z</time>
      </trkpt>
      <trkpt lat="43.00161" lon="-0.13243">
        <ele>942.953</ele>
        <time>2013-10-23T11:31:07.748Z</time>
      </trkpt>
      <trkpt lat="43.00171" lon="-0.13244">
        <ele>942.578</ele>
        <time>2013-10-23T11:31:09.705Z</time>
      </trkpt>
      <trkpt lat="43.00186" lon="-0.13242">
        <ele>941.406</ele>
        <time>2013-10-23T11:31:12.496Z</time>
      </trkpt>
      <trkpt lat="43.00196" lon="-0.13241">
        <ele>940.593</ele>
        <time>2013-10-23T11:31:14.263Z</time>
      </trkpt>
      <trkpt lat="43.00208" lon="-0.13239">
        <ele>940.808</ele>
        <time>2013-10-23T11:31:16.345Z</time>
      </trkpt>
      <trkpt lat="43.00227" lon="-0.13236">
        <ele>941.6</ele>
        <time>2013-10-23T11:31:19.619Z</time>
      </trkpt>
      <trkpt lat="43.00248" lon="-0.13235">
        <ele>942.084</ele>
        <time>2013-10-23T11:31:23.337Z</time>
      </trkpt>
      <trkpt lat="43.00258" lon="-0.13251">
        <ele>941.499</ele>
        <time>2013-10-23T11:31:26.266Z</time>
      </trkpt>
      <trkpt lat="43.00265" lon="-0.13262">
        <ele>939.843</ele>
        <time>2013-10-23T11:31:28.343Z</time>
      </trkpt>
      <trkpt lat="43.0027" lon="-0.13272">
        <ele>938.134</ele>
        <time>2013-10-23T11:31:30.000Z</time>
      </trkpt>
      <trkpt lat="43.00275" lon="-0.13287">
        <ele>937.647</ele>
        <time>2013-10-23T11:31:32.184Z</time>
      </trkpt>
      <trkpt lat="43.00286" lon="-0.1331">
        <ele>938.636</ele>
        <time>2013-10-23T11:31:35.474Z</time>
      </trkpt>
      <trkpt lat="43.00298" lon="-0.13329">
        <ele>940.151</ele>
        <time>2013-10-23T11:31:38.469Z</time>
      </trkpt>
      <trkpt lat="43.00304" lon="-0.13341">
        <ele>941.306</ele>
        <time>2013-10-23T11:31:40.080Z</time>
      </trkpt>
      <trkpt lat="43.00309" lon="-0.13358">
        <ele>941.993</ele>
        <time>2013-10-23T11:31:42.384Z</time>
      </trkpt>
      <trkpt lat="43.00315" lon="-0.13368">
        <ele>942.278</ele>
        <time>2013-10-23T11:31:44.028Z</time>
      </trkpt>
      <trkpt lat="43.00322" lon="-0.1338">
        <ele>941.939</ele>
        <time>2013-10-23T11:31:46.006Z</time>
      </trkpt>
      <trkpt lat="43.00328" lon="-0.13391">
        <ele>940.951</ele>
        <time>2013-10-23T11:31:47.933Z</time>
      </trkpt>
      <trkpt lat="43.00337" lon="-0.13402">
        <ele>939.953</ele>
        <time>2013-10-23T11:31:50.213Z</time>
      </trkpt>
      <trkpt lat="43.00344" lon="-0.13414">
        <ele>939.477</ele>
        <time>2013-10-23T11:31:52.484Z</time>
      </trkpt>
      <trkpt lat="43.00353" lon="-0.1342">
        <ele>939.325</ele>
        <time>2013-10-23T11:31:54.849Z</time>
      </trkpt>
      <trkpt lat="43.00366" lon="-0.13419">
        <ele>939.064</ele>
        <time>2013-10-23T11:31:57.850Z</time>
      </trkpt>
      <trkpt lat="43.00375" lon="-0.13425">
        <ele>938.252</ele>
        <time>2013-10-23T11:32:00.321Z</time>
      </trkpt>
      <trkpt lat="43.00388" lon="-0.13435">
        <ele>936.895</ele>
        <time>2013-10-23T11:32:03.706Z</time>
      </trkpt>
      <trkpt lat="43.00398" lon="-0.13439">
        <ele>935.383</ele>
        <time>2013-10-23T11:32:05.954Z</time>
      </trkpt>
      <trkpt lat="43.00408" lon="-0.1344">
        <ele>934.099</ele>
        <time>2013-10-23T11:32:08.009Z</time>
      </trkpt>
      <trkpt lat="43.00424" lon="-0.13442">
        <ele>933.428</ele>
        <time>2013-10-23T11:32:10.994Z</time>
      </trkpt>
      <trkpt lat="43.00436" lon="-0.13444">
        <ele>933.473</ele>
        <time>2013-10-23T11:32:13.228Z</time>
      </trkpt>
      <trkpt lat="43.00454" lon="-0.13444">
        <ele>933.821</ele>
        <time>2013-10-23T11:32:16.277Z</time>
      </trkpt>
      <trkpt lat="43.00467" lon="-0.13447">
        <ele>934.126</ele>
        <time>2013-10-23T11:32:18.414Z</time>
      </trkpt>
      <trkpt lat="43.00485" lon="-0.13457">
        <ele>934.595</ele>
        <time>2013-10-23T11:32:21.444Z</time>
      </trkpt>
      <trkpt lat="43.00498" lon="-0.13468">
        <ele>935.434</ele>
        <time>2013-10-23T11:32:23.671Z</time>
      </trkpt>
      <trkpt lat="43.00519" lon="-0.13488">
        <ele>937.175</ele>
        <time>2013-10-23T11:32:27.167Z</time>
      </trkpt>
      <trkpt lat="43.00534" lon="-0.13511">
        <ele>939.962</ele>
        <time>2013-10-23T11:32:30.345Z</time>
      </trkpt>
      <trkpt lat="43.00545" lon="-0.13526">
        <ele>942.552</ele>
        <time>2013-10-23T11:32:32.756Z</time>
      </trkpt>
      <trkpt lat="43.00559" lon="-0.13545">
        <ele>943.801</ele>
        <time>2013-10-23T11:32:36.217Z</time>
      </trkpt>
      <trkpt lat="43.00566" lon="-0.13556">
        <ele>944.04</ele>
        <time>2013-10-23T11:32:38.307Z</time>
      </trkpt>
      <trkpt lat="43.00577" lon="-0.13569">
        <ele>943.942</ele>
        <time>2013-10-23T11:32:41.258Z</time>
      </trkpt>
      <trkpt lat="43.00588" lon="-0.13582">
        <ele>944.307</ele>
        <time>2013-10-23T11:32:44.189Z</time>
      </trkpt>
      <trkpt lat="43.00599" lon="-0.13597">
        <ele>945.64</ele>
        <time>2013-10-23T11:32:47.625Z</time>
      </trkpt>
      <trkpt lat="43.00605" lon="-0.13605">
        <ele>947.913</ele>
        <time>2013-10-23T11:32:49.661Z</time>
      </trkpt>
      <trkpt lat="43.00612" lon="-0.13614">
        <ele>950.604</ele>
        <time>2013-10-23T11:32:51.965Z</time>
      </trkpt>
      <trkpt lat="43.00622" lon="-0.13625">
        <ele>952.863</ele>
        <time>2013-10-23T11:32:55.522Z</time>
      </trkpt>
      <trkpt lat="43.00634" lon="-0.13633">
        <ele>954.127</ele>
        <time>2013-10-23T11:32:58.512Z</time>
      </trkpt>
      <trkpt lat="43.00644" lon="-0.13639">
        <ele>955.188</ele>
        <time>2013-10-23T11:33:00.830Z</time>
      </trkpt>
      <trkpt lat="43.00658" lon="-0.13647">
        <ele>957.005</ele>
        <time>2013-10-23T11:33:04.062Z</time>
      </trkpt>
      <trkpt lat="43.00672" lon="-0.13656">
        <ele>959.05</ele>
        <time>2013-10-23T11:33:06.896Z</time>
      </trkpt>
      <trkpt lat="43.00682" lon="-0.1366">
        <ele>960.941</ele>
        <time>2013-10-23T11:33:08.640Z</time>
      </trkpt>
      <trkpt lat="43.00693" lon="-0.13663">
        <ele>963.103</ele>
        <time>2013-10-23T11:33:10.575Z</time>
      </trkpt>
      <trkpt lat="43.0071" lon="-0.1367">
        <ele>965.045</ele>
        <time>2013-10-23T11:33:13.607Z</time>
      </trkpt>
      <trkpt lat="43.00722" lon="-0.13676">
        <ele>966.207</ele>
        <time>2013-10-23T11:33:15.711Z</time>
      </trkpt>
      <trkpt lat="43.00736" lon="-0.13687">
        <ele>966.9</ele>
        <time>2013-10-23T11:33:18.851Z</time>
      </trkpt>
      <trkpt lat="43.00745" lon="-0.13695">
        <ele>966.882</ele>
        <time>2013-10-23T11:33:21.063Z</time>
      </trkpt>
      <trkpt lat="43.00753" lon="-0.13702">
        <ele>965.843</ele>
        <time>2013-10-23T11:33:22.951Z</time>
      </trkpt>
      <trkpt lat="43.00765" lon="-0.13712">
        <ele>964.503</ele>
        <time>2013-10-23T11:33:25.877Z</time>
      </trkpt>
      <trkpt lat="43.00773" lon="-0.13718">
        <ele>963.945</ele>
        <time>2013-10-23T11:33:27.777Z</time>
      </trkpt>
      <trkpt lat="43.00787" lon="-0.13724">
        <ele>964.374</ele>
        <time>2013-10-23T11:33:30.963Z</time>
      </trkpt>
      <trkpt lat="43.00796" lon="-0.13729">
        <ele>965.12</ele>
        <time>2013-10-23T11:33:33.343Z</time>
      </trkpt>
      <trkpt lat="43.00809" lon="-0.1373">
        <ele>964.858</ele>
        <time>2013-10-23T11:33:36.521Z</time>
      </trkpt>
      <trkpt lat="43.00822" lon="-0.13727">
        <ele>962.951</ele>
        <time>2013-10-23T11:33:39.648Z</time>
      </trkpt>
      <trkpt lat="43.00835" lon="-0.13726">
        <ele>960.481</ele>
        <time>2013-10-23T11:33:42.730Z</time>
      </trkpt>
      <trkpt lat="43.00845" lon="-0.13727">
        <ele>958.93</ele>
        <time>2013-10-23T11:33:45.141Z</time>
      </trkpt>
      <trkpt lat="43.00859" lon="-0.1373">
        <ele>958.904</ele>
        <time>2013-10-23T11:33:48.936Z</time>
      </trkpt>
      <trkpt lat="43.00868" lon="-0.13735">
        <ele>960.211</ele>
        <time>2013-10-23T11:33:52.048Z</time>
      </trkpt>
      <trkpt lat="43.00876" lon="-0.13744">
        <ele>961.792</ele>
        <time>2013-10-23T11:33:55.059Z</time>
      </trkpt>
      <trkpt lat="43.00874" lon="-0.13758">
        <ele>962.319</ele>
        <time>2013-10-23T11:33:58.401Z</time>
      </trkpt>
      <trkpt lat="43.00871" lon="-0.13772">
        <ele>961.296</ele>
        <time>2013-10-23T11:34:01.686Z</time>
      </trkpt>
      <trkpt lat="43.00874" lon="-0.13788">
        <ele>959.565</ele>
        <time>2013-10-23T11:34:05.277Z</time>
      </trkpt>
      <trkpt lat="43.0088" lon="-0.138">
        <ele>959.155</ele>
        <time>2013-10-23T11:34:08.550Z</time>
      </trkpt>
      <trkpt lat="43.00891" lon="-0.13811">
        <ele>961.444</ele>
        <time>2013-10-23T11:34:12.271Z</time>
      </trkpt>
      <trkpt lat="43.00902" lon="-0.1382">
        <ele>965.236</ele>
        <time>2013-10-23T11:34:15.589Z</time>
      </trkpt>
      <trkpt lat="43.00912" lon="-0.13831">
        <ele>968.519</ele>
        <time>2013-10-23T11:34:18.425Z</time>
      </trkpt>
      <trkpt lat="43.00919" lon="-0.13841">
        <ele>970.7</ele>
        <time>2013-10-23T11:34:20.489Z</time>
      </trkpt>
      <trkpt lat="43.00931" lon="-0.13858">
        <ele>971.794</ele>
        <time>2013-10-23T11:34:23.569Z</time>
      </trkpt>
      <trkpt lat="43.0094" lon="-0.13869">
        <ele>971.69</ele>
        <time>2013-10-23T11:34:25.743Z</time>
      </trkpt>
      <trkpt lat="43.00951" lon="-0.13887">
        <ele>970.512</ele>
        <time>2013-10-23T11:34:28.949Z</time>
      </trkpt>
      <trkpt lat="43.00965" lon="-0.13897">
        <ele>968.886</ele>
        <time>2013-10-23T11:34:31.922Z</time>
      </trkpt>
      <trkpt lat="43.0098" lon="-0.13909">
        <ele>967.734</ele>
        <time>2013-10-23T11:34:34.881Z</time>
      </trkpt>
      <trkpt lat="43.00994" lon="-0.13919">
        <ele>967.904</ele>
        <time>2013-10-23T11:34:37.586Z</time>
      </trkpt>
      <trkpt lat="43.01009" lon="-0.13929">
        <ele>969.665</ele>
        <time>2013-10-23T11:34:40.290Z</time>
      </trkpt>
      <trkpt lat="43.01025" lon="-0.13942">
        <ele>972.26</ele>
        <time>2013-10-23T11:34:43.012Z</time>
      </trkpt>
      <trkpt lat="43.01044" lon="-0.13956">
        <ele>974.503</ele>
        <time>2013-10-23T11:34:45.956Z</time>
      </trkpt>
      <trkpt lat="43.01057" lon="-0.13959">
        <ele>975.737</ele>
        <time>2013-10-23T11:34:47.999Z</time>
      </trkpt>
      <trkpt lat="43.01076" lon="-0.13969">
        <ele>975.781</ele>
        <time>2013-10-23T11:34:50.898Z</time>
      </trkpt>
      <trkpt lat="43.01093" lon="-0.13981">
        <ele>974.732</ele>
        <time>2013-10-23T11:34:53.740Z</time>
      </trkpt>
      <trkpt lat="43.01106" lon="-0.13991">
        <ele>972.398</ele>
        <time>2013-10-23T11:34:55.818Z</time>
      </trkpt>
      <trkpt lat="43.01117" lon="-0.14001">
        <ele>969.23</ele>
        <time>2013-10-23T11:34:57.720Z</time>
      </trkpt>
      <trkpt lat="43.01137" lon="-0.14012">
        <ele>966.914</ele>
        <time>2013-10-23T11:35:00.759Z</time>
      </trkpt>
      <trkpt lat="43.0115" lon="-0.14021">
        <ele>966.449</ele>
        <time>2013-10-23T11:35:02.821Z</time>
      </trkpt>
      <trkpt lat="43.01161" lon="-0.14032">
        <ele>966.974</ele>
        <time>2013-10-23T11:35:04.711Z</time>
      </trkpt>
      <trkpt lat="43.01176" lon="-0.14053">
        <ele>967.331</ele>
        <time>2013-10-23T11:35:07.693Z</time>
      </trkpt>
      <trkpt lat="43.0119" lon="-0.14075">
        <ele>967.16</ele>
        <time>2013-10-23T11:35:10.730Z</time>
      </trkpt>
      <trkpt lat="43.01206" lon="-0.14092">
        <ele>966.805</ele>
        <time>2013-10-23T11:35:13.860Z</time>
      </trkpt>
      <trkpt lat="43.01218" lon="-0.14104">
        <ele>966.599</ele>
        <time>2013-10-23T11:35:16.139Z</time>
      </trkpt>
      <trkpt lat="43.01228" lon="-0.14115">
        <ele>966.214</ele>
        <time>2013-10-23T11:35:18.555Z</time>
      </trkpt>
      <trkpt lat="43.01237" lon="-0.14128">
        <ele>965.221</ele>
        <time>2013-10-23T11:35:21.195Z</time>
      </trkpt>
      <trkpt lat="43.0124" lon="-0.14146">
        <ele>963.912</ele>
        <time>2013-10-23T11:35:24.231Z</time>
      </trkpt>
      <trkpt lat="43.01235" lon="-0.1416">
        <ele>962.849</ele>
        <time>2013-10-23T11:35:26.596Z</time>
      </trkpt>
      <trkpt lat="43.01227" lon="-0.14173">
        <ele>962.023</ele>
        <time>2013-10-23T11:35:29.191Z</time>
      </trkpt>
      <trkpt lat="43.01223" lon="-0.14189">
        <ele>961.193</ele>
        <time>2013-10-23T11:35:31.672Z</time>
      </trkpt>
      <trkpt lat="43.0122" lon="-0.142">
        <ele>960.437</ele>
        <time>2013-10-23T11:35:33.503Z</time>
      </trkpt>
      <trkpt lat="43.01215" lon="-0.14217">
        <ele>960.191</ele>
        <time>2013-10-23T11:35:36.460Z</time>
      </trkpt>
      <trkpt lat="43.0121" lon="-0.14233">
        <ele>960.657</ele>
        <time>2013-10-23T11:35:39.306Z</time>
      </trkpt>
      <trkpt lat="43.01209" lon="-0.14254">
        <ele>961.482</ele>
        <time>2013-10-23T11:35:42.464Z</time>
      </trkpt>
      <trkpt lat="43.01211" lon="-0.14279">
        <ele>962.236</ele>
        <time>2013-10-23T11:35:45.918Z</time>
      </trkpt>
      <trkpt lat="43.01211" lon="-0.14279">
        <ele>962.236</ele>
        <time>2013-10-23T11:35:45.918Z</time>
      </trkpt>
      <trkpt lat="43.01229" lon="-0.14367">
        <ele>954.749</ele>
        <time>2013-10-23T11:35:57.921Z</time>
      </trkpt>
      <trkpt lat="43.01225" lon="-0.14389">
        <ele>954.308</ele>
        <time>2013-10-23T11:36:00.770Z</time>
      </trkpt>
      <trkpt lat="43.01221" lon="-0.14404">
        <ele>953.758</ele>
        <time>2013-10-23T11:36:02.794Z</time>
      </trkpt>
      <trkpt lat="43.01214" lon="-0.14426">
        <ele>952.755</ele>
        <time>2013-10-23T11:36:05.936Z</time>
      </trkpt>
      <trkpt lat="43.01211" lon="-0.14438">
        <ele>951.895</ele>
        <time>2013-10-23T11:36:07.682Z</time>
      </trkpt>
      <trkpt lat="43.01206" lon="-0.14456">
        <ele>952.198</ele>
        <time>2013-10-23T11:36:10.092Z</time>
      </trkpt>
      <trkpt lat="43.012" lon="-0.14476">
        <ele>953.601</ele>
        <time>2013-10-23T11:36:12.891Z</time>
      </trkpt>
      <trkpt lat="43.01196" lon="-0.14499">
        <ele>954.928</ele>
        <time>2013-10-23T11:36:16.146Z</time>
      </trkpt>
      <trkpt lat="43.01194" lon="-0.1452">
        <ele>954.916</ele>
        <time>2013-10-23T11:36:19.588Z</time>
      </trkpt>
      <trkpt lat="43.0119" lon="-0.14536">
        <ele>953.585</ele>
        <time>2013-10-23T11:36:22.849Z</time>
      </trkpt>
      <trkpt lat="43.01187" lon="-0.14551">
        <ele>952.321</ele>
        <time>2013-10-23T11:36:25.718Z</time>
      </trkpt>
      <trkpt lat="43.01182" lon="-0.14567">
        <ele>952.295</ele>
        <time>2013-10-23T11:36:28.659Z</time>
      </trkpt>
      <trkpt lat="43.01177" lon="-0.14582">
        <ele>954.114</ele>
        <time>2013-10-23T11:36:31.834Z</time>
      </trkpt>
      <trkpt lat="43.01171" lon="-0.14596">
        <ele>957.437</ele>
        <time>2013-10-23T11:36:35.182Z</time>
      </trkpt>
      <trkpt lat="43.01167" lon="-0.1461">
        <ele>960.37</ele>
        <time>2013-10-23T11:36:38.110Z</time>
      </trkpt>
      <trkpt lat="43.01165" lon="-0.14622">
        <ele>961.549</ele>
        <time>2013-10-23T11:36:40.311Z</time>
      </trkpt>
      <trkpt lat="43.01163" lon="-0.14639">
        <ele>961.466</ele>
        <time>2013-10-23T11:36:43.189Z</time>
      </trkpt>
      <trkpt lat="43.0116" lon="-0.14656">
        <ele>960.658</ele>
        <time>2013-10-23T11:36:45.769Z</time>
      </trkpt>
      <trkpt lat="43.01161" lon="-0.14668">
        <ele>959.444</ele>
        <time>2013-10-23T11:36:47.567Z</time>
      </trkpt>
      <trkpt lat="43.01162" lon="-0.14688">
        <ele>958.722</ele>
        <time>2013-10-23T11:36:50.101Z</time>
      </trkpt>
      <trkpt lat="43.0116" lon="-0.14704">
        <ele>959.125</ele>
        <time>2013-10-23T11:36:51.878Z</time>
      </trkpt>
      <trkpt lat="43.01157" lon="-0.1472">
        <ele>960.077</ele>
        <time>2013-10-23T11:36:53.682Z</time>
      </trkpt>
      <trkpt lat="43.01154" lon="-0.14749">
        <ele>960.849</ele>
        <time>2013-10-23T11:36:57.022Z</time>
      </trkpt>
      <trkpt lat="43.0115" lon="-0.14766">
        <ele>961.231</ele>
        <time>2013-10-23T11:36:59.117Z</time>
      </trkpt>
      <trkpt lat="43.01147" lon="-0.14792">
        <ele>961.612</ele>
        <time>2013-10-23T11:37:02.486Z</time>
      </trkpt>
      <trkpt lat="43.01143" lon="-0.14816">
        <ele>962.625</ele>
        <time>2013-10-23T11:37:05.594Z</time>
      </trkpt>
      <trkpt lat="43.01138" lon="-0.14838">
        <ele>964.06</ele>
        <time>2013-10-23T11:37:08.517Z</time>
      </trkpt>
      <trkpt lat="43.01135" lon="-0.14853">
        <ele>964.757</ele>
        <time>2013-10-23T11:37:10.308Z</time>
      </trkpt>
      <trkpt lat="43.0113" lon="-0.14867">
        <ele>964.134</ele>
        <time>2013-10-23T11:37:12.040Z</time>
      </trkpt>
      <trkpt lat="43.01122" lon="-0.14892">
        <ele>962.942</ele>
        <time>2013-10-23T11:37:14.935Z</time>
      </trkpt>
      <trkpt lat="43.01117" lon="-0.14909">
        <ele>962.589</ele>
        <time>2013-10-23T11:37:16.861Z</time>
      </trkpt>
      <trkpt lat="43.01112" lon="-0.14924">
        <ele>963.78</ele>
        <time>2013-10-23T11:37:18.681Z</time>
      </trkpt>
      <trkpt lat="43.01106" lon="-0.14941">
        <ele>965.669</ele>
        <time>2013-10-23T11:37:20.618Z</time>
      </trkpt>
      <trkpt lat="43.01099" lon="-0.14969">
        <ele>967.13</ele>
        <time>2013-10-23T11:37:23.718Z</time>
      </trkpt>
      <trkpt lat="43.01096" lon="-0.14986">
        <ele>968.094</ele>
        <time>2013-10-23T11:37:25.604Z</time>
      </trkpt>
      <trkpt lat="43.01089" lon="-0.15007">
        <ele>970.035</ele>
        <time>2013-10-23T11:37:28.097Z</time>
      </trkpt>
      <trkpt lat="43.01084" lon="-0.1502">
        <ele>973.831</ele>
        <time>2013-10-23T11:37:29.568Z</time>
      </trkpt>
      <trkpt lat="43.01077" lon="-0.15048">
        <ele>977.869</ele>
        <time>2013-10-23T11:37:32.321Z</time>
      </trkpt>
      <trkpt lat="43.01068" lon="-0.15079">
        <ele>980.115</ele>
        <time>2013-10-23T11:37:35.193Z</time>
      </trkpt>
      <trkpt lat="43.01057" lon="-0.15111">
        <ele>980.377</ele>
        <time>2013-10-23T11:37:38.170Z</time>
      </trkpt>
      <trkpt lat="43.01049" lon="-0.15127">
        <ele>978.798</ele>
        <time>2013-10-23T11:37:39.957Z</time>
      </trkpt>
      <trkpt lat="43.01041" lon="-0.15141">
        <ele>975.591</ele>
        <time>2013-10-23T11:37:41.631Z</time>
      </trkpt>
      <trkpt lat="43.01027" lon="-0.15166">
        <ele>972.023</ele>
        <time>2013-10-23T11:37:44.694Z</time>
      </trkpt>
      <trkpt lat="43.01016" lon="-0.15181">
        <ele>969.765</ele>
        <time>2013-10-23T11:37:46.934Z</time>
      </trkpt>
      <trkpt lat="43.01005" lon="-0.15199">
        <ele>969.115</ele>
        <time>2013-10-23T11:37:49.827Z</time>
      </trkpt>
      <trkpt lat="43.01002" lon="-0.15213">
        <ele>969.466</ele>
        <time>2013-10-23T11:37:52.290Z</time>
      </trkpt>
      <trkpt lat="43.00999" lon="-0.15228">
        <ele>970.147</ele>
        <time>2013-10-23T11:37:55.509Z</time>
      </trkpt>
      <trkpt lat="43.00996" lon="-0.15241">
        <ele>970.015</ele>
        <time>2013-10-23T11:37:58.326Z</time>
      </trkpt>
      <trkpt lat="43.00993" lon="-0.15256">
        <ele>968.135</ele>
        <time>2013-10-23T11:38:01.596Z</time>
      </trkpt>
      <trkpt lat="43.0099" lon="-0.15268">
        <ele>965.351</ele>
        <time>2013-10-23T11:38:04.340Z</time>
      </trkpt>
      <trkpt lat="43.00986" lon="-0.15281">
        <ele>963.415</ele>
        <time>2013-10-23T11:38:07.277Z</time>
      </trkpt>
      <trkpt lat="43.00983" lon="-0.15294">
        <ele>963.057</ele>
        <time>2013-10-23T11:38:10.386Z</time>
      </trkpt>
      <trkpt lat="43.0098" lon="-0.15308">
        <ele>963.802</ele>
        <time>2013-10-23T11:38:13.974Z</time>
      </trkpt>
      <trkpt lat="43.00978" lon="-0.15322">
        <ele>965.145</ele>
        <time>2013-10-23T11:38:17.442Z</time>
      </trkpt>
      <trkpt lat="43.00978" lon="-0.15336">
        <ele>967.342</ele>
        <time>2013-10-23T11:38:20.778Z</time>
      </trkpt>
      <trkpt lat="43.00979" lon="-0.15349">
        <ele>970.096</ele>
        <time>2013-10-23T11:38:23.708Z</time>
      </trkpt>
      <trkpt lat="43.0098" lon="-0.15364">
        <ele>971.89</ele>
        <time>2013-10-23T11:38:27.280Z</time>
      </trkpt>
      <trkpt lat="43.00981" lon="-0.15377">
        <ele>971.604</ele>
        <time>2013-10-23T11:38:30.389Z</time>
      </trkpt>
      <trkpt lat="43.0098" lon="-0.15393">
        <ele>969.809</ele>
        <time>2013-10-23T11:38:34.431Z</time>
      </trkpt>
      <trkpt lat="43.00978" lon="-0.15405">
        <ele>968.316</ele>
        <time>2013-10-23T11:38:37.543Z</time>
      </trkpt>
      <trkpt lat="43.00975" lon="-0.15417">
        <ele>968.149</ele>
        <time>2013-10-23T11:38:40.816Z</time>
      </trkpt>
      <trkpt lat="43.00973" lon="-0.15429">
        <ele>968.606</ele>
        <time>2013-10-23T11:38:43.670Z</time>
      </trkpt>
      <trkpt lat="43.00972" lon="-0.15444">
        <ele>968.626</ele>
        <time>2013-10-23T11:38:46.746Z</time>
      </trkpt>
      <trkpt lat="43.00975" lon="-0.15464">
        <ele>968.241</ele>
        <time>2013-10-23T11:38:50.287Z</time>
      </trkpt>
      <trkpt lat="43.00977" lon="-0.15477">
        <ele>968.206</ele>
        <time>2013-10-23T11:38:52.484Z</time>
      </trkpt>
      <trkpt lat="43.00979" lon="-0.15494">
        <ele>969.247</ele>
        <time>2013-10-23T11:38:55.211Z</time>
      </trkpt>
      <trkpt lat="43.00982" lon="-0.15514">
        <ele>970.628</ele>
        <time>2013-10-23T11:38:58.517Z</time>
      </trkpt>
      <trkpt lat="43.00984" lon="-0.1553">
        <ele>970.775</ele>
        <time>2013-10-23T11:39:01.049Z</time>
      </trkpt>
      <trkpt lat="43.00987" lon="-0.15546">
        <ele>969.673</ele>
        <time>2013-10-23T11:39:03.702Z</time>
      </trkpt>
      <trkpt lat="43.00992" lon="-0.15567">
        <ele>968.035</ele>
        <time>2013-10-23T11:39:07.211Z</time>
      </trkpt>
      <trkpt lat="43.00994" lon="-0.15584">
        <ele>965.998</ele>
        <time>2013-10-23T11:39:10.101Z</time>
      </trkpt>
      <trkpt lat="43.00994" lon="-0.156">
        <ele>964.191</ele>
        <time>2013-10-23T11:39:12.684Z</time>
      </trkpt>
      <trkpt lat="43.00993" lon="-0.15618">
        <ele>963.106</ele>
        <time>2013-10-23T11:39:15.547Z</time>
      </trkpt>
      <trkpt lat="43.00993" lon="-0.15636">
        <ele>962.895</ele>
        <time>2013-10-23T11:39:18.341Z</time>
      </trkpt>
      <trkpt lat="43.00994" lon="-0.15658">
        <ele>964.275</ele>
        <time>2013-10-23T11:39:21.638Z</time>
      </trkpt>
      <trkpt lat="43.00995" lon="-0.15671">
        <ele>967.046</ele>
        <time>2013-10-23T11:39:23.594Z</time>
      </trkpt>
      <trkpt lat="43.00995" lon="-0.15684">
        <ele>969.201</ele>
        <time>2013-10-23T11:39:25.659Z</time>
      </trkpt>
      <trkpt lat="43.00996" lon="-0.15702">
        <ele>969.469</ele>
        <time>2013-10-23T11:39:28.443Z</time>
      </trkpt>
      <trkpt lat="43.00997" lon="-0.15719">
        <ele>968.826</ele>
        <time>2013-10-23T11:39:31.413Z</time>
      </trkpt>
      <trkpt lat="43.00999" lon="-0.15735">
        <ele>968.859</ele>
        <time>2013-10-23T11:39:34.311Z</time>
      </trkpt>
      <trkpt lat="43.01001" lon="-0.1575">
        <ele>970.134</ele>
        <time>2013-10-23T11:39:37.255Z</time>
      </trkpt>
      <trkpt lat="43.01002" lon="-0.15763">
        <ele>971.808</ele>
        <time>2013-10-23T11:39:39.812Z</time>
      </trkpt>
      <trkpt lat="43.01003" lon="-0.15777">
        <ele>973.18</ele>
        <time>2013-10-23T11:39:42.767Z</time>
      </trkpt>
      <trkpt lat="43.01003" lon="-0.15791">
        <ele>974.349</ele>
        <time>2013-10-23T11:39:46.069Z</time>
      </trkpt>
      <trkpt lat="43.01004" lon="-0.15804">
        <ele>975.017</ele>
        <time>2013-10-23T11:39:49.041Z</time>
      </trkpt>
      <trkpt lat="43.01005" lon="-0.15821">
        <ele>974.905</ele>
        <time>2013-10-23T11:39:52.703Z</time>
      </trkpt>
      <trkpt lat="43.01007" lon="-0.15834">
        <ele>974.483</ele>
        <time>2013-10-23T11:39:55.024Z</time>
      </trkpt>
      <trkpt lat="43.01011" lon="-0.15853">
        <ele>974.56</ele>
        <time>2013-10-23T11:39:58.224Z</time>
      </trkpt>
      <trkpt lat="43.01014" lon="-0.15866">
        <ele>975.503</ele>
        <time>2013-10-23T11:40:00.599Z</time>
      </trkpt>
      <trkpt lat="43.01017" lon="-0.15879">
        <ele>976.634</ele>
        <time>2013-10-23T11:40:02.889Z</time>
      </trkpt>
      <trkpt lat="43.01018" lon="-0.15894">
        <ele>977.215</ele>
        <time>2013-10-23T11:40:05.752Z</time>
      </trkpt>
      <trkpt lat="43.01017" lon="-0.15912">
        <ele>977.388</ele>
        <time>2013-10-23T11:40:09.574Z</time>
      </trkpt>
      <trkpt lat="43.01017" lon="-0.15912">
        <ele>977.441</ele>
        <time>2013-10-23T11:40:18.568Z</time>
      </trkpt>
      <trkpt lat="43.01017" lon="-0.15912">
        <ele>977.282</ele>
        <time>2013-10-23T11:40:37.671Z</time>
      </trkpt>
      <trkpt lat="43.01005" lon="-0.15919">
        <ele>976.864</ele>
        <time>2013-10-23T11:41:07.084Z</time>
      </trkpt>
      <trkpt lat="43.01004" lon="-0.15899">
        <ele>976.439</ele>
        <time>2013-10-23T11:41:14.685Z</time>
      </trkpt>
      <trkpt lat="43.01" lon="-0.15887">
        <ele>977.695</ele>
        <time>2013-10-23T11:41:18.037Z</time>
      </trkpt>
      <trkpt lat="43.00997" lon="-0.15871">
        <ele>981.61</ele>
        <time>2013-10-23T11:41:22.241Z</time>
      </trkpt>
      <trkpt lat="43.00993" lon="-0.15856">
        <ele>985.638</ele>
        <time>2013-10-23T11:41:25.981Z</time>
      </trkpt>
      <trkpt lat="43.00986" lon="-0.15845">
        <ele>987.195</ele>
        <time>2013-10-23T11:41:29.707Z</time>
      </trkpt>
      <trkpt lat="43.00979" lon="-0.15834">
        <ele>986.553</ele>
        <time>2013-10-23T11:41:33.247Z</time>
      </trkpt>
      <trkpt lat="43.0097" lon="-0.15823">
        <ele>985.474</ele>
        <time>2013-10-23T11:41:37.127Z</time>
      </trkpt>
      <trkpt lat="43.00964" lon="-0.1581">
        <ele>985.378</ele>
        <time>2013-10-23T11:41:40.746Z</time>
      </trkpt>
      <trkpt lat="43.00957" lon="-0.15801">
        <ele>986.115</ele>
        <time>2013-10-23T11:41:43.754Z</time>
      </trkpt>
      <trkpt lat="43.00952" lon="-0.1579">
        <ele>987.271</ele>
        <time>2013-10-23T11:41:46.683Z</time>
      </trkpt>
      <trkpt lat="43.00952" lon="-0.1579">
        <ele>987.271</ele>
        <time>2013-10-23T11:41:46.683Z</time>
      </trkpt>
      <trkpt lat="43.00944" lon="-0.15755">
        <ele>994.099</ele>
        <time>2013-10-23T11:41:55.668Z</time>
      </trkpt>
      <trkpt lat="43.00942" lon="-0.15741">
        <ele>993.641</ele>
        <time>2013-10-23T11:41:59.673Z</time>
      </trkpt>
      <trkpt lat="43.00937" lon="-0.15731">
        <ele>993.856</ele>
        <time>2013-10-23T11:42:03.887Z</time>
      </trkpt>
      <trkpt lat="43.00935" lon="-0.15717">
        <ele>995.203</ele>
        <time>2013-10-23T11:42:07.875Z</time>
      </trkpt>
      <trkpt lat="43.00931" lon="-0.15702">
        <ele>997.029</ele>
        <time>2013-10-23T11:42:11.423Z</time>
      </trkpt>
      <trkpt lat="43.00925" lon="-0.15693">
        <ele>998.24</ele>
        <time>2013-10-23T11:42:14.300Z</time>
      </trkpt>
      <trkpt lat="43.0092" lon="-0.15679">
        <ele>998.701</ele>
        <time>2013-10-23T11:42:17.926Z</time>
      </trkpt>
      <trkpt lat="43.00912" lon="-0.15667">
        <ele>998.852</ele>
        <time>2013-10-23T11:42:21.451Z</time>
      </trkpt>
      <trkpt lat="43.00906" lon="-0.15658">
        <ele>998.651</ele>
        <time>2013-10-23T11:42:24.272Z</time>
      </trkpt>
      <trkpt lat="43.00899" lon="-0.15646">
        <ele>998.159</ele>
        <time>2013-10-23T11:42:27.986Z</time>
      </trkpt>
      <trkpt lat="43.00894" lon="-0.15635">
        <ele>997.686</ele>
        <time>2013-10-23T11:42:30.966Z</time>
      </trkpt>
      <trkpt lat="43.00887" lon="-0.15623">
        <ele>998.231</ele>
        <time>2013-10-23T11:42:34.494Z</time>
      </trkpt>
      <trkpt lat="43.00853" lon="-0.15567">
        <ele>1002.392</ele>
        <time>2013-10-23T11:42:50.863Z</time>
      </trkpt>
      <trkpt lat="43.00846" lon="-0.15559">
        <ele>1003.558</ele>
        <time>2013-10-23T11:42:53.881Z</time>
      </trkpt>
      <trkpt lat="43.0084" lon="-0.15547">
        <ele>1004.428</ele>
        <time>2013-10-23T11:42:57.487Z</time>
      </trkpt>
      <trkpt lat="43.00833" lon="-0.1554">
        <ele>1005.576</ele>
        <time>2013-10-23T11:43:00.711Z</time>
      </trkpt>
      <trkpt lat="43.00824" lon="-0.15539">
        <ele>1007.123</ele>
        <time>2013-10-23T11:43:04.754Z</time>
      </trkpt>
      <trkpt lat="43.00818" lon="-0.15551">
        <ele>1008.98</ele>
        <time>2013-10-23T11:43:09.572Z</time>
      </trkpt>
      <trkpt lat="43.00813" lon="-0.15564">
        <ele>1010.401</ele>
        <time>2013-10-23T11:43:13.997Z</time>
      </trkpt>
      <trkpt lat="43.00808" lon="-0.15574">
        <ele>1010.433</ele>
        <time>2013-10-23T11:43:17.418Z</time>
      </trkpt>
      <trkpt lat="43.008" lon="-0.15586">
        <ele>1009.319</ele>
        <time>2013-10-23T11:43:21.643Z</time>
      </trkpt>
      <trkpt lat="43.00793" lon="-0.15596">
        <ele>1008.123</ele>
        <time>2013-10-23T11:43:25.796Z</time>
      </trkpt>
      <trkpt lat="43.00787" lon="-0.15605">
        <ele>1007.539</ele>
        <time>2013-10-23T11:43:29.690Z</time>
      </trkpt>
      <trkpt lat="43.00782" lon="-0.15616">
        <ele>1008.076</ele>
        <time>2013-10-23T11:43:33.581Z</time>
      </trkpt>
      <trkpt lat="43.00777" lon="-0.15628">
        <ele>1009.827</ele>
        <time>2013-10-23T11:43:37.638Z</time>
      </trkpt>
      <trkpt lat="43.0077" lon="-0.15637">
        <ele>1011.96</ele>
        <time>2013-10-23T11:43:41.167Z</time>
      </trkpt>
      <trkpt lat="43.00764" lon="-0.15648">
        <ele>1013.896</ele>
        <time>2013-10-23T11:43:44.729Z</time>
      </trkpt>
      <trkpt lat="43.00759" lon="-0.15662">
        <ele>1015.857</ele>
        <time>2013-10-23T11:43:48.670Z</time>
      </trkpt>
      <trkpt lat="43.00754" lon="-0.15674">
        <ele>1017.942</ele>
        <time>2013-10-23T11:43:52.405Z</time>
      </trkpt>
      <trkpt lat="43.00748" lon="-0.15686">
        <ele>1020.278</ele>
        <time>2013-10-23T11:43:56.338Z</time>
      </trkpt>
      <trkpt lat="43.00742" lon="-0.15696">
        <ele>1022.693</ele>
        <time>2013-10-23T11:44:00.014Z</time>
      </trkpt>
      <trkpt lat="43.00735" lon="-0.15708">
        <ele>1025.244</ele>
        <time>2013-10-23T11:44:04.320Z</time>
      </trkpt>
      <trkpt lat="43.00728" lon="-0.15718">
        <ele>1028.063</ele>
        <time>2013-10-23T11:44:08.016Z</time>
      </trkpt>
      <trkpt lat="43.00721" lon="-0.15726">
        <ele>1031.084</ele>
        <time>2013-10-23T11:44:11.260Z</time>
      </trkpt>
      <trkpt lat="43.00712" lon="-0.15735">
        <ele>1034.151</ele>
        <time>2013-10-23T11:44:15.221Z</time>
      </trkpt>
      <trkpt lat="43.00704" lon="-0.15745">
        <ele>1036.786</ele>
        <time>2013-10-23T11:44:19.261Z</time>
      </trkpt>
      <trkpt lat="43.00695" lon="-0.15755">
        <ele>1039.564</ele>
        <time>2013-10-23T11:44:23.400Z</time>
      </trkpt>
      <trkpt lat="43.00689" lon="-0.15765">
        <ele>1043.446</ele>
        <time>2013-10-23T11:44:26.936Z</time>
      </trkpt>
      <trkpt lat="43.00683" lon="-0.15775">
        <ele>1046.939</ele>
        <time>2013-10-23T11:44:30.338Z</time>
      </trkpt>
      <trkpt lat="43.00676" lon="-0.15785">
        <ele>1048.103</ele>
        <time>2013-10-23T11:44:33.503Z</time>
      </trkpt>
      <trkpt lat="43.0067" lon="-0.15795">
        <ele>1047.249</ele>
        <time>2013-10-23T11:44:36.453Z</time>
      </trkpt>
      <trkpt lat="43.00664" lon="-0.15806">
        <ele>1045.539</ele>
        <time>2013-10-23T11:44:39.641Z</time>
      </trkpt>
      <trkpt lat="43.00655" lon="-0.1582">
        <ele>1043.963</ele>
        <time>2013-10-23T11:44:43.333Z</time>
      </trkpt>
      <trkpt lat="43.00647" lon="-0.15829">
        <ele>1042.851</ele>
        <time>2013-10-23T11:44:46.364Z</time>
      </trkpt>
      <trkpt lat="43.00638" lon="-0.15836">
        <ele>1041.614</ele>
        <time>2013-10-23T11:44:49.395Z</time>
      </trkpt>
      <trkpt lat="43.00632" lon="-0.15846">
        <ele>1039.577</ele>
        <time>2013-10-23T11:44:52.052Z</time>
      </trkpt>
      <trkpt lat="43.00625" lon="-0.15858">
        <ele>1037.258</ele>
        <time>2013-10-23T11:44:55.250Z</time>
      </trkpt>
      <trkpt lat="43.00622" lon="-0.1587">
        <ele>1035.652</ele>
        <time>2013-10-23T11:44:57.826Z</time>
      </trkpt>
      <trkpt lat="43.00619" lon="-0.15885">
        <ele>1034.924</ele>
        <time>2013-10-23T11:45:01.154Z</time>
      </trkpt>
      <trkpt lat="43.00617" lon="-0.15899">
        <ele>1034.455</ele>
        <time>2013-10-23T11:45:04.057Z</time>
      </trkpt>
      <trkpt lat="43.00614" lon="-0.15912">
        <ele>1033.678</ele>
        <time>2013-10-23T11:45:07.121Z</time>
      </trkpt>
      <trkpt lat="43.00613" lon="-0.15926">
        <ele>1032.677</ele>
        <time>2013-10-23T11:45:10.237Z</time>
      </trkpt>
      <trkpt lat="43.00613" lon="-0.15943">
        <ele>1031.921</ele>
        <time>2013-10-23T11:45:13.876Z</time>
      </trkpt>
      <trkpt lat="43.00615" lon="-0.15957">
        <ele>1031.758</ele>
        <time>2013-10-23T11:45:16.991Z</time>
      </trkpt>
      <trkpt lat="43.00617" lon="-0.15971">
        <ele>1032.149</ele>
        <time>2013-10-23T11:45:20.069Z</time>
      </trkpt>
      <trkpt lat="43.00619" lon="-0.15985">
        <ele>1032.886</ele>
        <time>2013-10-23T11:45:23.135Z</time>
      </trkpt>
      <trkpt lat="43.00622" lon="-0.16002">
        <ele>1033.7</ele>
        <time>2013-10-23T11:45:26.794Z</time>
      </trkpt>
      <trkpt lat="43.00623" lon="-0.16016">
        <ele>1033.944</ele>
        <time>2013-10-23T11:45:29.942Z</time>
      </trkpt>
      <trkpt lat="43.00626" lon="-0.16029">
        <ele>1033.269</ele>
        <time>2013-10-23T11:45:32.873Z</time>
      </trkpt>
      <trkpt lat="43.00629" lon="-0.16043">
        <ele>1033.197</ele>
        <time>2013-10-23T11:45:36.250Z</time>
      </trkpt>
      <trkpt lat="43.0063" lon="-0.16055">
        <ele>1035.326</ele>
        <time>2013-10-23T11:45:39.077Z</time>
      </trkpt>
      <trkpt lat="43.00631" lon="-0.16069">
        <ele>1039.418</ele>
        <time>2013-10-23T11:45:42.082Z</time>
      </trkpt>
      <trkpt lat="43.00634" lon="-0.16084">
        <ele>1044.264</ele>
        <time>2013-10-23T11:45:45.790Z</time>
      </trkpt>
      <trkpt lat="43.00636" lon="-0.161">
        <ele>1049.815</ele>
        <time>2013-10-23T11:45:49.742Z</time>
      </trkpt>
      <trkpt lat="43.00639" lon="-0.16113">
        <ele>1056.779</ele>
        <time>2013-10-23T11:45:52.956Z</time>
      </trkpt>
      <trkpt lat="43.00642" lon="-0.16126">
        <ele>1064.236</ele>
        <time>2013-10-23T11:45:56.123Z</time>
      </trkpt>
      <trkpt lat="43.00646" lon="-0.16143">
        <ele>1070.154</ele>
        <time>2013-10-23T11:45:59.698Z</time>
      </trkpt>
      <trkpt lat="43.0065" lon="-0.16157">
        <ele>1074.081</ele>
        <time>2013-10-23T11:46:02.824Z</time>
      </trkpt>
      <trkpt lat="43.00651" lon="-0.16172">
        <ele>1076.067</ele>
        <time>2013-10-23T11:46:05.807Z</time>
      </trkpt>
      <trkpt lat="43.00654" lon="-0.16187">
        <ele>1076.028</ele>
        <time>2013-10-23T11:46:09.230Z</time>
      </trkpt>
      <trkpt lat="43.00656" lon="-0.16199">
        <ele>1074.349</ele>
        <time>2013-10-23T11:46:11.894Z</time>
      </trkpt>
      <trkpt lat="43.0066" lon="-0.16214">
        <ele>1071.993</ele>
        <time>2013-10-23T11:46:15.210Z</time>
      </trkpt>
      <trkpt lat="43.00665" lon="-0.16228">
        <ele>1070.142</ele>
        <time>2013-10-23T11:46:18.462Z</time>
      </trkpt>
      <trkpt lat="43.00668" lon="-0.16241">
        <ele>1069.388</ele>
        <time>2013-10-23T11:46:21.615Z</time>
      </trkpt>
      <trkpt lat="43.00671" lon="-0.16254">
        <ele>1069.593</ele>
        <time>2013-10-23T11:46:25.285Z</time>
      </trkpt>
      <trkpt lat="43.00673" lon="-0.16268">
        <ele>1070.69</ele>
        <time>2013-10-23T11:46:29.440Z</time>
      </trkpt>
      <trkpt lat="43.00675" lon="-0.16284">
        <ele>1072.408</ele>
        <time>2013-10-23T11:46:33.713Z</time>
      </trkpt>
      <trkpt lat="43.00677" lon="-0.16299">
        <ele>1074.551</ele>
        <time>2013-10-23T11:46:37.625Z</time>
      </trkpt>
      <trkpt lat="43.00677" lon="-0.16315">
        <ele>1077.379</ele>
        <time>2013-10-23T11:46:41.470Z</time>
      </trkpt>
      <trkpt lat="43.00679" lon="-0.16333">
        <ele>1080.422</ele>
        <time>2013-10-23T11:46:45.483Z</time>
      </trkpt>
      <trkpt lat="43.00679" lon="-0.1635">
        <ele>1081.131</ele>
        <time>2013-10-23T11:46:48.513Z</time>
      </trkpt>
      <trkpt lat="43.00677" lon="-0.16362">
        <ele>1078.354</ele>
        <time>2013-10-23T11:46:51.067Z</time>
      </trkpt>
      <trkpt lat="43.00675" lon="-0.16378">
        <ele>1074.267</ele>
        <time>2013-10-23T11:46:54.334Z</time>
      </trkpt>
      <trkpt lat="43.00672" lon="-0.16391">
        <ele>1071.101</ele>
        <time>2013-10-23T11:46:57.490Z</time>
      </trkpt>
      <trkpt lat="43.00669" lon="-0.16403">
        <ele>1069.42</ele>
        <time>2013-10-23T11:47:00.559Z</time>
      </trkpt>
      <trkpt lat="43.00665" lon="-0.16415">
        <ele>1069.208</ele>
        <time>2013-10-23T11:47:03.727Z</time>
      </trkpt>
      <trkpt lat="43.00662" lon="-0.16428">
        <ele>1070.04</ele>
        <time>2013-10-23T11:47:07.063Z</time>
      </trkpt>
      <trkpt lat="43.00655" lon="-0.16438">
        <ele>1071.566</ele>
        <time>2013-10-23T11:47:10.703Z</time>
      </trkpt>
      <trkpt lat="43.00647" lon="-0.16447">
        <ele>1073.146</ele>
        <time>2013-10-23T11:47:14.645Z</time>
      </trkpt>
      <trkpt lat="43.00638" lon="-0.16454">
        <ele>1074.115</ele>
        <time>2013-10-23T11:47:18.471Z</time>
      </trkpt>
      <trkpt lat="43.00629" lon="-0.16464">
        <ele>1075.139</ele>
        <time>2013-10-23T11:47:22.698Z</time>
      </trkpt>
      <trkpt lat="43.00626" lon="-0.16476">
        <ele>1077.168</ele>
        <time>2013-10-23T11:47:26.213Z</time>
      </trkpt>
      <trkpt lat="43.00628" lon="-0.16489">
        <ele>1079.894</ele>
        <time>2013-10-23T11:47:30.096Z</time>
      </trkpt>
      <trkpt lat="43.00633" lon="-0.16502">
        <ele>1082.37</ele>
        <time>2013-10-23T11:47:34.217Z</time>
      </trkpt>
      <trkpt lat="43.00633" lon="-0.16502">
        <ele>1082.37</ele>
        <time>2013-10-23T11:47:34.217Z</time>
      </trkpt>
      <trkpt lat="43.00638" lon="-0.16535">
        <ele>1086.078</ele>
        <time>2013-10-23T11:47:44.500Z</time>
      </trkpt>
      <trkpt lat="43.00639" lon="-0.16551">
        <ele>1085.577</ele>
        <time>2013-10-23T11:47:49.803Z</time>
      </trkpt>
      <trkpt lat="43.00639" lon="-0.16565">
        <ele>1085.542</ele>
        <time>2013-10-23T11:47:53.319Z</time>
      </trkpt>
      <trkpt lat="43.00643" lon="-0.16579">
        <ele>1086.254</ele>
        <time>2013-10-23T11:47:56.823Z</time>
      </trkpt>
      <trkpt lat="43.00645" lon="-0.16593">
        <ele>1087.289</ele>
        <time>2013-10-23T11:47:59.929Z</time>
      </trkpt>
      <trkpt lat="43.00647" lon="-0.16607">
        <ele>1087.73</ele>
        <time>2013-10-23T11:48:02.782Z</time>
      </trkpt>
      <trkpt lat="43.00652" lon="-0.16624">
        <ele>1087.214</ele>
        <time>2013-10-23T11:48:06.201Z</time>
      </trkpt>
      <trkpt lat="43.00657" lon="-0.16639">
        <ele>1086.121</ele>
        <time>2013-10-23T11:48:09.495Z</time>
      </trkpt>
      <trkpt lat="43.00662" lon="-0.1665">
        <ele>1085.372</ele>
        <time>2013-10-23T11:48:12.430Z</time>
      </trkpt>
      <trkpt lat="43.00669" lon="-0.16661">
        <ele>1086.004</ele>
        <time>2013-10-23T11:48:15.692Z</time>
      </trkpt>
      <trkpt lat="43.00676" lon="-0.16674">
        <ele>1087.929</ele>
        <time>2013-10-23T11:48:19.619Z</time>
      </trkpt>
      <trkpt lat="43.00681" lon="-0.16689">
        <ele>1090.361</ele>
        <time>2013-10-23T11:48:23.397Z</time>
      </trkpt>
      <trkpt lat="43.00684" lon="-0.16701">
        <ele>1092.669</ele>
        <time>2013-10-23T11:48:26.473Z</time>
      </trkpt>
      <trkpt lat="43.00685" lon="-0.16717">
        <ele>1094.443</ele>
        <time>2013-10-23T11:48:30.356Z</time>
      </trkpt>
      <trkpt lat="43.00687" lon="-0.16731">
        <ele>1095.334</ele>
        <time>2013-10-23T11:48:33.657Z</time>
      </trkpt>
      <trkpt lat="43.00687" lon="-0.16744">
        <ele>1095.618</ele>
        <time>2013-10-23T11:48:36.636Z</time>
      </trkpt>
      <trkpt lat="43.00685" lon="-0.16759">
        <ele>1095.742</ele>
        <time>2013-10-23T11:48:40.216Z</time>
      </trkpt>
      <trkpt lat="43.00682" lon="-0.16772">
        <ele>1095.748</ele>
        <time>2013-10-23T11:48:43.311Z</time>
      </trkpt>
      <trkpt lat="43.00679" lon="-0.16787">
        <ele>1095.504</ele>
        <time>2013-10-23T11:48:46.774Z</time>
      </trkpt>
      <trkpt lat="43.00677" lon="-0.16805">
        <ele>1094.411</ele>
        <time>2013-10-23T11:48:50.851Z</time>
      </trkpt>
      <trkpt lat="43.00675" lon="-0.16818">
        <ele>1092.682</ele>
        <time>2013-10-23T11:48:54.050Z</time>
      </trkpt>
      <trkpt lat="43.00673" lon="-0.16831">
        <ele>1091.846</ele>
        <time>2013-10-23T11:48:57.860Z</time>
      </trkpt>
      <trkpt lat="43.00671" lon="-0.16844">
        <ele>1092.826</ele>
        <time>2013-10-23T11:49:02.106Z</time>
      </trkpt>
      <trkpt lat="43.00666" lon="-0.16857">
        <ele>1096.266</ele>
        <time>2013-10-23T11:49:06.930Z</time>
      </trkpt>
      <trkpt lat="43.00661" lon="-0.16868">
        <ele>1102.152</ele>
        <time>2013-10-23T11:49:11.328Z</time>
      </trkpt>
      <trkpt lat="43.00653" lon="-0.16877">
        <ele>1108.217</ele>
        <time>2013-10-23T11:49:15.849Z</time>
      </trkpt>
      <trkpt lat="43.00644" lon="-0.16882">
        <ele>1112.199</ele>
        <time>2013-10-23T11:49:20.094Z</time>
      </trkpt>
      <trkpt lat="43.00635" lon="-0.16889">
        <ele>1114.403</ele>
        <time>2013-10-23T11:49:25.614Z</time>
      </trkpt>
      <trkpt lat="43.00629" lon="-0.16899">
        <ele>1116.128</ele>
        <time>2013-10-23T11:49:30.744Z</time>
      </trkpt>
      <trkpt lat="43.00624" lon="-0.1691">
        <ele>1117.446</ele>
        <time>2013-10-23T11:49:35.578Z</time>
      </trkpt>
      <trkpt lat="43.00618" lon="-0.16923">
        <ele>1117.815</ele>
        <time>2013-10-23T11:49:40.484Z</time>
      </trkpt>
      <trkpt lat="43.00614" lon="-0.16934">
        <ele>1117.474</ele>
        <time>2013-10-23T11:49:44.411Z</time>
      </trkpt>
      <trkpt lat="43.0061" lon="-0.16947">
        <ele>1117.399</ele>
        <time>2013-10-23T11:49:48.481Z</time>
      </trkpt>
      <trkpt lat="43.00606" lon="-0.16961">
        <ele>1118.91</ele>
        <time>2013-10-23T11:49:52.607Z</time>
      </trkpt>
      <trkpt lat="43.00603" lon="-0.16975">
        <ele>1121.951</ele>
        <time>2013-10-23T11:49:56.844Z</time>
      </trkpt>
      <trkpt lat="43.006" lon="-0.1699">
        <ele>1124.822</ele>
        <time>2013-10-23T11:50:01.096Z</time>
      </trkpt>
      <trkpt lat="43.00597" lon="-0.17004">
        <ele>1125.976</ele>
        <time>2013-10-23T11:50:04.941Z</time>
      </trkpt>
      <trkpt lat="43.00593" lon="-0.17016">
        <ele>1125.453</ele>
        <time>2013-10-23T11:50:08.438Z</time>
      </trkpt>
      <trkpt lat="43.00588" lon="-0.17027">
        <ele>1124.586</ele>
        <time>2013-10-23T11:50:12.227Z</time>
      </trkpt>
      <trkpt lat="43.00585" lon="-0.17042">
        <ele>1124.476</ele>
        <time>2013-10-23T11:50:16.290Z</time>
      </trkpt>
      <trkpt lat="43.00585" lon="-0.17055">
        <ele>1125.087</ele>
        <time>2013-10-23T11:50:19.838Z</time>
      </trkpt>
      <trkpt lat="43.00583" lon="-0.1707">
        <ele>1125.783</ele>
        <time>2013-10-23T11:50:23.343Z</time>
      </trkpt>
      <trkpt lat="43.00581" lon="-0.17083">
        <ele>1126.065</ele>
        <time>2013-10-23T11:50:26.374Z</time>
      </trkpt>
      <trkpt lat="43.00579" lon="-0.17096">
        <ele>1125.988</ele>
        <time>2013-10-23T11:50:29.408Z</time>
      </trkpt>
      <trkpt lat="43.00576" lon="-0.1711">
        <ele>1126.319</ele>
        <time>2013-10-23T11:50:32.594Z</time>
      </trkpt>
      <trkpt lat="43.00573" lon="-0.17122">
        <ele>1127.583</ele>
        <time>2013-10-23T11:50:35.601Z</time>
      </trkpt>
      <trkpt lat="43.00572" lon="-0.17136">
        <ele>1129.367</ele>
        <time>2013-10-23T11:50:39.132Z</time>
      </trkpt>
      <trkpt lat="43.00572" lon="-0.17151">
        <ele>1130.868</ele>
        <time>2013-10-23T11:50:42.736Z</time>
      </trkpt>
      <trkpt lat="43.00574" lon="-0.17165">
        <ele>1131.914</ele>
        <time>2013-10-23T11:50:46.455Z</time>
      </trkpt>
      <trkpt lat="43.00578" lon="-0.17178">
        <ele>1132.683</ele>
        <time>2013-10-23T11:50:50.293Z</time>
      </trkpt>
      <trkpt lat="43.00581" lon="-0.17191">
        <ele>1133.186</ele>
        <time>2013-10-23T11:50:54.042Z</time>
      </trkpt>
      <trkpt lat="43.00586" lon="-0.17203">
        <ele>1133.332</ele>
        <time>2013-10-23T11:50:57.559Z</time>
      </trkpt>
      <trkpt lat="43.00586" lon="-0.17203">
        <ele>1133.123</ele>
        <time>2013-10-23T11:51:00.564Z</time>
      </trkpt>
      <trkpt lat="43.00586" lon="-0.17203">
        <ele>1132.631</ele>
        <time>2013-10-23T11:51:28.976Z</time>
      </trkpt>
      <trkpt lat="43.00577" lon="-0.17205">
        <ele>1131.858</ele>
        <time>2013-10-23T11:52:03.231Z</time>
      </trkpt>
      <trkpt lat="43.00571" lon="-0.17195">
        <ele>1132.476</ele>
        <time>2013-10-23T11:52:11.627Z</time>
      </trkpt>
      <trkpt lat="43.00567" lon="-0.17183">
        <ele>1136.917</ele>
        <time>2013-10-23T11:52:17.624Z</time>
      </trkpt>
      <trkpt lat="43.00562" lon="-0.1717">
        <ele>1139.058</ele>
        <time>2013-10-23T11:52:23.449Z</time>
      </trkpt>
      <trkpt lat="43.00561" lon="-0.17157">
        <ele>1140.219</ele>
        <time>2013-10-23T11:52:27.932Z</time>
      </trkpt>
      <trkpt lat="43.00562" lon="-0.17144">
        <ele>1141.105</ele>
        <time>2013-10-23T11:52:31.648Z</time>
      </trkpt>
      <trkpt lat="43.00559" lon="-0.17132">
        <ele>1142.958</ele>
        <time>2013-10-23T11:52:35.327Z</time>
      </trkpt>
      <trkpt lat="43.00563" lon="-0.17119">
        <ele>1146.318</ele>
        <time>2013-10-23T11:52:39.358Z</time>
      </trkpt>
      <trkpt lat="43.00566" lon="-0.17107">
        <ele>1151.122</ele>
        <time>2013-10-23T11:52:42.498Z</time>
      </trkpt>
      <trkpt lat="43.0057" lon="-0.17092">
        <ele>1159.468</ele>
        <time>2013-10-23T11:52:46.057Z</time>
      </trkpt>
      <trkpt lat="43.00568" lon="-0.17078">
        <ele>1162.291</ele>
        <time>2013-10-23T11:52:49.011Z</time>
      </trkpt>
      <trkpt lat="43.0057" lon="-0.17063">
        <ele>1164.548</ele>
        <time>2013-10-23T11:52:52.301Z</time>
      </trkpt>
      <trkpt lat="43.00565" lon="-0.17049">
        <ele>1166.16</ele>
        <time>2013-10-23T11:52:55.795Z</time>
      </trkpt>
      <trkpt lat="43.0056" lon="-0.17039">
        <ele>1166.776</ele>
        <time>2013-10-23T11:52:58.779Z</time>
      </trkpt>
      <trkpt lat="43.00554" lon="-0.17026">
        <ele>1166.147</ele>
        <time>2013-10-23T11:53:02.154Z</time>
      </trkpt>
      <trkpt lat="43.00548" lon="-0.17017">
        <ele>1165.212</ele>
        <time>2013-10-23T11:53:05.116Z</time>
      </trkpt>
      <trkpt lat="43.00542" lon="-0.17006">
        <ele>1165.165</ele>
        <time>2013-10-23T11:53:08.131Z</time>
      </trkpt>
      <trkpt lat="43.00539" lon="-0.16994">
        <ele>1166.147</ele>
        <time>2013-10-23T11:53:11.088Z</time>
      </trkpt>
      <trkpt lat="43.00534" lon="-0.16978">
        <ele>1166.585</ele>
        <time>2013-10-23T11:53:14.857Z</time>
      </trkpt>
      <trkpt lat="43.00531" lon="-0.16965">
        <ele>1165.128</ele>
        <time>2013-10-23T11:53:18.100Z</time>
      </trkpt>
      <trkpt lat="43.00526" lon="-0.16953">
        <ele>1162.796</ele>
        <time>2013-10-23T11:53:21.189Z</time>
      </trkpt>
      <trkpt lat="43.00519" lon="-0.16941">
        <ele>1161.37</ele>
        <time>2013-10-23T11:53:24.415Z</time>
      </trkpt>
      <trkpt lat="43.00517" lon="-0.16926">
        <ele>1161.225</ele>
        <time>2013-10-23T11:53:27.508Z</time>
      </trkpt>
      <trkpt lat="43.00507" lon="-0.16916">
        <ele>1161.373</ele>
        <time>2013-10-23T11:53:30.713Z</time>
      </trkpt>
      <trkpt lat="43.00505" lon="-0.16895">
        <ele>1160.99</ele>
        <time>2013-10-23T11:53:34.339Z</time>
      </trkpt>
      <trkpt lat="43.00498" lon="-0.16875">
        <ele>1161.086</ele>
        <time>2013-10-23T11:53:37.865Z</time>
      </trkpt>
      <trkpt lat="43.005" lon="-0.16857">
        <ele>1163.517</ele>
        <time>2013-10-23T11:53:40.958Z</time>
      </trkpt>
      <trkpt lat="43.00502" lon="-0.16841">
        <ele>1167.959</ele>
        <time>2013-10-23T11:53:43.619Z</time>
      </trkpt>
      <trkpt lat="43.00504" lon="-0.16821">
        <ele>1172.434</ele>
        <time>2013-10-23T11:53:46.716Z</time>
      </trkpt>
      <trkpt lat="43.0051" lon="-0.16806">
        <ele>1175.685</ele>
        <time>2013-10-23T11:53:49.453Z</time>
      </trkpt>
      <trkpt lat="43.00522" lon="-0.16787">
        <ele>1177.005</ele>
        <time>2013-10-23T11:53:53.487Z</time>
      </trkpt>
      <trkpt lat="43.00528" lon="-0.16776">
        <ele>1176.417</ele>
        <time>2013-10-23T11:53:55.972Z</time>
      </trkpt>
      <trkpt lat="43.00536" lon="-0.16765">
        <ele>1175.319</ele>
        <time>2013-10-23T11:53:59.080Z</time>
      </trkpt>
      <trkpt lat="43.0054" lon="-0.16751">
        <ele>1175.26</ele>
        <time>2013-10-23T11:54:02.763Z</time>
      </trkpt>
      <trkpt lat="43.00543" lon="-0.16736">
        <ele>1176.719</ele>
        <time>2013-10-23T11:54:06.704Z</time>
      </trkpt>
      <trkpt lat="43.00538" lon="-0.16724">
        <ele>1178.83</ele>
        <time>2013-10-23T11:54:10.112Z</time>
      </trkpt>
      <trkpt lat="43.00531" lon="-0.16714">
        <ele>1180.382</ele>
        <time>2013-10-23T11:54:13.219Z</time>
      </trkpt>
      <trkpt lat="43.00522" lon="-0.16707">
        <ele>1181.039</ele>
        <time>2013-10-23T11:54:16.297Z</time>
      </trkpt>
      <trkpt lat="43.00513" lon="-0.167">
        <ele>1181.206</ele>
        <time>2013-10-23T11:54:19.592Z</time>
      </trkpt>
      <trkpt lat="43.00504" lon="-0.16693">
        <ele>1181.969</ele>
        <time>2013-10-23T11:54:22.779Z</time>
      </trkpt>
      <trkpt lat="43.00494" lon="-0.16686">
        <ele>1184.288</ele>
        <time>2013-10-23T11:54:26.567Z</time>
      </trkpt>
      <trkpt lat="43.00484" lon="-0.16681">
        <ele>1187.38</ele>
        <time>2013-10-23T11:54:30.142Z</time>
      </trkpt>
      <trkpt lat="43.00474" lon="-0.16676">
        <ele>1189.428</ele>
        <time>2013-10-23T11:54:33.413Z</time>
      </trkpt>
      <trkpt lat="43.0043" lon="-0.1665">
        <ele>1189.068</ele>
        <time>2013-10-23T11:54:48.590Z</time>
      </trkpt>
      <trkpt lat="43.00421" lon="-0.16639">
        <ele>1189.305</ele>
        <time>2013-10-23T11:54:51.958Z</time>
      </trkpt>
      <trkpt lat="43.00413" lon="-0.16628">
        <ele>1191.747</ele>
        <time>2013-10-23T11:54:55.464Z</time>
      </trkpt>
      <trkpt lat="43.00404" lon="-0.16619">
        <ele>1194.868</ele>
        <time>2013-10-23T11:54:59.338Z</time>
      </trkpt>
      <trkpt lat="43.00395" lon="-0.16613">
        <ele>1196.687</ele>
        <time>2013-10-23T11:55:02.930Z</time>
      </trkpt>
      <trkpt lat="43.00386" lon="-0.16608">
        <ele>1197.329</ele>
        <time>2013-10-23T11:55:06.754Z</time>
      </trkpt>
      <trkpt lat="43.00378" lon="-0.16602">
        <ele>1197.527</ele>
        <time>2013-10-23T11:55:10.543Z</time>
      </trkpt>
      <trkpt lat="43.00369" lon="-0.16596">
        <ele>1197.552</ele>
        <time>2013-10-23T11:55:14.196Z</time>
      </trkpt>
      <trkpt lat="43.00359" lon="-0.16594">
        <ele>1197.671</ele>
        <time>2013-10-23T11:55:17.774Z</time>
      </trkpt>
      <trkpt lat="43.00351" lon="-0.16589">
        <ele>1198.045</ele>
        <time>2013-10-23T11:55:20.956Z</time>
      </trkpt>
      <trkpt lat="43.00324" lon="-0.16529">
        <ele>1198.054</ele>
        <time>2013-10-23T11:55:38.999Z</time>
      </trkpt>
      <trkpt lat="43.00329" lon="-0.16513">
        <ele>1198.36</ele>
        <time>2013-10-23T11:55:43.034Z</time>
      </trkpt>
      <trkpt lat="43.00337" lon="-0.16499">
        <ele>1200.341</ele>
        <time>2013-10-23T11:55:46.942Z</time>
      </trkpt>
      <trkpt lat="43.00341" lon="-0.16487">
        <ele>1203.135</ele>
        <time>2013-10-23T11:55:49.921Z</time>
      </trkpt>
      <trkpt lat="43.00343" lon="-0.16474">
        <ele>1205.108</ele>
        <time>2013-10-23T11:55:53.148Z</time>
      </trkpt>
      <trkpt lat="43.00338" lon="-0.16459">
        <ele>1206.051</ele>
        <time>2013-10-23T11:55:57.497Z</time>
      </trkpt>
      <trkpt lat="43.00331" lon="-0.16449">
        <ele>1206.396</ele>
        <time>2013-10-23T11:56:01.244Z</time>
      </trkpt>
      <trkpt lat="43.00322" lon="-0.16445">
        <ele>1206.322</ele>
        <time>2013-10-23T11:56:04.866Z</time>
      </trkpt>
      <trkpt lat="43.00311" lon="-0.16446">
        <ele>1206.065</ele>
        <time>2013-10-23T11:56:08.272Z</time>
      </trkpt>
      <trkpt lat="43.003" lon="-0.16446">
        <ele>1206.272</ele>
        <time>2013-10-23T11:56:11.311Z</time>
      </trkpt>
      <trkpt lat="43.00289" lon="-0.16444">
        <ele>1207.205</ele>
        <time>2013-10-23T11:56:14.402Z</time>
      </trkpt>
      <trkpt lat="43.0028" lon="-0.16443">
        <ele>1208.175</ele>
        <time>2013-10-23T11:56:16.836Z</time>
      </trkpt>
      <trkpt lat="43.00269" lon="-0.16442">
        <ele>1208.326</ele>
        <time>2013-10-23T11:56:19.991Z</time>
      </trkpt>
      <trkpt lat="43.0026" lon="-0.16437">
        <ele>1207.926</ele>
        <time>2013-10-23T11:56:23.325Z</time>
      </trkpt>
      <trkpt lat="43.0025" lon="-0.16428">
        <ele>1207.787</ele>
        <time>2013-10-23T11:56:27.443Z</time>
      </trkpt>
      <trkpt lat="43.00242" lon="-0.16418">
        <ele>1209.029</ele>
        <time>2013-10-23T11:56:31.759Z</time>
      </trkpt>
      <trkpt lat="43.00238" lon="-0.16407">
        <ele>1212.766</ele>
        <time>2013-10-23T11:56:35.557Z</time>
      </trkpt>
      <trkpt lat="43.00239" lon="-0.16393">
        <ele>1218.166</ele>
        <time>2013-10-23T11:56:39.916Z</time>
      </trkpt>
      <trkpt lat="43.00238" lon="-0.1638">
        <ele>1222.726</ele>
        <time>2013-10-23T11:56:44.335Z</time>
      </trkpt>
      <trkpt lat="43.00235" lon="-0.16367">
        <ele>1226.07</ele>
        <time>2013-10-23T11:56:48.756Z</time>
      </trkpt>
      <trkpt lat="43.00235" lon="-0.16353">
        <ele>1229.351</ele>
        <time>2013-10-23T11:56:52.985Z</time>
      </trkpt>
      <trkpt lat="43.00238" lon="-0.1634">
        <ele>1232.233</ele>
        <time>2013-10-23T11:56:56.978Z</time>
      </trkpt>
      <trkpt lat="43.0024" lon="-0.16326">
        <ele>1232.241</ele>
        <time>2013-10-23T11:57:00.867Z</time>
      </trkpt>
      <trkpt lat="43.00242" lon="-0.16312">
        <ele>1228.66</ele>
        <time>2013-10-23T11:57:04.924Z</time>
      </trkpt>
      <trkpt lat="43.00243" lon="-0.16241">
        <ele>1223.845</ele>
        <time>2013-10-23T11:57:24.548Z</time>
      </trkpt>
      <trkpt lat="43.00243" lon="-0.16228">
        <ele>1226.199</ele>
        <time>2013-10-23T11:57:28.120Z</time>
      </trkpt>
      <trkpt lat="43.00244" lon="-0.16214">
        <ele>1230.583</ele>
        <time>2013-10-23T11:57:31.970Z</time>
      </trkpt>
      <trkpt lat="43.00246" lon="-0.16201">
        <ele>1233.351</ele>
        <time>2013-10-23T11:57:35.560Z</time>
      </trkpt>
      <trkpt lat="43.00246" lon="-0.16201">
        <ele>1232.398</ele>
        <time>2013-10-23T11:57:46.577Z</time>
      </trkpt>
      <trkpt lat="43.00246" lon="-0.16201">
        <ele>1230.302</ele>
        <time>2013-10-23T12:00:10.128Z</time>
      </trkpt>
      <trkpt lat="43.00249" lon="-0.16187">
        <ele>1229.824</ele>
        <time>2013-10-23T12:00:56.451Z</time>
      </trkpt>
      <trkpt lat="43.00246" lon="-0.16175">
        <ele>1231.416</ele>
        <time>2013-10-23T12:01:01.726Z</time>
      </trkpt>
      <trkpt lat="43.00244" lon="-0.1616">
        <ele>1234.245</ele>
        <time>2013-10-23T12:01:06.423Z</time>
      </trkpt>
      <trkpt lat="43.00242" lon="-0.16145">
        <ele>1236.508</ele>
        <time>2013-10-23T12:01:10.565Z</time>
      </trkpt>
      <trkpt lat="43.00236" lon="-0.16133">
        <ele>1236.488</ele>
        <time>2013-10-23T12:01:14.373Z</time>
      </trkpt>
      <trkpt lat="43.00224" lon="-0.16126">
        <ele>1236.223</ele>
        <time>2013-10-23T12:01:18.539Z</time>
      </trkpt>
      <trkpt lat="43.00216" lon="-0.16123">
        <ele>1237.047</ele>
        <time>2013-10-23T12:01:21.543Z</time>
      </trkpt>
      <trkpt lat="43.00205" lon="-0.16122">
        <ele>1238.404</ele>
        <time>2013-10-23T12:01:24.815Z</time>
      </trkpt>
      <trkpt lat="43.00195" lon="-0.16122">
        <ele>1239.464</ele>
        <time>2013-10-23T12:01:27.875Z</time>
      </trkpt>
      <trkpt lat="43.00185" lon="-0.16123">
        <ele>1240.383</ele>
        <time>2013-10-23T12:01:30.817Z</time>
      </trkpt>
      <trkpt lat="43.00173" lon="-0.16122">
        <ele>1241.561</ele>
        <time>2013-10-23T12:01:34.291Z</time>
      </trkpt>
      <trkpt lat="43.00162" lon="-0.16118">
        <ele>1242.742</ele>
        <time>2013-10-23T12:01:37.950Z</time>
      </trkpt>
      <trkpt lat="43.00153" lon="-0.16117">
        <ele>1243.442</ele>
        <time>2013-10-23T12:01:41.124Z</time>
      </trkpt>
      <trkpt lat="43.00143" lon="-0.16113">
        <ele>1244.493</ele>
        <time>2013-10-23T12:01:44.421Z</time>
      </trkpt>
      <trkpt lat="43.00104" lon="-0.16074">
        <ele>1249.13</ele>
        <time>2013-10-23T12:02:00.803Z</time>
      </trkpt>
      <trkpt lat="43.00099" lon="-0.16061">
        <ele>1252.271</ele>
        <time>2013-10-23T12:02:04.030Z</time>
      </trkpt>
      <trkpt lat="43.00095" lon="-0.16049">
        <ele>1256.867</ele>
        <time>2013-10-23T12:02:07.185Z</time>
      </trkpt>
      <trkpt lat="43.0009" lon="-0.16038">
        <ele>1260.655</ele>
        <time>2013-10-23T12:02:10.227Z</time>
      </trkpt>
      <trkpt lat="43.00086" lon="-0.16023">
        <ele>1261.736</ele>
        <time>2013-10-23T12:02:13.886Z</time>
      </trkpt>
      <trkpt lat="43.00081" lon="-0.16008">
        <ele>1260.588</ele>
        <time>2013-10-23T12:02:17.731Z</time>
      </trkpt>
      <trkpt lat="43.00078" lon="-0.15995">
        <ele>1258.314</ele>
        <time>2013-10-23T12:02:20.970Z</time>
      </trkpt>
      <trkpt lat="43.00072" lon="-0.15979">
        <ele>1256.27</ele>
        <time>2013-10-23T12:02:25.100Z</time>
      </trkpt>
      <trkpt lat="43.0007" lon="-0.15964">
        <ele>1255.135</ele>
        <time>2013-10-23T12:02:28.664Z</time>
      </trkpt>
      <trkpt lat="43.00067" lon="-0.15952">
        <ele>1254.289</ele>
        <time>2013-10-23T12:02:31.666Z</time>
      </trkpt>
      <trkpt lat="43.00065" lon="-0.15937">
        <ele>1253.259</ele>
        <time>2013-10-23T12:02:35.144Z</time>
      </trkpt>
      <trkpt lat="43.00063" lon="-0.15922">
        <ele>1252.582</ele>
        <time>2013-10-23T12:02:38.572Z</time>
      </trkpt>
      <trkpt lat="43.00063" lon="-0.15909">
        <ele>1252.796</ele>
        <time>2013-10-23T12:02:41.640Z</time>
      </trkpt>
      <trkpt lat="43.0006" lon="-0.15897">
        <ele>1253.718</ele>
        <time>2013-10-23T12:02:44.716Z</time>
      </trkpt>
      <trkpt lat="43.00056" lon="-0.15882">
        <ele>1255.27</ele>
        <time>2013-10-23T12:02:48.413Z</time>
      </trkpt>
      <trkpt lat="43.00052" lon="-0.15869">
        <ele>1257.388</ele>
        <time>2013-10-23T12:02:51.561Z</time>
      </trkpt>
      <trkpt lat="43.00048" lon="-0.15854">
        <ele>1259.382</ele>
        <time>2013-10-23T12:02:55.079Z</time>
      </trkpt>
      <trkpt lat="43.00043" lon="-0.15844">
        <ele>1260.306</ele>
        <time>2013-10-23T12:02:57.819Z</time>
      </trkpt>
      <trkpt lat="43.00039" lon="-0.15829">
        <ele>1260.012</ele>
        <time>2013-10-23T12:03:01.379Z</time>
      </trkpt>
      <trkpt lat="43.00036" lon="-0.15816">
        <ele>1259.301</ele>
        <time>2013-10-23T12:03:04.498Z</time>
      </trkpt>
      <trkpt lat="43.00031" lon="-0.15802">
        <ele>1259.003</ele>
        <time>2013-10-23T12:03:08.274Z</time>
      </trkpt>
      <trkpt lat="43.00023" lon="-0.15789">
        <ele>1259.805</ele>
        <time>2013-10-23T12:03:11.780Z</time>
      </trkpt>
      <trkpt lat="43.00015" lon="-0.15776">
        <ele>1261.691</ele>
        <time>2013-10-23T12:03:15.111Z</time>
      </trkpt>
      <trkpt lat="43.00009" lon="-0.15765">
        <ele>1263.545</ele>
        <time>2013-10-23T12:03:17.979Z</time>
      </trkpt>
      <trkpt lat="43.00003" lon="-0.1575">
        <ele>1264.554</ele>
        <time>2013-10-23T12:03:21.058Z</time>
      </trkpt>
      <trkpt lat="42.99998" lon="-0.15734">
        <ele>1265.033</ele>
        <time>2013-10-23T12:03:24.327Z</time>
      </trkpt>
      <trkpt lat="42.99995" lon="-0.15719">
        <ele>1265.407</ele>
        <time>2013-10-23T12:03:27.082Z</time>
      </trkpt>
      <trkpt lat="42.99991" lon="-0.15704">
        <ele>1265.694</ele>
        <time>2013-10-23T12:03:30.001Z</time>
      </trkpt>
      <trkpt lat="42.99988" lon="-0.1569">
        <ele>1266.061</ele>
        <time>2013-10-23T12:03:32.601Z</time>
      </trkpt>
      <trkpt lat="42.99988" lon="-0.15676">
        <ele>1266.786</ele>
        <time>2013-10-23T12:03:35.390Z</time>
      </trkpt>
      <trkpt lat="42.99987" lon="-0.15663">
        <ele>1267.719</ele>
        <time>2013-10-23T12:03:38.087Z</time>
      </trkpt>
      <trkpt lat="42.9999" lon="-0.15648">
        <ele>1268.62</ele>
        <time>2013-10-23T12:03:41.422Z</time>
      </trkpt>
      <trkpt lat="42.99991" lon="-0.15631">
        <ele>1269.517</ele>
        <time>2013-10-23T12:03:45.169Z</time>
      </trkpt>
      <trkpt lat="42.9999" lon="-0.15619">
        <ele>1270.563</ele>
        <time>2013-10-23T12:03:48.848Z</time>
      </trkpt>
      <trkpt lat="42.99981" lon="-0.15622">
        <ele>1272.065</ele>
        <time>2013-10-23T12:03:53.565Z</time>
      </trkpt>
      <trkpt lat="42.99981" lon="-0.15622">
        <ele>1273.843</ele>
        <time>2013-10-23T12:03:58.561Z</time>
      </trkpt>
      <trkpt lat="42.99981" lon="-0.15622">
        <ele>1274.729</ele>
        <time>2013-10-23T12:03:58.661Z</time>
      </trkpt>
      <trkpt lat="42.99975" lon="-0.15635">
        <ele>1274.135</ele>
        <time>2013-10-23T12:04:09.461Z</time>
      </trkpt>
      <trkpt lat="42.99969" lon="-0.15646">
        <ele>1273.539</ele>
        <time>2013-10-23T12:04:15.058Z</time>
      </trkpt>
      <trkpt lat="42.99964" lon="-0.15657">
        <ele>1274.433</ele>
        <time>2013-10-23T12:04:19.605Z</time>
      </trkpt>
      <trkpt lat="42.99959" lon="-0.15668">
        <ele>1276.448</ele>
        <time>2013-10-23T12:04:24.450Z</time>
      </trkpt>
      <trkpt lat="42.99953" lon="-0.15679">
        <ele>1278.85</ele>
        <time>2013-10-23T12:04:29.796Z</time>
      </trkpt>
      <trkpt lat="42.99947" lon="-0.15689">
        <ele>1281.463</ele>
        <time>2013-10-23T12:04:35.056Z</time>
      </trkpt>
      <trkpt lat="42.99941" lon="-0.15701">
        <ele>1284.011</ele>
        <time>2013-10-23T12:04:40.417Z</time>
      </trkpt>
      <trkpt lat="42.99936" lon="-0.15711">
        <ele>1286.314</ele>
        <time>2013-10-23T12:04:45.558Z</time>
      </trkpt>
      <trkpt lat="42.99936" lon="-0.15711">
        <ele>1288.192</ele>
        <time>2013-10-23T12:04:56.560Z</time>
      </trkpt>
      <trkpt lat="42.99939" lon="-0.15726">
        <ele>1289.585</ele>
        <time>2013-10-23T12:05:27.027Z</time>
      </trkpt>
      <trkpt lat="42.99811" lon="-0.15887">
        <ele>1345.203</ele>
        <time>2013-10-23T12:24:17.808Z</time>
      </trkpt>
      <trkpt lat="42.99811" lon="-0.15887">
        <ele>1345.311</ele>
        <time>2013-10-23T12:24:17.809Z</time>
      </trkpt>
      <trkpt lat="42.99811" lon="-0.15887">
        <ele>1346.195</ele>
        <time>2013-10-23T12:24:17.909Z</time>
      </trkpt>
      <trkpt lat="42.99808" lon="-0.15871">
        <ele>1345.761</ele>
        <time>2013-10-23T12:24:27.504Z</time>
      </trkpt>
      <trkpt lat="42.99806" lon="-0.15859">
        <ele>1344.752</ele>
        <time>2013-10-23T12:24:31.391Z</time>
      </trkpt>
      <trkpt lat="42.99799" lon="-0.15845">
        <ele>1345.014</ele>
        <time>2013-10-23T12:24:35.531Z</time>
      </trkpt>
      <trkpt lat="42.99795" lon="-0.1583">
        <ele>1346.219</ele>
        <time>2013-10-23T12:24:39.849Z</time>
      </trkpt>
      <trkpt lat="42.99795" lon="-0.15816">
        <ele>1347.442</ele>
        <time>2013-10-23T12:24:44.509Z</time>
      </trkpt>
      <trkpt lat="42.99795" lon="-0.15802">
        <ele>1346.421</ele>
        <time>2013-10-23T12:24:50.123Z</time>
      </trkpt>
      <trkpt lat="42.99798" lon="-0.15789">
        <ele>1345.724</ele>
        <time>2013-10-23T12:24:56.161Z</time>
      </trkpt>
      <trkpt lat="42.998" lon="-0.15774">
        <ele>1347.214</ele>
        <time>2013-10-23T12:25:02.060Z</time>
      </trkpt>
      <trkpt lat="42.99803" lon="-0.15762">
        <ele>1350.443</ele>
        <time>2013-10-23T12:25:06.667Z</time>
      </trkpt>
      <trkpt lat="42.99806" lon="-0.15749">
        <ele>1353.155</ele>
        <time>2013-10-23T12:25:11.098Z</time>
      </trkpt>
      <trkpt lat="42.9981" lon="-0.15737">
        <ele>1354.139</ele>
        <time>2013-10-23T12:25:15.150Z</time>
      </trkpt>
      <trkpt lat="42.99814" lon="-0.15725">
        <ele>1354.014</ele>
        <time>2013-10-23T12:25:18.788Z</time>
      </trkpt>
      <trkpt lat="42.99818" lon="-0.15712">
        <ele>1353.756</ele>
        <time>2013-10-23T12:25:22.902Z</time>
      </trkpt>
      <trkpt lat="42.99822" lon="-0.15698">
        <ele>1353.933</ele>
        <time>2013-10-23T12:25:27.217Z</time>
      </trkpt>
      <trkpt lat="42.99828" lon="-0.15687">
        <ele>1355.172</ele>
        <time>2013-10-23T12:25:31.355Z</time>
      </trkpt>
      <trkpt lat="42.99832" lon="-0.15674">
        <ele>1357.747</ele>
        <time>2013-10-23T12:25:35.851Z</time>
      </trkpt>
      <trkpt lat="42.99836" lon="-0.15659">
        <ele>1360.703</ele>
        <time>2013-10-23T12:25:40.613Z</time>
      </trkpt>
      <trkpt lat="42.99841" lon="-0.15648">
        <ele>1362.892</ele>
        <time>2013-10-23T12:25:44.382Z</time>
      </trkpt>
      <trkpt lat="42.99844" lon="-0.15635">
        <ele>1364.052</ele>
        <time>2013-10-23T12:25:48.235Z</time>
      </trkpt>
      <trkpt lat="42.99849" lon="-0.15621">
        <ele>1364.398</ele>
        <time>2013-10-23T12:25:52.338Z</time>
      </trkpt>
      <trkpt lat="42.99854" lon="-0.15607">
        <ele>1364.53</ele>
        <time>2013-10-23T12:25:56.242Z</time>
      </trkpt>
      <trkpt lat="42.99856" lon="-0.15594">
        <ele>1364.906</ele>
        <time>2013-10-23T12:25:59.491Z</time>
      </trkpt>
      <trkpt lat="42.99861" lon="-0.15578">
        <ele>1365.052</ele>
        <time>2013-10-23T12:26:03.378Z</time>
      </trkpt>
      <trkpt lat="42.99864" lon="-0.15566">
        <ele>1363.731</ele>
        <time>2013-10-23T12:26:06.412Z</time>
      </trkpt>
      <trkpt lat="42.99868" lon="-0.15552">
        <ele>1363.322</ele>
        <time>2013-10-23T12:26:09.956Z</time>
      </trkpt>
      <trkpt lat="42.99873" lon="-0.15537">
        <ele>1363.243</ele>
        <time>2013-10-23T12:26:13.683Z</time>
      </trkpt>
      <trkpt lat="42.99877" lon="-0.15523">
        <ele>1363.485</ele>
        <time>2013-10-23T12:26:17.136Z</time>
      </trkpt>
      <trkpt lat="42.99882" lon="-0.1551">
        <ele>1364.351</ele>
        <time>2013-10-23T12:26:20.458Z</time>
      </trkpt>
      <trkpt lat="42.99885" lon="-0.15497">
        <ele>1364.115</ele>
        <time>2013-10-23T12:26:24.063Z</time>
      </trkpt>
      <trkpt lat="42.99888" lon="-0.15484">
        <ele>1363.809</ele>
        <time>2013-10-23T12:26:28.393Z</time>
      </trkpt>
      <trkpt lat="42.99889" lon="-0.15466">
        <ele>1364.015</ele>
        <time>2013-10-23T12:26:34.190Z</time>
      </trkpt>
      <trkpt lat="42.9989" lon="-0.15452">
        <ele>1364.587</ele>
        <time>2013-10-23T12:26:40.258Z</time>
      </trkpt>
      <trkpt lat="42.99894" lon="-0.15439">
        <ele>1364.764</ele>
        <time>2013-10-23T12:26:44.816Z</time>
      </trkpt>
      <trkpt lat="42.99896" lon="-0.15427">
        <ele>1364.188</ele>
        <time>2013-10-23T12:26:49.139Z</time>
      </trkpt>
      <trkpt lat="42.99896" lon="-0.15413">
        <ele>1363.915</ele>
        <time>2013-10-23T12:26:53.802Z</time>
      </trkpt>
      <trkpt lat="42.99896" lon="-0.15413">
        <ele>1364.81</ele>
        <time>2013-10-23T12:27:02.802Z</time>
      </trkpt>
      <trkpt lat="42.99896" lon="-0.15413">
        <ele>1365.589</ele>
        <time>2013-10-23T12:27:02.902Z</time>
      </trkpt>
      <trkpt lat="42.99894" lon="-0.15393">
        <ele>1363.921</ele>
        <time>2013-10-23T12:27:19.769Z</time>
      </trkpt>
      <trkpt lat="42.99897" lon="-0.15379">
        <ele>1363.044</ele>
        <time>2013-10-23T12:27:24.812Z</time>
      </trkpt>
      <trkpt lat="42.99897" lon="-0.15379">
        <ele>1362.32</ele>
        <time>2013-10-23T12:27:32.816Z</time>
      </trkpt>
      <trkpt lat="42.99897" lon="-0.15379">
        <ele>1361.767</ele>
        <time>2013-10-23T12:27:32.916Z</time>
      </trkpt>
      <trkpt lat="42.99895" lon="-0.15395">
        <ele>1361.038</ele>
        <time>2013-10-23T12:27:57.808Z</time>
      </trkpt>
      <trkpt lat="42.99894" lon="-0.15409">
        <ele>1361.264</ele>
        <time>2013-10-23T12:28:13.803Z</time>
      </trkpt>
      <trkpt lat="42.99894" lon="-0.15409">
        <ele>1362.413</ele>
        <time>2013-10-23T12:28:16.816Z</time>
      </trkpt>
      <trkpt lat="42.99894" lon="-0.15409">
        <ele>1363.226</ele>
        <time>2013-10-23T12:28:16.916Z</time>
      </trkpt>
      <trkpt lat="42.99886" lon="-0.15428">
        <ele>1362.652</ele>
        <time>2013-10-23T12:28:41.032Z</time>
      </trkpt>
      <trkpt lat="42.99881" lon="-0.15442">
        <ele>1362.736</ele>
        <time>2013-10-23T12:28:46.555Z</time>
      </trkpt>
      <trkpt lat="42.99879" lon="-0.15455">
        <ele>1365.206</ele>
        <time>2013-10-23T12:28:50.207Z</time>
      </trkpt>
      <trkpt lat="42.99876" lon="-0.1547">
        <ele>1367.246</ele>
        <time>2013-10-23T12:28:54.269Z</time>
      </trkpt>
      <trkpt lat="42.99873" lon="-0.15482">
        <ele>1366.169</ele>
        <time>2013-10-23T12:28:57.553Z</time>
      </trkpt>
      <trkpt lat="42.99871" lon="-0.15496">
        <ele>1363.686</ele>
        <time>2013-10-23T12:29:01.105Z</time>
      </trkpt>
      <trkpt lat="42.99868" lon="-0.15508">
        <ele>1362.435</ele>
        <time>2013-10-23T12:29:04.320Z</time>
      </trkpt>
      <trkpt lat="42.99867" lon="-0.15523">
        <ele>1362.864</ele>
        <time>2013-10-23T12:29:08.312Z</time>
      </trkpt>
      <trkpt lat="42.99862" lon="-0.15534">
        <ele>1363.9</ele>
        <time>2013-10-23T12:29:11.482Z</time>
      </trkpt>
      <trkpt lat="42.9986" lon="-0.15549">
        <ele>1364.305</ele>
        <time>2013-10-23T12:29:14.810Z</time>
      </trkpt>
      <trkpt lat="42.99856" lon="-0.15564">
        <ele>1364.257</ele>
        <time>2013-10-23T12:29:17.952Z</time>
      </trkpt>
      <trkpt lat="42.99853" lon="-0.15579">
        <ele>1364.774</ele>
        <time>2013-10-23T12:29:21.263Z</time>
      </trkpt>
      <trkpt lat="42.99849" lon="-0.15592">
        <ele>1365.893</ele>
        <time>2013-10-23T12:29:24.125Z</time>
      </trkpt>
      <trkpt lat="42.99844" lon="-0.15605">
        <ele>1365.821</ele>
        <time>2013-10-23T12:29:27.391Z</time>
      </trkpt>
      <trkpt lat="42.99841" lon="-0.15619">
        <ele>1363.5</ele>
        <time>2013-10-23T12:29:30.650Z</time>
      </trkpt>
      <trkpt lat="42.99838" lon="-0.15632">
        <ele>1360.417</ele>
        <time>2013-10-23T12:29:33.897Z</time>
      </trkpt>
      <trkpt lat="42.99835" lon="-0.15644">
        <ele>1358.499</ele>
        <time>2013-10-23T12:29:36.753Z</time>
      </trkpt>
      <trkpt lat="42.99833" lon="-0.15658">
        <ele>1357.895</ele>
        <time>2013-10-23T12:29:39.979Z</time>
      </trkpt>
      <trkpt lat="42.9983" lon="-0.1567">
        <ele>1357.975</ele>
        <time>2013-10-23T12:29:42.957Z</time>
      </trkpt>
      <trkpt lat="42.99825" lon="-0.15684">
        <ele>1358.226</ele>
        <time>2013-10-23T12:29:46.736Z</time>
      </trkpt>
      <trkpt lat="42.99821" lon="-0.15695">
        <ele>1358.426</ele>
        <time>2013-10-23T12:29:49.969Z</time>
      </trkpt>
      <trkpt lat="42.99816" lon="-0.15708">
        <ele>1358.473</ele>
        <time>2013-10-23T12:29:53.665Z</time>
      </trkpt>
      <trkpt lat="42.99813" lon="-0.15723">
        <ele>1358.358</ele>
        <time>2013-10-23T12:29:57.291Z</time>
      </trkpt>
      <trkpt lat="42.9981" lon="-0.15736">
        <ele>1358.051</ele>
        <time>2013-10-23T12:30:00.589Z</time>
      </trkpt>
      <trkpt lat="42.99807" lon="-0.15749">
        <ele>1357.76</ele>
        <time>2013-10-23T12:30:03.536Z</time>
      </trkpt>
      <trkpt lat="42.99808" lon="-0.15764">
        <ele>1357.561</ele>
        <time>2013-10-23T12:30:07.000Z</time>
      </trkpt>
      <trkpt lat="42.9981" lon="-0.15779">
        <ele>1356.793</ele>
        <time>2013-10-23T12:30:10.370Z</time>
      </trkpt>
      <trkpt lat="42.99815" lon="-0.15795">
        <ele>1355.267</ele>
        <time>2013-10-23T12:30:14.136Z</time>
      </trkpt>
      <trkpt lat="42.99821" lon="-0.15806">
        <ele>1353.835</ele>
        <time>2013-10-23T12:30:16.777Z</time>
      </trkpt>
      <trkpt lat="42.99825" lon="-0.15817">
        <ele>1352.825</ele>
        <time>2013-10-23T12:30:19.346Z</time>
      </trkpt>
      <trkpt lat="42.99835" lon="-0.15816">
        <ele>1351.952</ele>
        <time>2013-10-23T12:30:22.468Z</time>
      </trkpt>
      <trkpt lat="42.99843" lon="-0.15798">
        <ele>1350.825</ele>
        <time>2013-10-23T12:30:28.112Z</time>
      </trkpt>
      <trkpt lat="42.99851" lon="-0.15777">
        <ele>1348.794</ele>
        <time>2013-10-23T12:30:32.526Z</time>
      </trkpt>
      <trkpt lat="42.99856" lon="-0.1576">
        <ele>1345.798</ele>
        <time>2013-10-23T12:30:34.906Z</time>
      </trkpt>
      <trkpt lat="42.9986" lon="-0.15741">
        <ele>1342.236</ele>
        <time>2013-10-23T12:30:37.027Z</time>
      </trkpt>
      <trkpt lat="42.99865" lon="-0.15726">
        <ele>1338.648</ele>
        <time>2013-10-23T12:30:38.591Z</time>
      </trkpt>
      <trkpt lat="42.99872" lon="-0.15708">
        <ele>1336.031</ele>
        <time>2013-10-23T12:30:40.455Z</time>
      </trkpt>
      <trkpt lat="42.99884" lon="-0.15679">
        <ele>1334.826</ele>
        <time>2013-10-23T12:30:43.233Z</time>
      </trkpt>
      <trkpt lat="42.99897" lon="-0.15648">
        <ele>1334.439</ele>
        <time>2013-10-23T12:30:45.999Z</time>
      </trkpt>
      <trkpt lat="42.99908" lon="-0.15612">
        <ele>1334.225</ele>
        <time>2013-10-23T12:30:49.028Z</time>
      </trkpt>
      <trkpt lat="42.99917" lon="-0.15578">
        <ele>1333.5</ele>
        <time>2013-10-23T12:30:51.774Z</time>
      </trkpt>
      <trkpt lat="42.99924" lon="-0.15558">
        <ele>1331.929</ele>
        <time>2013-10-23T12:30:53.469Z</time>
      </trkpt>
      <trkpt lat="42.99936" lon="-0.15524">
        <ele>1328.638</ele>
        <time>2013-10-23T12:30:56.166Z</time>
      </trkpt>
      <trkpt lat="42.99947" lon="-0.15488">
        <ele>1327.11</ele>
        <time>2013-10-23T12:30:59.052Z</time>
      </trkpt>
      <trkpt lat="42.99955" lon="-0.15456">
        <ele>1325.287</ele>
        <time>2013-10-23T12:31:01.699Z</time>
      </trkpt>
      <trkpt lat="42.99957" lon="-0.15428">
        <ele>1323.163</ele>
        <time>2013-10-23T12:31:03.949Z</time>
      </trkpt>
      <trkpt lat="42.99959" lon="-0.15407">
        <ele>1320.724</ele>
        <time>2013-10-23T12:31:05.728Z</time>
      </trkpt>
      <trkpt lat="42.99963" lon="-0.15385">
        <ele>1318.486</ele>
        <time>2013-10-23T12:31:07.642Z</time>
      </trkpt>
      <trkpt lat="42.9997" lon="-0.15354">
        <ele>1317.062</ele>
        <time>2013-10-23T12:31:10.406Z</time>
      </trkpt>
      <trkpt lat="42.99977" lon="-0.15325">
        <ele>1315.416</ele>
        <time>2013-10-23T12:31:13.249Z</time>
      </trkpt>
      <trkpt lat="42.99984" lon="-0.15295">
        <ele>1312.572</ele>
        <time>2013-10-23T12:31:16.543Z</time>
      </trkpt>
      <trkpt lat="42.99989" lon="-0.1527">
        <ele>1310.015</ele>
        <time>2013-10-23T12:31:19.774Z</time>
      </trkpt>
      <trkpt lat="42.99991" lon="-0.15257">
        <ele>1309.176</ele>
        <time>2013-10-23T12:31:22.037Z</time>
      </trkpt>
      <trkpt lat="42.99996" lon="-0.15245">
        <ele>1308.789</ele>
        <time>2013-10-23T12:31:24.807Z</time>
      </trkpt>
      <trkpt lat="42.99996" lon="-0.15245">
        <ele>1307.568</ele>
        <time>2013-10-23T12:31:27.804Z</time>
      </trkpt>
      <trkpt lat="42.99996" lon="-0.15245">
        <ele>1306.204</ele>
        <time>2013-10-23T12:31:42.816Z</time>
      </trkpt>
      <trkpt lat="42.99996" lon="-0.15245">
        <ele>1305.666</ele>
        <time>2013-10-23T12:31:45.055Z</time>
      </trkpt>
      <trkpt lat="42.99999" lon="-0.15223">
        <ele>1305.555</ele>
        <time>2013-10-23T12:31:59.069Z</time>
      </trkpt>
      <trkpt lat="43.00003" lon="-0.15211">
        <ele>1305.313</ele>
        <time>2013-10-23T12:32:05.961Z</time>
      </trkpt>
      <trkpt lat="42.99995" lon="-0.15217">
        <ele>1305.063</ele>
        <time>2013-10-23T12:32:13.766Z</time>
      </trkpt>
      <trkpt lat="42.9999" lon="-0.15228">
        <ele>1305.074</ele>
        <time>2013-10-23T12:32:21.335Z</time>
      </trkpt>
      <trkpt lat="42.99988" lon="-0.15245">
        <ele>1305.051</ele>
        <time>2013-10-23T12:32:28.255Z</time>
      </trkpt>
      <trkpt lat="42.99986" lon="-0.15258">
        <ele>1304.644</ele>
        <time>2013-10-23T12:32:30.969Z</time>
      </trkpt>
      <trkpt lat="42.99983" lon="-0.15282">
        <ele>1303.474</ele>
        <time>2013-10-23T12:32:34.462Z</time>
      </trkpt>
      <trkpt lat="42.99985" lon="-0.1531">
        <ele>1303.128</ele>
        <time>2013-10-23T12:32:37.822Z</time>
      </trkpt>
      <trkpt lat="42.99987" lon="-0.15335">
        <ele>1302.719</ele>
        <time>2013-10-23T12:32:40.543Z</time>
      </trkpt>
      <trkpt lat="42.99989" lon="-0.15357">
        <ele>1301.925</ele>
        <time>2013-10-23T12:32:42.758Z</time>
      </trkpt>
      <trkpt lat="42.99992" lon="-0.15377">
        <ele>1300.256</ele>
        <time>2013-10-23T12:32:44.682Z</time>
      </trkpt>
      <trkpt lat="42.99998" lon="-0.15408">
        <ele>1300.177</ele>
        <time>2013-10-23T12:32:47.736Z</time>
      </trkpt>
      <trkpt lat="43.00002" lon="-0.15432">
        <ele>1300.457</ele>
        <time>2013-10-23T12:32:49.951Z</time>
      </trkpt>
      <trkpt lat="43.00005" lon="-0.15465">
        <ele>1300.728</ele>
        <time>2013-10-23T12:32:53.285Z</time>
      </trkpt>
      <trkpt lat="43.00004" lon="-0.15478">
        <ele>1299.908</ele>
        <time>2013-10-23T12:32:55.185Z</time>
      </trkpt>
      <trkpt lat="43.00004" lon="-0.15492">
        <ele>1297.351</ele>
        <time>2013-10-23T12:32:57.363Z</time>
      </trkpt>
      <trkpt lat="43.00001" lon="-0.1551">
        <ele>1294.23</ele>
        <time>2013-10-23T12:33:00.014Z</time>
      </trkpt>
      <trkpt lat="42.99999" lon="-0.15524">
        <ele>1291.256</ele>
        <time>2013-10-23T12:33:01.930Z</time>
      </trkpt>
      <trkpt lat="42.99994" lon="-0.15546">
        <ele>1287.646</ele>
        <time>2013-10-23T12:33:04.579Z</time>
      </trkpt>
      <trkpt lat="42.99991" lon="-0.15565">
        <ele>1283.576</ele>
        <time>2013-10-23T12:33:06.753Z</time>
      </trkpt>
      <trkpt lat="42.99988" lon="-0.15587">
        <ele>1279.846</ele>
        <time>2013-10-23T12:33:09.896Z</time>
      </trkpt>
      <trkpt lat="42.99989" lon="-0.15602">
        <ele>1276.882</ele>
        <time>2013-10-23T12:33:12.793Z</time>
      </trkpt>
      <trkpt lat="42.99989" lon="-0.15602">
        <ele>1275.107</ele>
        <time>2013-10-23T12:33:14.796Z</time>
      </trkpt>
      <trkpt lat="42.99989" lon="-0.15602">
        <ele>1274.563</ele>
        <time>2013-10-23T12:33:16.798Z</time>
      </trkpt>
      <trkpt lat="42.99989" lon="-0.15602">
        <ele>1274.467</ele>
        <time>2013-10-23T12:34:13.147Z</time>
      </trkpt>
      <trkpt lat="42.9999" lon="-0.15624">
        <ele>1274.192</ele>
        <time>2013-10-23T12:34:20.743Z</time>
      </trkpt>
      <trkpt lat="42.99989" lon="-0.15645">
        <ele>1273.744</ele>
        <time>2013-10-23T12:34:23.776Z</time>
      </trkpt>
      <trkpt lat="42.99987" lon="-0.15672">
        <ele>1273.272</ele>
        <time>2013-10-23T12:34:26.731Z</time>
      </trkpt>
      <trkpt lat="42.99988" lon="-0.15701">
        <ele>1272.557</ele>
        <time>2013-10-23T12:34:29.628Z</time>
      </trkpt>
      <trkpt lat="42.99998" lon="-0.15737">
        <ele>1271.571</ele>
        <time>2013-10-23T12:34:33.184Z</time>
      </trkpt>
      <trkpt lat="43.00004" lon="-0.15759">
        <ele>1270.593</ele>
        <time>2013-10-23T12:34:35.309Z</time>
      </trkpt>
      <trkpt lat="43.00017" lon="-0.15787">
        <ele>1269.774</ele>
        <time>2013-10-23T12:34:38.148Z</time>
      </trkpt>
      <trkpt lat="43.00026" lon="-0.15808">
        <ele>1269.093</ele>
        <time>2013-10-23T12:34:40.196Z</time>
      </trkpt>
      <trkpt lat="43.00037" lon="-0.15841">
        <ele>1268.342</ele>
        <time>2013-10-23T12:34:43.063Z</time>
      </trkpt>
      <trkpt lat="43.00043" lon="-0.15863">
        <ele>1267.622</ele>
        <time>2013-10-23T12:34:45.013Z</time>
      </trkpt>
      <trkpt lat="43.0005" lon="-0.15888">
        <ele>1267.472</ele>
        <time>2013-10-23T12:34:47.134Z</time>
      </trkpt>
      <trkpt lat="43.00058" lon="-0.15923">
        <ele>1267.878</ele>
        <time>2013-10-23T12:34:49.978Z</time>
      </trkpt>
      <trkpt lat="43.00064" lon="-0.15948">
        <ele>1268.434</ele>
        <time>2013-10-23T12:34:52.093Z</time>
      </trkpt>
      <trkpt lat="43.00068" lon="-0.15971">
        <ele>1268.877</ele>
        <time>2013-10-23T12:34:54.104Z</time>
      </trkpt>
      <trkpt lat="43.00076" lon="-0.16003">
        <ele>1268.973</ele>
        <time>2013-10-23T12:34:56.960Z</time>
      </trkpt>
      <trkpt lat="43.00086" lon="-0.16041">
        <ele>1268.632</ele>
        <time>2013-10-23T12:35:00.322Z</time>
      </trkpt>
      <trkpt lat="43.00098" lon="-0.16074">
        <ele>1267.994</ele>
        <time>2013-10-23T12:35:03.269Z</time>
      </trkpt>
      <trkpt lat="43.00116" lon="-0.16099">
        <ele>1267.7</ele>
        <time>2013-10-23T12:35:06.070Z</time>
      </trkpt>
      <trkpt lat="43.00134" lon="-0.16113">
        <ele>1268.179</ele>
        <time>2013-10-23T12:35:08.296Z</time>
      </trkpt>
      <trkpt lat="43.00159" lon="-0.16129">
        <ele>1268.824</ele>
        <time>2013-10-23T12:35:11.645Z</time>
      </trkpt>
      <trkpt lat="43.00181" lon="-0.16129">
        <ele>1268.572</ele>
        <time>2013-10-23T12:35:15.205Z</time>
      </trkpt>
      <trkpt lat="43.00198" lon="-0.16131">
        <ele>1266.505</ele>
        <time>2013-10-23T12:35:19.140Z</time>
      </trkpt>
      <trkpt lat="43.0021" lon="-0.16135">
        <ele>1263.101</ele>
        <time>2013-10-23T12:35:23.451Z</time>
      </trkpt>
      <trkpt lat="43.00219" lon="-0.16145">
        <ele>1260.242</ele>
        <time>2013-10-23T12:35:28.009Z</time>
      </trkpt>
      <trkpt lat="43.00222" lon="-0.16158">
        <ele>1257.945</ele>
        <time>2013-10-23T12:35:31.439Z</time>
      </trkpt>
      <trkpt lat="43.00227" lon="-0.1617">
        <ele>1254.019</ele>
        <time>2013-10-23T12:35:34.043Z</time>
      </trkpt>
      <trkpt lat="43.0023" lon="-0.16186">
        <ele>1247.772</ele>
        <time>2013-10-23T12:35:36.735Z</time>
      </trkpt>
      <trkpt lat="43.00231" lon="-0.16203">
        <ele>1240.549</ele>
        <time>2013-10-23T12:35:38.954Z</time>
      </trkpt>
      <trkpt lat="43.0023" lon="-0.16216">
        <ele>1234.096</ele>
        <time>2013-10-23T12:35:40.400Z</time>
      </trkpt>
      <trkpt lat="43.00226" lon="-0.16245">
        <ele>1229.937</ele>
        <time>2013-10-23T12:35:43.392Z</time>
      </trkpt>
      <trkpt lat="43.00222" lon="-0.16274">
        <ele>1228.194</ele>
        <time>2013-10-23T12:35:46.020Z</time>
      </trkpt>
      <trkpt lat="43.0022" lon="-0.16297">
        <ele>1226.851</ele>
        <time>2013-10-23T12:35:48.102Z</time>
      </trkpt>
      <trkpt lat="43.0022" lon="-0.16321">
        <ele>1225.597</ele>
        <time>2013-10-23T12:35:50.244Z</time>
      </trkpt>
      <trkpt lat="43.00218" lon="-0.16358">
        <ele>1223.915</ele>
        <time>2013-10-23T12:35:53.858Z</time>
      </trkpt>
      <trkpt lat="43.00217" lon="-0.16381">
        <ele>1222.107</ele>
        <time>2013-10-23T12:35:56.306Z</time>
      </trkpt>
      <trkpt lat="43.0022" lon="-0.16409">
        <ele>1219.264</ele>
        <time>2013-10-23T12:35:59.171Z</time>
      </trkpt>
      <trkpt lat="43.00234" lon="-0.16429">
        <ele>1219.491</ele>
        <time>2013-10-23T12:36:01.660Z</time>
      </trkpt>
      <trkpt lat="43.00253" lon="-0.16439">
        <ele>1220.592</ele>
        <time>2013-10-23T12:36:04.223Z</time>
      </trkpt>
      <trkpt lat="43.00277" lon="-0.16447">
        <ele>1222.262</ele>
        <time>2013-10-23T12:36:07.758Z</time>
      </trkpt>
      <trkpt lat="43.00292" lon="-0.16447">
        <ele>1224.125</ele>
        <time>2013-10-23T12:36:10.598Z</time>
      </trkpt>
      <trkpt lat="43.00311" lon="-0.1645">
        <ele>1225.479</ele>
        <time>2013-10-23T12:36:13.899Z</time>
      </trkpt>
      <trkpt lat="43.00319" lon="-0.16467">
        <ele>1225.953</ele>
        <time>2013-10-23T12:36:16.080Z</time>
      </trkpt>
      <trkpt lat="43.00322" lon="-0.16489">
        <ele>1225.693</ele>
        <time>2013-10-23T12:36:18.323Z</time>
      </trkpt>
      <trkpt lat="43.00319" lon="-0.16513">
        <ele>1224.052</ele>
        <time>2013-10-23T12:36:20.704Z</time>
      </trkpt>
      <trkpt lat="43.00323" lon="-0.1654">
        <ele>1220.224</ele>
        <time>2013-10-23T12:36:23.535Z</time>
      </trkpt>
      <trkpt lat="43.00329" lon="-0.16574">
        <ele>1215.219</ele>
        <time>2013-10-23T12:36:27.934Z</time>
      </trkpt>
      <trkpt lat="43.00333" lon="-0.16586">
        <ele>1210.975</ele>
        <time>2013-10-23T12:36:29.510Z</time>
      </trkpt>
      <trkpt lat="43.00345" lon="-0.16601">
        <ele>1208.44</ele>
        <time>2013-10-23T12:36:31.687Z</time>
      </trkpt>
      <trkpt lat="43.00364" lon="-0.16617">
        <ele>1207.636</ele>
        <time>2013-10-23T12:36:34.569Z</time>
      </trkpt>
      <trkpt lat="43.00385" lon="-0.1663">
        <ele>1207.942</ele>
        <time>2013-10-23T12:36:37.555Z</time>
      </trkpt>
      <trkpt lat="43.00401" lon="-0.16643">
        <ele>1208.607</ele>
        <time>2013-10-23T12:36:39.842Z</time>
      </trkpt>
      <trkpt lat="43.00425" lon="-0.16662">
        <ele>1209.1</ele>
        <time>2013-10-23T12:36:43.016Z</time>
      </trkpt>
      <trkpt lat="43.00446" lon="-0.16681">
        <ele>1209.385</ele>
        <time>2013-10-23T12:36:45.994Z</time>
      </trkpt>
      <trkpt lat="43.00466" lon="-0.1669">
        <ele>1209.83</ele>
        <time>2013-10-23T12:36:48.860Z</time>
      </trkpt>
      <trkpt lat="43.00487" lon="-0.16702">
        <ele>1210.522</ele>
        <time>2013-10-23T12:36:52.610Z</time>
      </trkpt>
      <trkpt lat="43.00503" lon="-0.1671">
        <ele>1210.31</ele>
        <time>2013-10-23T12:36:55.175Z</time>
      </trkpt>
      <trkpt lat="43.00519" lon="-0.16725">
        <ele>1208.448</ele>
        <time>2013-10-23T12:36:57.724Z</time>
      </trkpt>
      <trkpt lat="43.00525" lon="-0.1674">
        <ele>1204.722</ele>
        <time>2013-10-23T12:36:59.208Z</time>
      </trkpt>
      <trkpt lat="43.00524" lon="-0.1676">
        <ele>1199.122</ele>
        <time>2013-10-23T12:37:00.900Z</time>
      </trkpt>
      <trkpt lat="43.00521" lon="-0.16779">
        <ele>1193.365</ele>
        <time>2013-10-23T12:37:02.501Z</time>
      </trkpt>
      <trkpt lat="43.00522" lon="-0.16816">
        <ele>1189.631</ele>
        <time>2013-10-23T12:37:05.275Z</time>
      </trkpt>
      <trkpt lat="43.00526" lon="-0.16841">
        <ele>1187.99</ele>
        <time>2013-10-23T12:37:07.166Z</time>
      </trkpt>
      <trkpt lat="43.00534" lon="-0.16886">
        <ele>1187.67</ele>
        <time>2013-10-23T12:37:10.573Z</time>
      </trkpt>
      <trkpt lat="43.00539" lon="-0.16912">
        <ele>1187.755</ele>
        <time>2013-10-23T12:37:12.636Z</time>
      </trkpt>
      <trkpt lat="43.00547" lon="-0.1695">
        <ele>1187.007</ele>
        <time>2013-10-23T12:37:15.651Z</time>
      </trkpt>
      <trkpt lat="43.00553" lon="-0.16975">
        <ele>1184.205</ele>
        <time>2013-10-23T12:37:17.612Z</time>
      </trkpt>
      <trkpt lat="43.0056" lon="-0.17014">
        <ele>1179.457</ele>
        <time>2013-10-23T12:37:20.596Z</time>
      </trkpt>
      <trkpt lat="43.00564" lon="-0.1704">
        <ele>1174.354</ele>
        <time>2013-10-23T12:37:22.678Z</time>
      </trkpt>
      <trkpt lat="43.0057" lon="-0.17084">
        <ele>1170.352</ele>
        <time>2013-10-23T12:37:26.511Z</time>
      </trkpt>
      <trkpt lat="43.00567" lon="-0.17113">
        <ele>1167.494</ele>
        <time>2013-10-23T12:37:29.229Z</time>
      </trkpt>
      <trkpt lat="43.00566" lon="-0.17139">
        <ele>1165.26</ele>
        <time>2013-10-23T12:37:32.356Z</time>
      </trkpt>
      <trkpt lat="43.00566" lon="-0.17164">
        <ele>1163.66</ele>
        <time>2013-10-23T12:37:35.670Z</time>
      </trkpt>
      <trkpt lat="43.0057" lon="-0.17184">
        <ele>1162.682</ele>
        <time>2013-10-23T12:37:38.336Z</time>
      </trkpt>
      <trkpt lat="43.00573" lon="-0.17197">
        <ele>1161.724</ele>
        <time>2013-10-23T12:37:40.498Z</time>
      </trkpt>
      <trkpt lat="43.00584" lon="-0.17208">
        <ele>1160.368</ele>
        <time>2013-10-23T12:37:44.113Z</time>
      </trkpt>
      <trkpt lat="43.00599" lon="-0.1722">
        <ele>1158.928</ele>
        <time>2013-10-23T12:37:49.473Z</time>
      </trkpt>
      <trkpt lat="43.00605" lon="-0.1723">
        <ele>1157.962</ele>
        <time>2013-10-23T12:37:53.328Z</time>
      </trkpt>
      <trkpt lat="43.0061" lon="-0.17245">
        <ele>1157.594</ele>
        <time>2013-10-23T12:37:58.375Z</time>
      </trkpt>
      <trkpt lat="43.00617" lon="-0.1726">
        <ele>1157.414</ele>
        <time>2013-10-23T12:38:03.427Z</time>
      </trkpt>
      <trkpt lat="43.00622" lon="-0.17276">
        <ele>1156.774</ele>
        <time>2013-10-23T12:38:09.773Z</time>
      </trkpt>
      <trkpt lat="43.00625" lon="-0.17288">
        <ele>1154.555</ele>
        <time>2013-10-23T12:38:15.004Z</time>
      </trkpt>
      <trkpt lat="43.00625" lon="-0.17303">
        <ele>1150.377</ele>
        <time>2013-10-23T12:38:21.196Z</time>
      </trkpt>
      <trkpt lat="43.00622" lon="-0.17317">
        <ele>1146.019</ele>
        <time>2013-10-23T12:38:26.138Z</time>
      </trkpt>
      <trkpt lat="43.00619" lon="-0.17331">
        <ele>1143.638</ele>
        <time>2013-10-23T12:38:30.619Z</time>
      </trkpt>
      <trkpt lat="43.00614" lon="-0.17342">
        <ele>1143.463</ele>
        <time>2013-10-23T12:38:34.437Z</time>
      </trkpt>
      <trkpt lat="43.0061" lon="-0.17353">
        <ele>1144.428</ele>
        <time>2013-10-23T12:38:38.273Z</time>
      </trkpt>
      <trkpt lat="43.00605" lon="-0.17369">
        <ele>1145.808</ele>
        <time>2013-10-23T12:38:43.536Z</time>
      </trkpt>
      <trkpt lat="43.00602" lon="-0.17385">
        <ele>1148.21</ele>
        <time>2013-10-23T12:38:47.889Z</time>
      </trkpt>
      <trkpt lat="43.00599" lon="-0.17399">
        <ele>1151.583</ele>
        <time>2013-10-23T12:38:51.845Z</time>
      </trkpt>
      <trkpt lat="43.00594" lon="-0.17411">
        <ele>1154.256</ele>
        <time>2013-10-23T12:38:55.898Z</time>
      </trkpt>
      <trkpt lat="43.0059" lon="-0.17427">
        <ele>1155.425</ele>
        <time>2013-10-23T12:39:01.125Z</time>
      </trkpt>
      <trkpt lat="43.00585" lon="-0.17444">
        <ele>1155.764</ele>
        <time>2013-10-23T12:39:07.026Z</time>
      </trkpt>
      <trkpt lat="43.00584" lon="-0.17456">
        <ele>1155.843</ele>
        <time>2013-10-23T12:39:11.117Z</time>
      </trkpt>
      <trkpt lat="43.00583" lon="-0.1747">
        <ele>1156.157</ele>
        <time>2013-10-23T12:39:15.945Z</time>
      </trkpt>
      <trkpt lat="43.00582" lon="-0.17485">
        <ele>1156.934</ele>
        <time>2013-10-23T12:39:21.555Z</time>
      </trkpt>
      <trkpt lat="43.00579" lon="-0.17497">
        <ele>1157.392</ele>
        <time>2013-10-23T12:39:26.479Z</time>
      </trkpt>
      <trkpt lat="43.00575" lon="-0.17511">
        <ele>1156.918</ele>
        <time>2013-10-23T12:39:32.272Z</time>
      </trkpt>
      <trkpt lat="43.00571" lon="-0.17523">
        <ele>1157.207</ele>
        <time>2013-10-23T12:39:37.357Z</time>
      </trkpt>
      <trkpt lat="43.00568" lon="-0.17535">
        <ele>1159.689</ele>
        <time>2013-10-23T12:39:41.732Z</time>
      </trkpt>
      <trkpt lat="43.00564" lon="-0.17547">
        <ele>1163.502</ele>
        <time>2013-10-23T12:39:45.959Z</time>
      </trkpt>
      <trkpt lat="43.0056" lon="-0.17558">
        <ele>1168.126</ele>
        <time>2013-10-23T12:39:50.583Z</time>
      </trkpt>
      <trkpt lat="43.00557" lon="-0.1757">
        <ele>1173.643</ele>
        <time>2013-10-23T12:39:55.075Z</time>
      </trkpt>
      <trkpt lat="43.00549" lon="-0.17582">
        <ele>1178.498</ele>
        <time>2013-10-23T12:40:00.904Z</time>
      </trkpt>
      <trkpt lat="43.0054" lon="-0.17594">
        <ele>1181.14</ele>
        <time>2013-10-23T12:40:06.909Z</time>
      </trkpt>
      <trkpt lat="43.00535" lon="-0.17604">
        <ele>1181.849</ele>
        <time>2013-10-23T12:40:11.305Z</time>
      </trkpt>
      <trkpt lat="43.00529" lon="-0.17616">
        <ele>1182.053</ele>
        <time>2013-10-23T12:40:15.861Z</time>
      </trkpt>
      <trkpt lat="43.00523" lon="-0.17624">
        <ele>1182.838</ele>
        <time>2013-10-23T12:40:19.638Z</time>
      </trkpt>
      <trkpt lat="43.00514" lon="-0.1763">
        <ele>1184.165</ele>
        <time>2013-10-23T12:40:23.429Z</time>
      </trkpt>
      <trkpt lat="43.00506" lon="-0.17639">
        <ele>1184.634</ele>
        <time>2013-10-23T12:40:27.645Z</time>
      </trkpt>
      <trkpt lat="43.00498" lon="-0.17648">
        <ele>1183.473</ele>
        <time>2013-10-23T12:40:32.028Z</time>
      </trkpt>
      <trkpt lat="43.0049" lon="-0.17656">
        <ele>1182.317</ele>
        <time>2013-10-23T12:40:35.849Z</time>
      </trkpt>
      <trkpt lat="43.00482" lon="-0.17664">
        <ele>1183.087</ele>
        <time>2013-10-23T12:40:39.338Z</time>
      </trkpt>
      <trkpt lat="43.00473" lon="-0.17672">
        <ele>1185.286</ele>
        <time>2013-10-23T12:40:43.511Z</time>
      </trkpt>
      <trkpt lat="43.00465" lon="-0.17678">
        <ele>1187.045</ele>
        <time>2013-10-23T12:40:46.958Z</time>
      </trkpt>
      <trkpt lat="43.00456" lon="-0.17689">
        <ele>1187.515</ele>
        <time>2013-10-23T12:40:51.561Z</time>
      </trkpt>
      <trkpt lat="43.00451" lon="-0.17701">
        <ele>1187.245</ele>
        <time>2013-10-23T12:40:55.851Z</time>
      </trkpt>
      <trkpt lat="43.00449" lon="-0.17715">
        <ele>1187.173</ele>
        <time>2013-10-23T12:41:00.315Z</time>
      </trkpt>
      <trkpt lat="43.00444" lon="-0.17729">
        <ele>1187.845</ele>
        <time>2013-10-23T12:41:04.711Z</time>
      </trkpt>
      <trkpt lat="43.00439" lon="-0.17741">
        <ele>1188.956</ele>
        <time>2013-10-23T12:41:08.491Z</time>
      </trkpt>
      <trkpt lat="43.00433" lon="-0.17752">
        <ele>1189.916</ele>
        <time>2013-10-23T12:41:11.766Z</time>
      </trkpt>
      <trkpt lat="43.00426" lon="-0.17766">
        <ele>1190.441</ele>
        <time>2013-10-23T12:41:15.698Z</time>
      </trkpt>
      <trkpt lat="43.00423" lon="-0.17779">
        <ele>1190.415</ele>
        <time>2013-10-23T12:41:19.037Z</time>
      </trkpt>
      <trkpt lat="43.00424" lon="-0.17795">
        <ele>1189.332</ele>
        <time>2013-10-23T12:41:23.461Z</time>
      </trkpt>
      <trkpt lat="43.00429" lon="-0.17808">
        <ele>1186.881</ele>
        <time>2013-10-23T12:41:27.685Z</time>
      </trkpt>
      <trkpt lat="43.00432" lon="-0.17821">
        <ele>1184.112</ele>
        <time>2013-10-23T12:41:32.132Z</time>
      </trkpt>
      <trkpt lat="43.00433" lon="-0.17835">
        <ele>1183.357</ele>
        <time>2013-10-23T12:41:36.961Z</time>
      </trkpt>
      <trkpt lat="43.00436" lon="-0.17849">
        <ele>1185.783</ele>
        <time>2013-10-23T12:41:41.889Z</time>
      </trkpt>
      <trkpt lat="43.00437" lon="-0.17864">
        <ele>1190.352</ele>
        <time>2013-10-23T12:41:46.764Z</time>
      </trkpt>
      <trkpt lat="43.00439" lon="-0.17878">
        <ele>1195.114</ele>
        <time>2013-10-23T12:41:51.079Z</time>
      </trkpt>
      <trkpt lat="43.00441" lon="-0.17895">
        <ele>1198.617</ele>
        <time>2013-10-23T12:41:56.644Z</time>
      </trkpt>
      <trkpt lat="43.00446" lon="-0.17907">
        <ele>1200.52</ele>
        <time>2013-10-23T12:42:01.303Z</time>
      </trkpt>
      <trkpt lat="43.00453" lon="-0.17919">
        <ele>1202.028</ele>
        <time>2013-10-23T12:42:06.200Z</time>
      </trkpt>
      <trkpt lat="43.00455" lon="-0.17932">
        <ele>1203.968</ele>
        <time>2013-10-23T12:42:10.589Z</time>
      </trkpt>
      <trkpt lat="43.00457" lon="-0.17946">
        <ele>1205.684</ele>
        <time>2013-10-23T12:42:14.963Z</time>
      </trkpt>
      <trkpt lat="43.00457" lon="-0.17959">
        <ele>1205.758</ele>
        <time>2013-10-23T12:42:18.448Z</time>
      </trkpt>
      <trkpt lat="43.00456" lon="-0.17974">
        <ele>1203.965</ele>
        <time>2013-10-23T12:42:22.631Z</time>
      </trkpt>
      <trkpt lat="43.00455" lon="-0.17988">
        <ele>1202.179</ele>
        <time>2013-10-23T12:42:26.181Z</time>
      </trkpt>
      <trkpt lat="43.00454" lon="-0.18003">
        <ele>1202.254</ele>
        <time>2013-10-23T12:42:29.850Z</time>
      </trkpt>
      <trkpt lat="43.00454" lon="-0.18018">
        <ele>1203.773</ele>
        <time>2013-10-23T12:42:33.488Z</time>
      </trkpt>
      <trkpt lat="43.00453" lon="-0.18031">
        <ele>1205.413</ele>
        <time>2013-10-23T12:42:36.502Z</time>
      </trkpt>
      <trkpt lat="43.00452" lon="-0.18047">
        <ele>1206.478</ele>
        <time>2013-10-23T12:42:40.419Z</time>
      </trkpt>
      <trkpt lat="43.00453" lon="-0.18063">
        <ele>1207.018</ele>
        <time>2013-10-23T12:42:44.348Z</time>
      </trkpt>
      <trkpt lat="43.00452" lon="-0.18078">
        <ele>1207.723</ele>
        <time>2013-10-23T12:42:48.101Z</time>
      </trkpt>
      <trkpt lat="43.0045" lon="-0.18093">
        <ele>1209.019</ele>
        <time>2013-10-23T12:42:51.851Z</time>
      </trkpt>
      <trkpt lat="43.00451" lon="-0.18108">
        <ele>1210.251</ele>
        <time>2013-10-23T12:42:55.494Z</time>
      </trkpt>
      <trkpt lat="43.00452" lon="-0.18123">
        <ele>1211.46</ele>
        <time>2013-10-23T12:42:58.914Z</time>
      </trkpt>
      <trkpt lat="43.00454" lon="-0.18137">
        <ele>1213.213</ele>
        <time>2013-10-23T12:43:01.996Z</time>
      </trkpt>
      <trkpt lat="43.00456" lon="-0.18151">
        <ele>1215.046</ele>
        <time>2013-10-23T12:43:05.178Z</time>
      </trkpt>
      <trkpt lat="43.00457" lon="-0.18166">
        <ele>1216.323</ele>
        <time>2013-10-23T12:43:08.628Z</time>
      </trkpt>
      <trkpt lat="43.00455" lon="-0.18181">
        <ele>1217.063</ele>
        <time>2013-10-23T12:43:12.208Z</time>
      </trkpt>
      <trkpt lat="43.00455" lon="-0.18194">
        <ele>1218.396</ele>
        <time>2013-10-23T12:43:15.592Z</time>
      </trkpt>
      <trkpt lat="43.00452" lon="-0.18205">
        <ele>1221.641</ele>
        <time>2013-10-23T12:43:19.739Z</time>
      </trkpt>
      <trkpt lat="43.00447" lon="-0.18218">
        <ele>1225.703</ele>
        <time>2013-10-23T12:43:24.475Z</time>
      </trkpt>
      <trkpt lat="43.00439" lon="-0.18226">
        <ele>1228.456</ele>
        <time>2013-10-23T12:43:28.282Z</time>
      </trkpt>
      <trkpt lat="43.0043" lon="-0.18222">
        <ele>1229.296</ele>
        <time>2013-10-23T12:43:31.150Z</time>
      </trkpt>
      <trkpt lat="43.00428" lon="-0.18209">
        <ele>1228.931</ele>
        <time>2013-10-23T12:43:33.806Z</time>
      </trkpt>
      <trkpt lat="43.00434" lon="-0.18199">
        <ele>1228.295</ele>
        <time>2013-10-23T12:43:36.246Z</time>
      </trkpt>
      <trkpt lat="43.00438" lon="-0.18185">
        <ele>1227.933</ele>
        <time>2013-10-23T12:43:39.074Z</time>
      </trkpt>
      <trkpt lat="43.0044" lon="-0.18168">
        <ele>1228.198</ele>
        <time>2013-10-23T12:43:42.278Z</time>
      </trkpt>
      <trkpt lat="43.00441" lon="-0.1815">
        <ele>1229.135</ele>
        <time>2013-10-23T12:43:45.863Z</time>
      </trkpt>
      <trkpt lat="43.00439" lon="-0.18135">
        <ele>1230.1</ele>
        <time>2013-10-23T12:43:48.819Z</time>
      </trkpt>
      <trkpt lat="43.00437" lon="-0.18121">
        <ele>1230.585</ele>
        <time>2013-10-23T12:43:51.624Z</time>
      </trkpt>
      <trkpt lat="43.00435" lon="-0.18106">
        <ele>1230.661</ele>
        <time>2013-10-23T12:43:54.673Z</time>
      </trkpt>
      <trkpt lat="43.00434" lon="-0.18094">
        <ele>1230.71</ele>
        <time>2013-10-23T12:43:57.348Z</time>
      </trkpt>
      <trkpt lat="43.00431" lon="-0.1808">
        <ele>1231.102</ele>
        <time>2013-10-23T12:44:00.412Z</time>
      </trkpt>
      <trkpt lat="43.00427" lon="-0.18069">
        <ele>1231.875</ele>
        <time>2013-10-23T12:44:03.089Z</time>
      </trkpt>
      <trkpt lat="43.00424" lon="-0.18056">
        <ele>1232.848</ele>
        <time>2013-10-23T12:44:06.481Z</time>
      </trkpt>
      <trkpt lat="43.00419" lon="-0.18043">
        <ele>1234.071</ele>
        <time>2013-10-23T12:44:10.874Z</time>
      </trkpt>
      <trkpt lat="43.00414" lon="-0.18032">
        <ele>1235.446</ele>
        <time>2013-10-23T12:44:15.811Z</time>
      </trkpt>
      <trkpt lat="43.00407" lon="-0.1802">
        <ele>1236.448</ele>
        <time>2013-10-23T12:44:20.081Z</time>
      </trkpt>
      <trkpt lat="43.00398" lon="-0.18013">
        <ele>1237.017</ele>
        <time>2013-10-23T12:44:23.903Z</time>
      </trkpt>
      <trkpt lat="43.00391" lon="-0.18025">
        <ele>1237.776</ele>
        <time>2013-10-23T12:44:27.761Z</time>
      </trkpt>
      <trkpt lat="43.00395" lon="-0.1804">
        <ele>1239.817</ele>
        <time>2013-10-23T12:44:32.164Z</time>
      </trkpt>
      <trkpt lat="43.00398" lon="-0.18052">
        <ele>1243.209</ele>
        <time>2013-10-23T12:44:36.080Z</time>
      </trkpt>
      <trkpt lat="43.004" lon="-0.18066">
        <ele>1246.299</ele>
        <time>2013-10-23T12:44:40.288Z</time>
      </trkpt>
      <trkpt lat="43.00402" lon="-0.18079">
        <ele>1248.066</ele>
        <time>2013-10-23T12:44:44.194Z</time>
      </trkpt>
      <trkpt lat="43.00403" lon="-0.18092">
        <ele>1249.126</ele>
        <time>2013-10-23T12:44:47.752Z</time>
      </trkpt>
      <trkpt lat="43.00401" lon="-0.18104">
        <ele>1249.733</ele>
        <time>2013-10-23T12:44:51.142Z</time>
      </trkpt>
      <trkpt lat="43.00398" lon="-0.1812">
        <ele>1249.912</ele>
        <time>2013-10-23T12:44:55.238Z</time>
      </trkpt>
      <trkpt lat="43.00394" lon="-0.18134">
        <ele>1250.109</ele>
        <time>2013-10-23T12:44:59.131Z</time>
      </trkpt>
      <trkpt lat="43.00387" lon="-0.18147">
        <ele>1250.661</ele>
        <time>2013-10-23T12:45:02.856Z</time>
      </trkpt>
      <trkpt lat="43.0038" lon="-0.18157">
        <ele>1251.327</ele>
        <time>2013-10-23T12:45:06.139Z</time>
      </trkpt>
      <trkpt lat="43.0037" lon="-0.18165">
        <ele>1251.993</ele>
        <time>2013-10-23T12:45:09.808Z</time>
      </trkpt>
      <trkpt lat="43.0036" lon="-0.18173">
        <ele>1252.877</ele>
        <time>2013-10-23T12:45:13.627Z</time>
      </trkpt>
      <trkpt lat="43.00352" lon="-0.18182">
        <ele>1254.288</ele>
        <time>2013-10-23T12:45:16.852Z</time>
      </trkpt>
      <trkpt lat="43.00343" lon="-0.18187">
        <ele>1255.984</ele>
        <time>2013-10-23T12:45:20.121Z</time>
      </trkpt>
      <trkpt lat="43.00335" lon="-0.18191">
        <ele>1257.398</ele>
        <time>2013-10-23T12:45:23.319Z</time>
      </trkpt>
      <trkpt lat="43.00324" lon="-0.18198">
        <ele>1257.952</ele>
        <time>2013-10-23T12:45:27.535Z</time>
      </trkpt>
      <trkpt lat="43.00314" lon="-0.18203">
        <ele>1257.848</ele>
        <time>2013-10-23T12:45:32.019Z</time>
      </trkpt>
      <trkpt lat="43.00304" lon="-0.18205">
        <ele>1258.341</ele>
        <time>2013-10-23T12:45:36.574Z</time>
      </trkpt>
      <trkpt lat="43.00293" lon="-0.18204">
        <ele>1259.902</ele>
        <time>2013-10-23T12:45:41.238Z</time>
      </trkpt>
      <trkpt lat="43.00284" lon="-0.18207">
        <ele>1261.385</ele>
        <time>2013-10-23T12:45:44.975Z</time>
      </trkpt>
      <trkpt lat="43.00275" lon="-0.1821">
        <ele>1262.624</ele>
        <time>2013-10-23T12:45:48.532Z</time>
      </trkpt>
      <trkpt lat="43.00265" lon="-0.18216">
        <ele>1264.484</ele>
        <time>2013-10-23T12:45:52.730Z</time>
      </trkpt>
      <trkpt lat="43.00256" lon="-0.18225">
        <ele>1267.662</ele>
        <time>2013-10-23T12:45:56.453Z</time>
      </trkpt>
      <trkpt lat="43.00249" lon="-0.18235">
        <ele>1272.021</ele>
        <time>2013-10-23T12:45:59.563Z</time>
      </trkpt>
      <trkpt lat="43.00243" lon="-0.18246">
        <ele>1276.023</ele>
        <time>2013-10-23T12:46:02.587Z</time>
      </trkpt>
      <trkpt lat="43.00236" lon="-0.18258">
        <ele>1277.985</ele>
        <time>2013-10-23T12:46:06.032Z</time>
      </trkpt>
      <trkpt lat="43.00232" lon="-0.18274">
        <ele>1277.779</ele>
        <time>2013-10-23T12:46:10.112Z</time>
      </trkpt>
      <trkpt lat="43.00228" lon="-0.18288">
        <ele>1275.356</ele>
        <time>2013-10-23T12:46:13.836Z</time>
      </trkpt>
      <trkpt lat="43.00224" lon="-0.18303">
        <ele>1271.233</ele>
        <time>2013-10-23T12:46:17.569Z</time>
      </trkpt>
      <trkpt lat="43.0022" lon="-0.18315">
        <ele>1267.492</ele>
        <time>2013-10-23T12:46:20.527Z</time>
      </trkpt>
      <trkpt lat="43.00215" lon="-0.1833">
        <ele>1265.586</ele>
        <time>2013-10-23T12:46:23.875Z</time>
      </trkpt>
      <trkpt lat="43.0021" lon="-0.18343">
        <ele>1264.996</ele>
        <time>2013-10-23T12:46:27.058Z</time>
      </trkpt>
      <trkpt lat="43.00207" lon="-0.1836">
        <ele>1264.553</ele>
        <time>2013-10-23T12:46:30.792Z</time>
      </trkpt>
      <trkpt lat="43.00208" lon="-0.18377">
        <ele>1263.643</ele>
        <time>2013-10-23T12:46:34.425Z</time>
      </trkpt>
      <trkpt lat="43.00211" lon="-0.1839">
        <ele>1262.882</ele>
        <time>2013-10-23T12:46:37.418Z</time>
      </trkpt>
      <trkpt lat="43.00218" lon="-0.18405">
        <ele>1263.089</ele>
        <time>2013-10-23T12:46:41.345Z</time>
      </trkpt>
      <trkpt lat="43.00224" lon="-0.18416">
        <ele>1264.551</ele>
        <time>2013-10-23T12:46:44.564Z</time>
      </trkpt>
      <trkpt lat="43.00229" lon="-0.18429">
        <ele>1267.297</ele>
        <time>2013-10-23T12:46:47.909Z</time>
      </trkpt>
      <trkpt lat="43.00229" lon="-0.18445">
        <ele>1270.831</ele>
        <time>2013-10-23T12:46:51.648Z</time>
      </trkpt>
      <trkpt lat="43.00229" lon="-0.18458">
        <ele>1274.103</ele>
        <time>2013-10-23T12:46:54.885Z</time>
      </trkpt>
      <trkpt lat="43.00227" lon="-0.18471">
        <ele>1276.197</ele>
        <time>2013-10-23T12:46:58.647Z</time>
      </trkpt>
      <trkpt lat="43.00226" lon="-0.18483">
        <ele>1276.994</ele>
        <time>2013-10-23T12:47:02.289Z</time>
      </trkpt>
      <trkpt lat="43.00223" lon="-0.18496">
        <ele>1276.994</ele>
        <time>2013-10-23T12:47:05.738Z</time>
      </trkpt>
      <trkpt lat="43.00221" lon="-0.18508">
        <ele>1276.527</ele>
        <time>2013-10-23T12:47:08.873Z</time>
      </trkpt>
      <trkpt lat="43.00218" lon="-0.1852">
        <ele>1275.806</ele>
        <time>2013-10-23T12:47:11.860Z</time>
      </trkpt>
      <trkpt lat="43.00213" lon="-0.18534">
        <ele>1275.201</ele>
        <time>2013-10-23T12:47:15.280Z</time>
      </trkpt>
      <trkpt lat="43.00209" lon="-0.18547">
        <ele>1275.655</ele>
        <time>2013-10-23T12:47:18.300Z</time>
      </trkpt>
      <trkpt lat="43.00206" lon="-0.18559">
        <ele>1277.53</ele>
        <time>2013-10-23T12:47:21.022Z</time>
      </trkpt>
      <trkpt lat="43.00201" lon="-0.18573">
        <ele>1279.767</ele>
        <time>2013-10-23T12:47:24.111Z</time>
      </trkpt>
      <trkpt lat="43.00196" lon="-0.18587">
        <ele>1281.307</ele>
        <time>2013-10-23T12:47:27.544Z</time>
      </trkpt>
      <trkpt lat="43.00194" lon="-0.186">
        <ele>1282.859</ele>
        <time>2013-10-23T12:47:30.373Z</time>
      </trkpt>
      <trkpt lat="43.00191" lon="-0.18616">
        <ele>1285.418</ele>
        <time>2013-10-23T12:47:34.054Z</time>
      </trkpt>
      <trkpt lat="43.00189" lon="-0.18629">
        <ele>1288.495</ele>
        <time>2013-10-23T12:47:37.117Z</time>
      </trkpt>
      <trkpt lat="43.00187" lon="-0.18642">
        <ele>1290.968</ele>
        <time>2013-10-23T12:47:40.123Z</time>
      </trkpt>
      <trkpt lat="43.00182" lon="-0.18653">
        <ele>1292.533</ele>
        <time>2013-10-23T12:47:43.178Z</time>
      </trkpt>
      <trkpt lat="43.0018" lon="-0.18669">
        <ele>1293.497</ele>
        <time>2013-10-23T12:47:46.976Z</time>
      </trkpt>
      <trkpt lat="43.00179" lon="-0.18682">
        <ele>1294.713</ele>
        <time>2013-10-23T12:47:49.796Z</time>
      </trkpt>
      <trkpt lat="43.00177" lon="-0.18696">
        <ele>1296.39</ele>
        <time>2013-10-23T12:47:53.036Z</time>
      </trkpt>
      <trkpt lat="43.00174" lon="-0.18709">
        <ele>1297.903</ele>
        <time>2013-10-23T12:47:55.940Z</time>
      </trkpt>
      <trkpt lat="43.00175" lon="-0.18723">
        <ele>1298.917</ele>
        <time>2013-10-23T12:47:59.248Z</time>
      </trkpt>
      <trkpt lat="43.00175" lon="-0.1874">
        <ele>1299.116</ele>
        <time>2013-10-23T12:48:02.904Z</time>
      </trkpt>
      <trkpt lat="43.00178" lon="-0.18754">
        <ele>1298.117</ele>
        <time>2013-10-23T12:48:06.108Z</time>
      </trkpt>
      <trkpt lat="43.00175" lon="-0.18768">
        <ele>1296.5</ele>
        <time>2013-10-23T12:48:09.180Z</time>
      </trkpt>
      <trkpt lat="43.00176" lon="-0.18781">
        <ele>1295.827</ele>
        <time>2013-10-23T12:48:11.805Z</time>
      </trkpt>
      <trkpt lat="43.00173" lon="-0.18793">
        <ele>1297.116</ele>
        <time>2013-10-23T12:48:14.450Z</time>
      </trkpt>
      <trkpt lat="43.00171" lon="-0.18808">
        <ele>1299.635</ele>
        <time>2013-10-23T12:48:17.476Z</time>
      </trkpt>
      <trkpt lat="43.00173" lon="-0.18823">
        <ele>1301.862</ele>
        <time>2013-10-23T12:48:20.725Z</time>
      </trkpt>
      <trkpt lat="43.00177" lon="-0.18841">
        <ele>1303.231</ele>
        <time>2013-10-23T12:48:24.860Z</time>
      </trkpt>
      <trkpt lat="43.00182" lon="-0.18854">
        <ele>1303.984</ele>
        <time>2013-10-23T12:48:28.173Z</time>
      </trkpt>
      <trkpt lat="43.00185" lon="-0.18869">
        <ele>1304.326</ele>
        <time>2013-10-23T12:48:31.998Z</time>
      </trkpt>
      <trkpt lat="43.00187" lon="-0.18882">
        <ele>1304.674</ele>
        <time>2013-10-23T12:48:35.189Z</time>
      </trkpt>
      <trkpt lat="43.00192" lon="-0.18895">
        <ele>1305.406</ele>
        <time>2013-10-23T12:48:38.626Z</time>
      </trkpt>
      <trkpt lat="43.00195" lon="-0.18911">
        <ele>1306.094</ele>
        <time>2013-10-23T12:48:42.320Z</time>
      </trkpt>
      <trkpt lat="43.00202" lon="-0.18923">
        <ele>1306.278</ele>
        <time>2013-10-23T12:48:45.969Z</time>
      </trkpt>
      <trkpt lat="43.0021" lon="-0.18933">
        <ele>1306.571</ele>
        <time>2013-10-23T12:48:49.703Z</time>
      </trkpt>
      <trkpt lat="43.00216" lon="-0.18944">
        <ele>1307.597</ele>
        <time>2013-10-23T12:48:53.442Z</time>
      </trkpt>
      <trkpt lat="43.00222" lon="-0.18953">
        <ele>1309.019</ele>
        <time>2013-10-23T12:48:56.655Z</time>
      </trkpt>
      <trkpt lat="43.00228" lon="-0.18965">
        <ele>1310.795</ele>
        <time>2013-10-23T12:49:00.396Z</time>
      </trkpt>
      <trkpt lat="43.00231" lon="-0.18978">
        <ele>1313.032</ele>
        <time>2013-10-23T12:49:04.011Z</time>
      </trkpt>
      <trkpt lat="43.00229" lon="-0.18992">
        <ele>1314.681</ele>
        <time>2013-10-23T12:49:07.993Z</time>
      </trkpt>
      <trkpt lat="43.00233" lon="-0.19005">
        <ele>1314.299</ele>
        <time>2013-10-23T12:49:11.942Z</time>
      </trkpt>
      <trkpt lat="43.00234" lon="-0.1902">
        <ele>1312.021</ele>
        <time>2013-10-23T12:49:16.401Z</time>
      </trkpt>
      <trkpt lat="43.00235" lon="-0.19034">
        <ele>1309.455</ele>
        <time>2013-10-23T12:49:20.701Z</time>
      </trkpt>
      <trkpt lat="43.00234" lon="-0.19049">
        <ele>1307.855</ele>
        <time>2013-10-23T12:49:24.972Z</time>
      </trkpt>
      <trkpt lat="43.00231" lon="-0.19063">
        <ele>1307.399</ele>
        <time>2013-10-23T12:49:29.144Z</time>
      </trkpt>
      <trkpt lat="43.00226" lon="-0.19075">
        <ele>1308.298</ele>
        <time>2013-10-23T12:49:32.649Z</time>
      </trkpt>
      <trkpt lat="43.00219" lon="-0.19086">
        <ele>1310.389</ele>
        <time>2013-10-23T12:49:35.975Z</time>
      </trkpt>
      <trkpt lat="43.00211" lon="-0.19095">
        <ele>1312.592</ele>
        <time>2013-10-23T12:49:39.050Z</time>
      </trkpt>
      <trkpt lat="43.00203" lon="-0.19104">
        <ele>1313.564</ele>
        <time>2013-10-23T12:49:42.188Z</time>
      </trkpt>
      <trkpt lat="43.00194" lon="-0.19111">
        <ele>1312.604</ele>
        <time>2013-10-23T12:49:45.288Z</time>
      </trkpt>
      <trkpt lat="43.00184" lon="-0.19118">
        <ele>1310.363</ele>
        <time>2013-10-23T12:49:48.819Z</time>
      </trkpt>
      <trkpt lat="43.00175" lon="-0.19123">
        <ele>1308.729</ele>
        <time>2013-10-23T12:49:51.788Z</time>
      </trkpt>
      <trkpt lat="43.00166" lon="-0.19132">
        <ele>1309.162</ele>
        <time>2013-10-23T12:49:55.122Z</time>
      </trkpt>
      <trkpt lat="43.00157" lon="-0.1914">
        <ele>1311.465</ele>
        <time>2013-10-23T12:49:58.293Z</time>
      </trkpt>
      <trkpt lat="43.00112" lon="-0.19153">
        <ele>1316.218</ele>
        <time>2013-10-23T12:50:13.767Z</time>
      </trkpt>
      <trkpt lat="43.00101" lon="-0.19152">
        <ele>1318.573</ele>
        <time>2013-10-23T12:50:17.210Z</time>
      </trkpt>
      <trkpt lat="43.00091" lon="-0.19152">
        <ele>1321.859</ele>
        <time>2013-10-23T12:50:20.164Z</time>
      </trkpt>
      <trkpt lat="43.00081" lon="-0.19152">
        <ele>1325.564</ele>
        <time>2013-10-23T12:50:23.203Z</time>
      </trkpt>
      <trkpt lat="43.00071" lon="-0.19153">
        <ele>1329.312</ele>
        <time>2013-10-23T12:50:26.111Z</time>
      </trkpt>
      <trkpt lat="43.00061" lon="-0.19154">
        <ele>1332.659</ele>
        <time>2013-10-23T12:50:29.013Z</time>
      </trkpt>
      <trkpt lat="43.00051" lon="-0.19155">
        <ele>1335.149</ele>
        <time>2013-10-23T12:50:32.125Z</time>
      </trkpt>
      <trkpt lat="43.0004" lon="-0.19159">
        <ele>1336.842</ele>
        <time>2013-10-23T12:50:35.875Z</time>
      </trkpt>
      <trkpt lat="43.00029" lon="-0.19159">
        <ele>1337.771</ele>
        <time>2013-10-23T12:50:39.479Z</time>
      </trkpt>
      <trkpt lat="43.00019" lon="-0.19164">
        <ele>1337.572</ele>
        <time>2013-10-23T12:50:43.145Z</time>
      </trkpt>
      <trkpt lat="43.00007" lon="-0.19168">
        <ele>1336.786</ele>
        <time>2013-10-23T12:50:47.272Z</time>
      </trkpt>
      <trkpt lat="42.99998" lon="-0.19171">
        <ele>1336.721</ele>
        <time>2013-10-23T12:50:50.575Z</time>
      </trkpt>
      <trkpt lat="42.99989" lon="-0.19174">
        <ele>1337.367</ele>
        <time>2013-10-23T12:50:53.996Z</time>
      </trkpt>
      <trkpt lat="42.99979" lon="-0.19177">
        <ele>1337.806</ele>
        <time>2013-10-23T12:50:57.761Z</time>
      </trkpt>
      <trkpt lat="42.99968" lon="-0.19181">
        <ele>1338.582</ele>
        <time>2013-10-23T12:51:01.584Z</time>
      </trkpt>
      <trkpt lat="42.9996" lon="-0.19186">
        <ele>1340.365</ele>
        <time>2013-10-23T12:51:04.621Z</time>
      </trkpt>
      <trkpt lat="42.99952" lon="-0.19193">
        <ele>1342.682</ele>
        <time>2013-10-23T12:51:07.550Z</time>
      </trkpt>
      <trkpt lat="42.99944" lon="-0.192">
        <ele>1344.585</ele>
        <time>2013-10-23T12:51:10.416Z</time>
      </trkpt>
      <trkpt lat="42.99934" lon="-0.19204">
        <ele>1345.632</ele>
        <time>2013-10-23T12:51:13.428Z</time>
      </trkpt>
      <trkpt lat="42.99925" lon="-0.19209">
        <ele>1345.982</ele>
        <time>2013-10-23T12:51:16.907Z</time>
      </trkpt>
      <trkpt lat="42.99913" lon="-0.19214">
        <ele>1346.142</ele>
        <time>2013-10-23T12:51:21.093Z</time>
      </trkpt>
      <trkpt lat="42.99904" lon="-0.19217">
        <ele>1347.024</ele>
        <time>2013-10-23T12:51:24.378Z</time>
      </trkpt>
      <trkpt lat="42.99894" lon="-0.1922">
        <ele>1349.045</ele>
        <time>2013-10-23T12:51:27.369Z</time>
      </trkpt>
      <trkpt lat="42.99884" lon="-0.19223">
        <ele>1350.798</ele>
        <time>2013-10-23T12:51:30.315Z</time>
      </trkpt>
      <trkpt lat="42.99875" lon="-0.19229">
        <ele>1350.239</ele>
        <time>2013-10-23T12:51:32.937Z</time>
      </trkpt>
      <trkpt lat="42.99866" lon="-0.19237">
        <ele>1347.571</ele>
        <time>2013-10-23T12:51:35.542Z</time>
      </trkpt>
      <trkpt lat="42.99855" lon="-0.19246">
        <ele>1344.926</ele>
        <time>2013-10-23T12:51:38.592Z</time>
      </trkpt>
      <trkpt lat="42.99845" lon="-0.19257">
        <ele>1343.542</ele>
        <time>2013-10-23T12:51:41.819Z</time>
      </trkpt>
      <trkpt lat="42.99834" lon="-0.1927">
        <ele>1341.602</ele>
        <time>2013-10-23T12:51:45.298Z</time>
      </trkpt>
      <trkpt lat="42.99826" lon="-0.19279">
        <ele>1337.855</ele>
        <time>2013-10-23T12:51:47.897Z</time>
      </trkpt>
      <trkpt lat="42.99818" lon="-0.19287">
        <ele>1334.718</ele>
        <time>2013-10-23T12:51:50.274Z</time>
      </trkpt>
      <trkpt lat="42.99764" lon="-0.19254">
        <ele>1335.435</ele>
        <time>2013-10-23T12:52:04.350Z</time>
      </trkpt>
      <trkpt lat="42.99747" lon="-0.19257">
        <ele>1337.488</ele>
        <time>2013-10-23T12:52:07.754Z</time>
      </trkpt>
      <trkpt lat="42.99737" lon="-0.19261">
        <ele>1341.047</ele>
        <time>2013-10-23T12:52:09.811Z</time>
      </trkpt>
      <trkpt lat="42.99728" lon="-0.19267">
        <ele>1344.729</ele>
        <time>2013-10-23T12:52:11.653Z</time>
      </trkpt>
      <trkpt lat="42.99716" lon="-0.19274">
        <ele>1346.832</ele>
        <time>2013-10-23T12:52:14.317Z</time>
      </trkpt>
      <trkpt lat="42.99708" lon="-0.1928">
        <ele>1347.583</ele>
        <time>2013-10-23T12:52:16.296Z</time>
      </trkpt>
      <trkpt lat="42.99699" lon="-0.19286">
        <ele>1347.681</ele>
        <time>2013-10-23T12:52:18.572Z</time>
      </trkpt>
      <trkpt lat="42.99691" lon="-0.19292">
        <ele>1347.642</ele>
        <time>2013-10-23T12:52:20.850Z</time>
      </trkpt>
      <trkpt lat="42.99681" lon="-0.19297">
        <ele>1347.969</ele>
        <time>2013-10-23T12:52:23.709Z</time>
      </trkpt>
      <trkpt lat="42.99671" lon="-0.19304">
        <ele>1348.921</ele>
        <time>2013-10-23T12:52:26.485Z</time>
      </trkpt>
      <trkpt lat="42.99662" lon="-0.19311">
        <ele>1350.155</ele>
        <time>2013-10-23T12:52:29.431Z</time>
      </trkpt>
      <trkpt lat="42.99652" lon="-0.19318">
        <ele>1350.849</ele>
        <time>2013-10-23T12:52:32.357Z</time>
      </trkpt>
      <trkpt lat="42.99641" lon="-0.19327">
        <ele>1350.577</ele>
        <time>2013-10-23T12:52:35.604Z</time>
      </trkpt>
      <trkpt lat="42.99631" lon="-0.19333">
        <ele>1349.836</ele>
        <time>2013-10-23T12:52:38.455Z</time>
      </trkpt>
      <trkpt lat="42.9962" lon="-0.1934">
        <ele>1349.472</ele>
        <time>2013-10-23T12:52:41.472Z</time>
      </trkpt>
      <trkpt lat="42.99609" lon="-0.19348">
        <ele>1350.173</ele>
        <time>2013-10-23T12:52:44.479Z</time>
      </trkpt>
      <trkpt lat="42.99598" lon="-0.19355">
        <ele>1351.754</ele>
        <time>2013-10-23T12:52:47.376Z</time>
      </trkpt>
      <trkpt lat="42.99589" lon="-0.19363">
        <ele>1353.208</ele>
        <time>2013-10-23T12:52:50.069Z</time>
      </trkpt>
      <trkpt lat="42.99582" lon="-0.19374">
        <ele>1354.132</ele>
        <time>2013-10-23T12:52:52.873Z</time>
      </trkpt>
      <trkpt lat="42.99582" lon="-0.19374">
        <ele>1354.798</ele>
        <time>2013-10-23T12:52:57.799Z</time>
      </trkpt>
      <trkpt lat="42.99582" lon="-0.19374">
        <ele>1354.94</ele>
        <time>2013-10-23T12:53:04.802Z</time>
      </trkpt>
      <trkpt lat="42.99556" lon="-0.19386">
        <ele>1354.349</ele>
        <time>2013-10-23T12:53:32.471Z</time>
      </trkpt>
      <trkpt lat="42.99547" lon="-0.19389">
        <ele>1354.008</ele>
        <time>2013-10-23T12:53:35.535Z</time>
      </trkpt>
      <trkpt lat="42.99537" lon="-0.19392">
        <ele>1354.904</ele>
        <time>2013-10-23T12:53:38.666Z</time>
      </trkpt>
      <trkpt lat="42.99526" lon="-0.19394">
        <ele>1356.484</ele>
        <time>2013-10-23T12:53:41.680Z</time>
      </trkpt>
      <trkpt lat="42.99517" lon="-0.19395">
        <ele>1357.637</ele>
        <time>2013-10-23T12:53:44.341Z</time>
      </trkpt>
      <trkpt lat="42.99508" lon="-0.19398">
        <ele>1358.061</ele>
        <time>2013-10-23T12:53:47.226Z</time>
      </trkpt>
      <trkpt lat="42.99499" lon="-0.19402">
        <ele>1357.758</ele>
        <time>2013-10-23T12:53:50.090Z</time>
      </trkpt>
      <trkpt lat="42.9949" lon="-0.19404">
        <ele>1356.804</ele>
        <time>2013-10-23T12:53:52.953Z</time>
      </trkpt>
      <trkpt lat="42.9948" lon="-0.19407">
        <ele>1355.197</ele>
        <time>2013-10-23T12:53:56.040Z</time>
      </trkpt>
      <trkpt lat="42.99469" lon="-0.19403">
        <ele>1355.155</ele>
        <time>2013-10-23T12:53:59.208Z</time>
      </trkpt>
      <trkpt lat="42.99459" lon="-0.19404">
        <ele>1355.669</ele>
        <time>2013-10-23T12:54:01.900Z</time>
      </trkpt>
      <trkpt lat="42.99449" lon="-0.19402">
        <ele>1356.781</ele>
        <time>2013-10-23T12:54:04.892Z</time>
      </trkpt>
      <trkpt lat="42.99439" lon="-0.19396">
        <ele>1358.526</ele>
        <time>2013-10-23T12:54:07.875Z</time>
      </trkpt>
      <trkpt lat="42.9943" lon="-0.1939">
        <ele>1360.574</ele>
        <time>2013-10-23T12:54:10.690Z</time>
      </trkpt>
      <trkpt lat="42.99418" lon="-0.19385">
        <ele>1362.526</ele>
        <time>2013-10-23T12:54:13.627Z</time>
      </trkpt>
      <trkpt lat="42.99406" lon="-0.1938">
        <ele>1365.809</ele>
        <time>2013-10-23T12:54:16.674Z</time>
      </trkpt>
      <trkpt lat="42.99393" lon="-0.19373">
        <ele>1367.585</ele>
        <time>2013-10-23T12:54:19.542Z</time>
      </trkpt>
      <trkpt lat="42.9938" lon="-0.19367">
        <ele>1369.309</ele>
        <time>2013-10-23T12:54:22.429Z</time>
      </trkpt>
      <trkpt lat="42.99362" lon="-0.19358">
        <ele>1370.323</ele>
        <time>2013-10-23T12:54:25.915Z</time>
      </trkpt>
      <trkpt lat="42.99353" lon="-0.19354">
        <ele>1369.749</ele>
        <time>2013-10-23T12:54:27.588Z</time>
      </trkpt>
      <trkpt lat="42.99342" lon="-0.19346">
        <ele>1367.411</ele>
        <time>2013-10-23T12:54:29.933Z</time>
      </trkpt>
      <trkpt lat="42.99331" lon="-0.19336">
        <ele>1364.775</ele>
        <time>2013-10-23T12:54:32.436Z</time>
      </trkpt>
      <trkpt lat="42.99322" lon="-0.19324">
        <ele>1363.197</ele>
        <time>2013-10-23T12:54:34.979Z</time>
      </trkpt>
      <trkpt lat="42.99316" lon="-0.19309">
        <ele>1362.101</ele>
        <time>2013-10-23T12:54:37.681Z</time>
      </trkpt>
      <trkpt lat="42.99306" lon="-0.19303">
        <ele>1360.386</ele>
        <time>2013-10-23T12:54:40.167Z</time>
      </trkpt>
      <trkpt lat="42.99295" lon="-0.19303">
        <ele>1358.221</ele>
        <time>2013-10-23T12:54:42.728Z</time>
      </trkpt>
      <trkpt lat="42.99283" lon="-0.19311">
        <ele>1356.593</ele>
        <time>2013-10-23T12:54:46.101Z</time>
      </trkpt>
      <trkpt lat="42.99272" lon="-0.19323">
        <ele>1356.004</ele>
        <time>2013-10-23T12:54:49.585Z</time>
      </trkpt>
      <trkpt lat="42.99264" lon="-0.19334">
        <ele>1356.558</ele>
        <time>2013-10-23T12:54:52.033Z</time>
      </trkpt>
      <trkpt lat="42.99256" lon="-0.19347">
        <ele>1358.119</ele>
        <time>2013-10-23T12:54:54.406Z</time>
      </trkpt>
      <trkpt lat="42.99244" lon="-0.19364">
        <ele>1358.55</ele>
        <time>2013-10-23T12:54:57.340Z</time>
      </trkpt>
      <trkpt lat="42.99235" lon="-0.19378">
        <ele>1359.008</ele>
        <time>2013-10-23T12:54:59.512Z</time>
      </trkpt>
      <trkpt lat="42.99223" lon="-0.1939">
        <ele>1359.246</ele>
        <time>2013-10-23T12:55:01.554Z</time>
      </trkpt>
      <trkpt lat="42.99213" lon="-0.19402">
        <ele>1359.275</ele>
        <time>2013-10-23T12:55:03.636Z</time>
      </trkpt>
      <trkpt lat="42.992" lon="-0.19417">
        <ele>1359.144</ele>
        <time>2013-10-23T12:55:06.526Z</time>
      </trkpt>
      <trkpt lat="42.99189" lon="-0.19422">
        <ele>1357.899</ele>
        <time>2013-10-23T12:55:09.111Z</time>
      </trkpt>
      <trkpt lat="42.99179" lon="-0.19418">
        <ele>1352.219</ele>
        <time>2013-10-23T12:55:11.802Z</time>
      </trkpt>
      <trkpt lat="42.99179" lon="-0.19418">
        <ele>1350.857</ele>
        <time>2013-10-23T12:55:14.798Z</time>
      </trkpt>
      <trkpt lat="42.99179" lon="-0.19418">
        <ele>1350.552</ele>
        <time>2013-10-23T12:55:17.797Z</time>
      </trkpt>
      <trkpt lat="42.99179" lon="-0.19418">
        <ele>1350.401</ele>
        <time>2013-10-23T12:55:49.799Z</time>
      </trkpt>
      <trkpt lat="42.99179" lon="-0.19418">
        <ele>1349.919</ele>
        <time>2013-10-23T12:56:04.237Z</time>
      </trkpt>
      <trkpt lat="42.99189" lon="-0.19428">
        <ele>1348.912</ele>
        <time>2013-10-23T12:56:22.626Z</time>
      </trkpt>
      <trkpt lat="42.99199" lon="-0.19434">
        <ele>1348.764</ele>
        <time>2013-10-23T12:56:30.820Z</time>
      </trkpt>
      <trkpt lat="42.99199" lon="-0.19434">
        <ele>1348.54</ele>
        <time>2013-10-23T12:56:42.798Z</time>
      </trkpt>
      <trkpt lat="42.99199" lon="-0.19434">
        <ele>1347.995</ele>
        <time>2013-10-23T12:56:42.898Z</time>
      </trkpt>
      <trkpt lat="42.99191" lon="-0.19427">
        <ele>1347.036</ele>
        <time>2013-10-23T12:56:55.074Z</time>
      </trkpt>
      <trkpt lat="42.99178" lon="-0.19425">
        <ele>1347.261</ele>
        <time>2013-10-23T12:57:04.818Z</time>
      </trkpt>
      <trkpt lat="42.99178" lon="-0.19425">
        <ele>1348.185</ele>
        <time>2013-10-23T12:57:12.826Z</time>
      </trkpt>
      <trkpt lat="42.99178" lon="-0.19425">
        <ele>1349.168</ele>
        <time>2013-10-23T12:57:51.363Z</time>
      </trkpt>
      <trkpt lat="43.00247" lon="-0.18528">
        <ele>1293.45</ele>
        <time>2013-10-23T13:06:53.520Z</time>
      </trkpt>
      <trkpt lat="43.00244" lon="-0.18511">
        <ele>1292.853</ele>
        <time>2013-10-23T13:07:02.227Z</time>
      </trkpt>
      <trkpt lat="43.00244" lon="-0.18511">
        <ele>1292.418</ele>
        <time>2013-10-23T13:07:02.228Z</time>
      </trkpt>
      <trkpt lat="43.00244" lon="-0.18511">
        <ele>1291.867</ele>
        <time>2013-10-23T13:07:02.328Z</time>
      </trkpt>
      <trkpt lat="43.00249" lon="-0.18485">
        <ele>1291</ele>
        <time>2013-10-23T13:07:06.768Z</time>
      </trkpt>
      <trkpt lat="43.00252" lon="-0.18465">
        <ele>1290.288</ele>
        <time>2013-10-23T13:07:08.727Z</time>
      </trkpt>
      <trkpt lat="43.00251" lon="-0.18431">
        <ele>1288.447</ele>
        <time>2013-10-23T13:07:11.885Z</time>
      </trkpt>
      <trkpt lat="43.00245" lon="-0.18411">
        <ele>1285.994</ele>
        <time>2013-10-23T13:07:13.885Z</time>
      </trkpt>
      <trkpt lat="43.00238" lon="-0.18381">
        <ele>1284.054</ele>
        <time>2013-10-23T13:07:16.667Z</time>
      </trkpt>
      <trkpt lat="43.00239" lon="-0.18352">
        <ele>1282.906</ele>
        <time>2013-10-23T13:07:19.266Z</time>
      </trkpt>
      <trkpt lat="43.00245" lon="-0.18324">
        <ele>1281.958</ele>
        <time>2013-10-23T13:07:21.798Z</time>
      </trkpt>
      <trkpt lat="43.0025" lon="-0.18306">
        <ele>1280.284</ele>
        <time>2013-10-23T13:07:23.478Z</time>
      </trkpt>
      <trkpt lat="43.00255" lon="-0.18286">
        <ele>1277.916</ele>
        <time>2013-10-23T13:07:25.309Z</time>
      </trkpt>
      <trkpt lat="43.00264" lon="-0.18255">
        <ele>1275.387</ele>
        <time>2013-10-23T13:07:28.289Z</time>
      </trkpt>
      <trkpt lat="43.00279" lon="-0.18233">
        <ele>1272.716</ele>
        <time>2013-10-23T13:07:30.988Z</time>
      </trkpt>
      <trkpt lat="43.00329" lon="-0.18217">
        <ele>1269.035</ele>
        <time>2013-10-23T13:07:36.856Z</time>
      </trkpt>
      <trkpt lat="43.00348" lon="-0.18212">
        <ele>1267.643</ele>
        <time>2013-10-23T13:07:39.002Z</time>
      </trkpt>
      <trkpt lat="43.00365" lon="-0.18203">
        <ele>1264.483</ele>
        <time>2013-10-23T13:07:40.897Z</time>
      </trkpt>
      <trkpt lat="43.00378" lon="-0.18192">
        <ele>1260.561</ele>
        <time>2013-10-23T13:07:42.495Z</time>
      </trkpt>
      <trkpt lat="43.00397" lon="-0.18172">
        <ele>1257.993</ele>
        <time>2013-10-23T13:07:45.384Z</time>
      </trkpt>
      <trkpt lat="43.00408" lon="-0.18152">
        <ele>1257.07</ele>
        <time>2013-10-23T13:07:47.690Z</time>
      </trkpt>
      <trkpt lat="43.00417" lon="-0.18128">
        <ele>1256.314</ele>
        <time>2013-10-23T13:07:50.209Z</time>
      </trkpt>
      <trkpt lat="43.00422" lon="-0.18095">
        <ele>1254.39</ele>
        <time>2013-10-23T13:07:53.205Z</time>
      </trkpt>
      <trkpt lat="43.00422" lon="-0.1807">
        <ele>1251.627</ele>
        <time>2013-10-23T13:07:55.474Z</time>
      </trkpt>
      <trkpt lat="43.00409" lon="-0.18042">
        <ele>1249.247</ele>
        <time>2013-10-23T13:07:58.559Z</time>
      </trkpt>
      <trkpt lat="43.00405" lon="-0.1802">
        <ele>1248.494</ele>
        <time>2013-10-23T13:08:01.008Z</time>
      </trkpt>
      <trkpt lat="43.00414" lon="-0.18015">
        <ele>1249.661</ele>
        <time>2013-10-23T13:08:02.484Z</time>
      </trkpt>
      <trkpt lat="43.00435" lon="-0.18076">
        <ele>1251.133</ele>
        <time>2013-10-23T13:08:10.902Z</time>
      </trkpt>
      <trkpt lat="43.00439" lon="-0.18099">
        <ele>1250.002</ele>
        <time>2013-10-23T13:08:13.170Z</time>
      </trkpt>
      <trkpt lat="43.00441" lon="-0.18134">
        <ele>1247.513</ele>
        <time>2013-10-23T13:08:15.998Z</time>
      </trkpt>
      <trkpt lat="43.00444" lon="-0.1816">
        <ele>1243.449</ele>
        <time>2013-10-23T13:08:18.116Z</time>
      </trkpt>
      <trkpt lat="43.00444" lon="-0.18182">
        <ele>1239.634</ele>
        <time>2013-10-23T13:08:19.865Z</time>
      </trkpt>
      <trkpt lat="43.0044" lon="-0.18197">
        <ele>1237.827</ele>
        <time>2013-10-23T13:08:21.375Z</time>
      </trkpt>
      <trkpt lat="43.0044" lon="-0.18213">
        <ele>1238.052</ele>
        <time>2013-10-23T13:08:23.374Z</time>
      </trkpt>
      <trkpt lat="43.00451" lon="-0.18213">
        <ele>1239.637</ele>
        <time>2013-10-23T13:08:25.838Z</time>
      </trkpt>
      <trkpt lat="43.00459" lon="-0.18197">
        <ele>1240.85</ele>
        <time>2013-10-23T13:08:29.933Z</time>
      </trkpt>
      <trkpt lat="43.00465" lon="-0.18175">
        <ele>1240.274</ele>
        <time>2013-10-23T13:08:33.099Z</time>
      </trkpt>
      <trkpt lat="43.0047" lon="-0.18141">
        <ele>1238.012</ele>
        <time>2013-10-23T13:08:36.444Z</time>
      </trkpt>
      <trkpt lat="43.00471" lon="-0.18106">
        <ele>1235.024</ele>
        <time>2013-10-23T13:08:39.443Z</time>
      </trkpt>
      <trkpt lat="43.00474" lon="-0.18071">
        <ele>1232.063</ele>
        <time>2013-10-23T13:08:42.259Z</time>
      </trkpt>
      <trkpt lat="43.00477" lon="-0.18047">
        <ele>1229.46</ele>
        <time>2013-10-23T13:08:44.221Z</time>
      </trkpt>
      <trkpt lat="43.0048" lon="-0.18013">
        <ele>1227.617</ele>
        <time>2013-10-23T13:08:46.838Z</time>
      </trkpt>
      <trkpt lat="43.00483" lon="-0.17991">
        <ele>1226.76</ele>
        <time>2013-10-23T13:08:48.557Z</time>
      </trkpt>
      <trkpt lat="43.00486" lon="-0.17968">
        <ele>1226.323</ele>
        <time>2013-10-23T13:08:50.456Z</time>
      </trkpt>
      <trkpt lat="43.00485" lon="-0.17944">
        <ele>1225.804</ele>
        <time>2013-10-23T13:08:52.565Z</time>
      </trkpt>
      <trkpt lat="43.00478" lon="-0.1792">
        <ele>1223.543</ele>
        <time>2013-10-23T13:08:54.990Z</time>
      </trkpt>
      <trkpt lat="43.00474" lon="-0.17898">
        <ele>1218.497</ele>
        <time>2013-10-23T13:08:57.049Z</time>
      </trkpt>
      <trkpt lat="43.00473" lon="-0.17866">
        <ele>1213.171</ele>
        <time>2013-10-23T13:08:59.996Z</time>
      </trkpt>
      <trkpt lat="43.00474" lon="-0.17843">
        <ele>1210.406</ele>
        <time>2013-10-23T13:09:01.967Z</time>
      </trkpt>
      <trkpt lat="43.00473" lon="-0.17823">
        <ele>1209.923</ele>
        <time>2013-10-23T13:09:03.807Z</time>
      </trkpt>
      <trkpt lat="43.00471" lon="-0.178">
        <ele>1210.162</ele>
        <time>2013-10-23T13:09:06.012Z</time>
      </trkpt>
      <trkpt lat="43.00477" lon="-0.17768">
        <ele>1209.672</ele>
        <time>2013-10-23T13:09:08.910Z</time>
      </trkpt>
      <trkpt lat="43.00484" lon="-0.17746">
        <ele>1207.97</ele>
        <time>2013-10-23T13:09:10.895Z</time>
      </trkpt>
      <trkpt lat="43.00494" lon="-0.17714">
        <ele>1205.092</ele>
        <time>2013-10-23T13:09:13.604Z</time>
      </trkpt>
      <trkpt lat="43.00507" lon="-0.17692">
        <ele>1200.979</ele>
        <time>2013-10-23T13:09:15.966Z</time>
      </trkpt>
      <trkpt lat="43.00523" lon="-0.17673">
        <ele>1196.629</ele>
        <time>2013-10-23T13:09:18.473Z</time>
      </trkpt>
      <trkpt lat="43.00541" lon="-0.17654">
        <ele>1193.718</ele>
        <time>2013-10-23T13:09:21.037Z</time>
      </trkpt>
      <trkpt lat="43.00553" lon="-0.1764">
        <ele>1191.728</ele>
        <time>2013-10-23T13:09:22.676Z</time>
      </trkpt>
      <trkpt lat="43.00572" lon="-0.17608">
        <ele>1188.97</ele>
        <time>2013-10-23T13:09:25.921Z</time>
      </trkpt>
      <trkpt lat="43.00588" lon="-0.17576">
        <ele>1185.753</ele>
        <time>2013-10-23T13:09:28.980Z</time>
      </trkpt>
      <trkpt lat="43.00597" lon="-0.17546">
        <ele>1182.758</ele>
        <time>2013-10-23T13:09:31.634Z</time>
      </trkpt>
      <trkpt lat="43.00602" lon="-0.17523">
        <ele>1179.891</ele>
        <time>2013-10-23T13:09:33.627Z</time>
      </trkpt>
      <trkpt lat="43.00612" lon="-0.17484">
        <ele>1177.845</ele>
        <time>2013-10-23T13:09:37.030Z</time>
      </trkpt>
      <trkpt lat="43.00618" lon="-0.17456">
        <ele>1177.177</ele>
        <time>2013-10-23T13:09:39.365Z</time>
      </trkpt>
      <trkpt lat="43.0063" lon="-0.17415">
        <ele>1177.139</ele>
        <time>2013-10-23T13:09:42.759Z</time>
      </trkpt>
      <trkpt lat="43.00637" lon="-0.17389">
        <ele>1176.292</ele>
        <time>2013-10-23T13:09:44.769Z</time>
      </trkpt>
      <trkpt lat="43.00647" lon="-0.17352">
        <ele>1173.366</ele>
        <time>2013-10-23T13:09:47.809Z</time>
      </trkpt>
      <trkpt lat="43.00655" lon="-0.17315">
        <ele>1168.88</ele>
        <time>2013-10-23T13:09:50.749Z</time>
      </trkpt>
      <trkpt lat="43.00655" lon="-0.17294">
        <ele>1164.894</ele>
        <time>2013-10-23T13:09:52.399Z</time>
      </trkpt>
      <trkpt lat="43.0065" lon="-0.17274">
        <ele>1161.594</ele>
        <time>2013-10-23T13:09:54.320Z</time>
      </trkpt>
      <trkpt lat="43.00633" lon="-0.17242">
        <ele>1157.638</ele>
        <time>2013-10-23T13:09:58.415Z</time>
      </trkpt>
      <trkpt lat="43.00614" lon="-0.17215">
        <ele>1153.439</ele>
        <time>2013-10-23T13:10:01.981Z</time>
      </trkpt>
      <trkpt lat="43.00603" lon="-0.17197">
        <ele>1149.705</ele>
        <time>2013-10-23T13:10:03.970Z</time>
      </trkpt>
      <trkpt lat="43.006" lon="-0.17165">
        <ele>1146.304</ele>
        <time>2013-10-23T13:10:06.733Z</time>
      </trkpt>
      <trkpt lat="43.00604" lon="-0.17127">
        <ele>1143.789</ele>
        <time>2013-10-23T13:10:09.815Z</time>
      </trkpt>
      <trkpt lat="43.00612" lon="-0.17083">
        <ele>1142.297</ele>
        <time>2013-10-23T13:10:12.936Z</time>
      </trkpt>
      <trkpt lat="43.00618" lon="-0.17053">
        <ele>1140.979</ele>
        <time>2013-10-23T13:10:14.870Z</time>
      </trkpt>
      <trkpt lat="43.00623" lon="-0.17026">
        <ele>1139.532</ele>
        <time>2013-10-23T13:10:16.600Z</time>
      </trkpt>
      <trkpt lat="43.00632" lon="-0.16982">
        <ele>1138.36</ele>
        <time>2013-10-23T13:10:19.342Z</time>
      </trkpt>
      <trkpt lat="43.00641" lon="-0.16947">
        <ele>1137.814</ele>
        <time>2013-10-23T13:10:21.615Z</time>
      </trkpt>
      <trkpt lat="43.00656" lon="-0.16919">
        <ele>1137.927</ele>
        <time>2013-10-23T13:10:23.927Z</time>
      </trkpt>
      <trkpt lat="43.00668" lon="-0.16916">
        <ele>1138.509</ele>
        <time>2013-10-23T13:10:25.256Z</time>
      </trkpt>
      <trkpt lat="43.00678" lon="-0.16908">
        <ele>1138.921</ele>
        <time>2013-10-23T13:10:26.521Z</time>
      </trkpt>
      <trkpt lat="43.00686" lon="-0.16888">
        <ele>1137.375</ele>
        <time>2013-10-23T13:10:28.586Z</time>
      </trkpt>
      <trkpt lat="43.00691" lon="-0.16865">
        <ele>1133.096</ele>
        <time>2013-10-23T13:10:31.095Z</time>
      </trkpt>
      <trkpt lat="43.00697" lon="-0.16836">
        <ele>1127.691</ele>
        <time>2013-10-23T13:10:34.558Z</time>
      </trkpt>
      <trkpt lat="43.00704" lon="-0.16794">
        <ele>1122.781</ele>
        <time>2013-10-23T13:10:38.592Z</time>
      </trkpt>
      <trkpt lat="43.00708" lon="-0.16768">
        <ele>1118.948</ele>
        <time>2013-10-23T13:10:40.780Z</time>
      </trkpt>
      <trkpt lat="43.00712" lon="-0.1674">
        <ele>1115.886</ele>
        <time>2013-10-23T13:10:42.850Z</time>
      </trkpt>
      <trkpt lat="43.00709" lon="-0.16712">
        <ele>1111.925</ele>
        <time>2013-10-23T13:10:44.868Z</time>
      </trkpt>
      <trkpt lat="43.00697" lon="-0.16679">
        <ele>1106.82</ele>
        <time>2013-10-23T13:10:47.631Z</time>
      </trkpt>
      <trkpt lat="43.00674" lon="-0.16647">
        <ele>1102.539</ele>
        <time>2013-10-23T13:10:51.474Z</time>
      </trkpt>
      <trkpt lat="43.00662" lon="-0.16626">
        <ele>1099.364</ele>
        <time>2013-10-23T13:10:53.887Z</time>
      </trkpt>
      <trkpt lat="43.00653" lon="-0.16592">
        <ele>1093.776</ele>
        <time>2013-10-23T13:10:56.864Z</time>
      </trkpt>
      <trkpt lat="43.00654" lon="-0.16556">
        <ele>1093.551</ele>
        <time>2013-10-23T13:10:59.669Z</time>
      </trkpt>
      <trkpt lat="43.00657" lon="-0.1652">
        <ele>1094.788</ele>
        <time>2013-10-23T13:11:02.473Z</time>
      </trkpt>
      <trkpt lat="43.00655" lon="-0.16485">
        <ele>1095.514</ele>
        <time>2013-10-23T13:11:05.289Z</time>
      </trkpt>
      <trkpt lat="43.00658" lon="-0.16469">
        <ele>1094.758</ele>
        <time>2013-10-23T13:11:06.855Z</time>
      </trkpt>
      <trkpt lat="43.00668" lon="-0.16465">
        <ele>1093.95</ele>
        <time>2013-10-23T13:11:08.133Z</time>
      </trkpt>
      <trkpt lat="43.00686" lon="-0.16442">
        <ele>1092.473</ele>
        <time>2013-10-23T13:11:11.825Z</time>
      </trkpt>
      <trkpt lat="43.00699" lon="-0.16403">
        <ele>1090.397</ele>
        <time>2013-10-23T13:11:16.411Z</time>
      </trkpt>
      <trkpt lat="43.00705" lon="-0.16365">
        <ele>1087.95</ele>
        <time>2013-10-23T13:11:19.610Z</time>
      </trkpt>
      <trkpt lat="43.00704" lon="-0.16323">
        <ele>1085.794</ele>
        <time>2013-10-23T13:11:22.727Z</time>
      </trkpt>
      <trkpt lat="43.00702" lon="-0.16292">
        <ele>1084.364</ele>
        <time>2013-10-23T13:11:24.957Z</time>
      </trkpt>
      <trkpt lat="43.00699" lon="-0.16244">
        <ele>1084.066</ele>
        <time>2013-10-23T13:11:28.278Z</time>
      </trkpt>
      <trkpt lat="43.00688" lon="-0.16199">
        <ele>1082.258</ele>
        <time>2013-10-23T13:11:31.414Z</time>
      </trkpt>
      <trkpt lat="43.00681" lon="-0.16166">
        <ele>1077.469</ele>
        <time>2013-10-23T13:11:33.654Z</time>
      </trkpt>
      <trkpt lat="43.00676" lon="-0.16137">
        <ele>1066.038</ele>
        <time>2013-10-23T13:11:35.557Z</time>
      </trkpt>
      <trkpt lat="43.00667" lon="-0.16089">
        <ele>1063.087</ele>
        <time>2013-10-23T13:11:38.611Z</time>
      </trkpt>
      <trkpt lat="43.00659" lon="-0.16056">
        <ele>1060.772</ele>
        <time>2013-10-23T13:11:40.744Z</time>
      </trkpt>
      <trkpt lat="43.00651" lon="-0.16024">
        <ele>1057.647</ele>
        <time>2013-10-23T13:11:42.760Z</time>
      </trkpt>
      <trkpt lat="43.0064" lon="-0.15982">
        <ele>1053.605</ele>
        <time>2013-10-23T13:11:45.457Z</time>
      </trkpt>
      <trkpt lat="43.00637" lon="-0.15944">
        <ele>1048.98</ele>
        <time>2013-10-23T13:11:47.848Z</time>
      </trkpt>
      <trkpt lat="43.00635" lon="-0.15918">
        <ele>1044.147</ele>
        <time>2013-10-23T13:11:49.553Z</time>
      </trkpt>
      <trkpt lat="43.0064" lon="-0.15882">
        <ele>1040.448</ele>
        <time>2013-10-23T13:11:52.039Z</time>
      </trkpt>
      <trkpt lat="43.00654" lon="-0.15854">
        <ele>1038.153</ele>
        <time>2013-10-23T13:11:54.426Z</time>
      </trkpt>
      <trkpt lat="43.00664" lon="-0.15841">
        <ele>1036.415</ele>
        <time>2013-10-23T13:11:55.808Z</time>
      </trkpt>
      <trkpt lat="43.0068" lon="-0.15818">
        <ele>1035.045</ele>
        <time>2013-10-23T13:11:58.340Z</time>
      </trkpt>
      <trkpt lat="43.0069" lon="-0.158">
        <ele>1034.116</ele>
        <time>2013-10-23T13:12:00.209Z</time>
      </trkpt>
      <trkpt lat="43.00704" lon="-0.15779">
        <ele>1033.468</ele>
        <time>2013-10-23T13:12:02.750Z</time>
      </trkpt>
      <trkpt lat="43.00713" lon="-0.15766">
        <ele>1033.04</ele>
        <time>2013-10-23T13:12:04.415Z</time>
      </trkpt>
      <trkpt lat="43.00726" lon="-0.15751">
        <ele>1032.128</ele>
        <time>2013-10-23T13:12:06.602Z</time>
      </trkpt>
      <trkpt lat="43.00745" lon="-0.15727">
        <ele>1030.286</ele>
        <time>2013-10-23T13:12:10.241Z</time>
      </trkpt>
      <trkpt lat="43.00767" lon="-0.15694">
        <ele>1028.39</ele>
        <time>2013-10-23T13:12:14.375Z</time>
      </trkpt>
      <trkpt lat="43.00781" lon="-0.15668">
        <ele>1027.387</ele>
        <time>2013-10-23T13:12:17.002Z</time>
      </trkpt>
      <trkpt lat="43.00801" lon="-0.15627">
        <ele>1026.939</ele>
        <time>2013-10-23T13:12:20.505Z</time>
      </trkpt>
      <trkpt lat="43.00815" lon="-0.15597">
        <ele>1026.411</ele>
        <time>2013-10-23T13:12:22.923Z</time>
      </trkpt>
      <trkpt lat="43.00825" lon="-0.15571">
        <ele>1025.668</ele>
        <time>2013-10-23T13:12:25.149Z</time>
      </trkpt>
      <trkpt lat="43.0083" lon="-0.15555">
        <ele>1023.631</ele>
        <time>2013-10-23T13:12:26.490Z</time>
      </trkpt>
      <trkpt lat="43.00836" lon="-0.1554">
        <ele>1019.763</ele>
        <time>2013-10-23T13:12:28.021Z</time>
      </trkpt>
      <trkpt lat="43.00841" lon="-0.15561">
        <ele>1016.146</ele>
        <time>2013-10-23T13:12:30.122Z</time>
      </trkpt>
      <trkpt lat="43.00852" lon="-0.15594">
        <ele>1014.484</ele>
        <time>2013-10-23T13:12:34.730Z</time>
      </trkpt>
      <trkpt lat="43.0086" lon="-0.15616">
        <ele>1014.152</ele>
        <time>2013-10-23T13:12:37.682Z</time>
      </trkpt>
      <trkpt lat="43.0087" lon="-0.15638">
        <ele>1014.207</ele>
        <time>2013-10-23T13:12:40.234Z</time>
      </trkpt>
      <trkpt lat="43.00888" lon="-0.15672">
        <ele>1013.17</ele>
        <time>2013-10-23T13:12:43.597Z</time>
      </trkpt>
      <trkpt lat="43.009" lon="-0.15697">
        <ele>1010.426</ele>
        <time>2013-10-23T13:12:45.783Z</time>
      </trkpt>
      <trkpt lat="43.00917" lon="-0.15734">
        <ele>1007.646</ele>
        <time>2013-10-23T13:12:48.801Z</time>
      </trkpt>
      <trkpt lat="43.00927" lon="-0.15758">
        <ele>1005.332</ele>
        <time>2013-10-23T13:12:50.629Z</time>
      </trkpt>
      <trkpt lat="43.00939" lon="-0.15796">
        <ele>1002.44</ele>
        <time>2013-10-23T13:12:53.344Z</time>
      </trkpt>
      <trkpt lat="43.00948" lon="-0.1582">
        <ele>999.584</ele>
        <time>2013-10-23T13:12:55.103Z</time>
      </trkpt>
      <trkpt lat="43.00958" lon="-0.15843">
        <ele>997.615</ele>
        <time>2013-10-23T13:12:56.915Z</time>
      </trkpt>
      <trkpt lat="43.00973" lon="-0.15873">
        <ele>995.76</ele>
        <time>2013-10-23T13:12:59.431Z</time>
      </trkpt>
      <trkpt lat="43.00979" lon="-0.15889">
        <ele>993.248</ele>
        <time>2013-10-23T13:13:00.673Z</time>
      </trkpt>
      <trkpt lat="43.00983" lon="-0.15907">
        <ele>990.109</ele>
        <time>2013-10-23T13:13:01.989Z</time>
      </trkpt>
      <trkpt lat="43.00993" lon="-0.15934">
        <ele>987.097</ele>
        <time>2013-10-23T13:13:04.146Z</time>
      </trkpt>
      <trkpt lat="43.00998" lon="-0.15948">
        <ele>985.122</ele>
        <time>2013-10-23T13:13:05.349Z</time>
      </trkpt>
      <trkpt lat="43.01007" lon="-0.15956">
        <ele>983.98</ele>
        <time>2013-10-23T13:13:06.622Z</time>
      </trkpt>
      <trkpt lat="43.01015" lon="-0.15949">
        <ele>982.189</ele>
        <time>2013-10-23T13:13:07.908Z</time>
      </trkpt>
      <trkpt lat="43.01022" lon="-0.15937">
        <ele>979.538</ele>
        <time>2013-10-23T13:13:09.591Z</time>
      </trkpt>
      <trkpt lat="43.01029" lon="-0.15926">
        <ele>976.798</ele>
        <time>2013-10-23T13:13:11.242Z</time>
      </trkpt>
      <trkpt lat="43.01031" lon="-0.15914">
        <ele>974.328</ele>
        <time>2013-10-23T13:13:12.806Z</time>
      </trkpt>
      <trkpt lat="43.01031" lon="-0.15899">
        <ele>972.967</ele>
        <time>2013-10-23T13:13:14.951Z</time>
      </trkpt>
      <trkpt lat="43.01031" lon="-0.15877">
        <ele>973.283</ele>
        <time>2013-10-23T13:13:19.153Z</time>
      </trkpt>
      <trkpt lat="43.01031" lon="-0.15861">
        <ele>974.136</ele>
        <time>2013-10-23T13:13:24.045Z</time>
      </trkpt>
      <trkpt lat="43.0103" lon="-0.15835">
        <ele>974.472</ele>
        <time>2013-10-23T13:13:33.329Z</time>
      </trkpt>
      <trkpt lat="43.01031" lon="-0.15819">
        <ele>974.393</ele>
        <time>2013-10-23T13:13:37.593Z</time>
      </trkpt>
      <trkpt lat="43.01034" lon="-0.15797">
        <ele>974.312</ele>
        <time>2013-10-23T13:13:41.729Z</time>
      </trkpt>
      <trkpt lat="43.01038" lon="-0.15776">
        <ele>974.32</ele>
        <time>2013-10-23T13:13:44.963Z</time>
      </trkpt>
      <trkpt lat="43.01038" lon="-0.15762">
        <ele>973.967</ele>
        <time>2013-10-23T13:13:46.802Z</time>
      </trkpt>
      <trkpt lat="43.01037" lon="-0.15739">
        <ele>973.001</ele>
        <time>2013-10-23T13:13:49.774Z</time>
      </trkpt>
      <trkpt lat="43.01037" lon="-0.15712">
        <ele>972.181</ele>
        <time>2013-10-23T13:13:53.361Z</time>
      </trkpt>
      <trkpt lat="43.01034" lon="-0.15689">
        <ele>973.126</ele>
        <time>2013-10-23T13:13:56.258Z</time>
      </trkpt>
      <trkpt lat="43.01032" lon="-0.1567">
        <ele>976.825</ele>
        <time>2013-10-23T13:13:58.853Z</time>
      </trkpt>
      <trkpt lat="43.01029" lon="-0.1564">
        <ele>981.903</ele>
        <time>2013-10-23T13:14:02.629Z</time>
      </trkpt>
      <trkpt lat="43.01028" lon="-0.15606">
        <ele>986.098</ele>
        <time>2013-10-23T13:14:06.305Z</time>
      </trkpt>
      <trkpt lat="43.01026" lon="-0.15583">
        <ele>984.075</ele>
        <time>2013-10-23T13:14:08.694Z</time>
      </trkpt>
      <trkpt lat="43.01023" lon="-0.15564">
        <ele>981.395</ele>
        <time>2013-10-23T13:14:10.666Z</time>
      </trkpt>
      <trkpt lat="43.01021" lon="-0.15541">
        <ele>979.32</ele>
        <time>2013-10-23T13:14:12.796Z</time>
      </trkpt>
      <trkpt lat="43.01019" lon="-0.15511">
        <ele>978.111</ele>
        <time>2013-10-23T13:14:15.549Z</time>
      </trkpt>
      <trkpt lat="43.01016" lon="-0.15482">
        <ele>977.227</ele>
        <time>2013-10-23T13:14:18.407Z</time>
      </trkpt>
      <trkpt lat="43.01013" lon="-0.15461">
        <ele>975.564</ele>
        <time>2013-10-23T13:14:20.525Z</time>
      </trkpt>
      <trkpt lat="43.01014" lon="-0.15428">
        <ele>972.702</ele>
        <time>2013-10-23T13:14:23.679Z</time>
      </trkpt>
      <trkpt lat="43.01016" lon="-0.15405">
        <ele>971.881</ele>
        <time>2013-10-23T13:14:25.915Z</time>
      </trkpt>
      <trkpt lat="43.01017" lon="-0.15389">
        <ele>970.708</ele>
        <time>2013-10-23T13:14:27.452Z</time>
      </trkpt>
      <trkpt lat="43.01014" lon="-0.15367">
        <ele>969.743</ele>
        <time>2013-10-23T13:14:29.509Z</time>
      </trkpt>
      <trkpt lat="43.01011" lon="-0.15347">
        <ele>967.882</ele>
        <time>2013-10-23T13:14:31.660Z</time>
      </trkpt>
      <trkpt lat="43.01011" lon="-0.15333">
        <ele>965.226</ele>
        <time>2013-10-23T13:14:33.244Z</time>
      </trkpt>
      <trkpt lat="43.01012" lon="-0.15309">
        <ele>962.001</ele>
        <time>2013-10-23T13:14:37.079Z</time>
      </trkpt>
      <trkpt lat="43.01017" lon="-0.15288">
        <ele>959.614</ele>
        <time>2013-10-23T13:14:40.938Z</time>
      </trkpt>
      <trkpt lat="43.01021" lon="-0.15262">
        <ele>958.454</ele>
        <time>2013-10-23T13:14:44.837Z</time>
      </trkpt>
      <trkpt lat="43.01026" lon="-0.15247">
        <ele>957.899</ele>
        <time>2013-10-23T13:14:47.024Z</time>
      </trkpt>
      <trkpt lat="43.01029" lon="-0.15225">
        <ele>957.118</ele>
        <time>2013-10-23T13:14:49.697Z</time>
      </trkpt>
      <trkpt lat="43.01034" lon="-0.15213">
        <ele>955.652</ele>
        <time>2013-10-23T13:14:51.240Z</time>
      </trkpt>
      <trkpt lat="43.01044" lon="-0.15195">
        <ele>955.231</ele>
        <time>2013-10-23T13:14:53.929Z</time>
      </trkpt>
      <trkpt lat="43.0105" lon="-0.1518">
        <ele>954.578</ele>
        <time>2013-10-23T13:14:56.064Z</time>
      </trkpt>
      <trkpt lat="43.01061" lon="-0.15151">
        <ele>954.156</ele>
        <time>2013-10-23T13:15:00.326Z</time>
      </trkpt>
      <trkpt lat="43.0107" lon="-0.15128">
        <ele>954.56</ele>
        <time>2013-10-23T13:15:03.414Z</time>
      </trkpt>
      <trkpt lat="43.01082" lon="-0.15097">
        <ele>955.452</ele>
        <time>2013-10-23T13:15:06.974Z</time>
      </trkpt>
      <trkpt lat="43.01088" lon="-0.15081">
        <ele>956.18</ele>
        <time>2013-10-23T13:15:08.635Z</time>
      </trkpt>
      <trkpt lat="43.01094" lon="-0.15065">
        <ele>956.696</ele>
        <time>2013-10-23T13:15:10.143Z</time>
      </trkpt>
      <trkpt lat="43.01101" lon="-0.15047">
        <ele>957.197</ele>
        <time>2013-10-23T13:15:11.919Z</time>
      </trkpt>
      <trkpt lat="43.01105" lon="-0.15035">
        <ele>957.581</ele>
        <time>2013-10-23T13:15:13.032Z</time>
      </trkpt>
      <trkpt lat="43.01114" lon="-0.15018">
        <ele>958.146</ele>
        <time>2013-10-23T13:15:15.004Z</time>
      </trkpt>
      <trkpt lat="43.01118" lon="-0.15003">
        <ele>959.241</ele>
        <time>2013-10-23T13:15:17.049Z</time>
      </trkpt>
      <trkpt lat="43.01122" lon="-0.14984">
        <ele>960.529</ele>
        <time>2013-10-23T13:15:20.061Z</time>
      </trkpt>
      <trkpt lat="43.01124" lon="-0.14971">
        <ele>961.34</ele>
        <time>2013-10-23T13:15:22.637Z</time>
      </trkpt>
      <trkpt lat="43.01127" lon="-0.14954">
        <ele>961.365</ele>
        <time>2013-10-23T13:15:25.818Z</time>
      </trkpt>
      <trkpt lat="43.01133" lon="-0.14941">
        <ele>960.925</ele>
        <time>2013-10-23T13:15:28.578Z</time>
      </trkpt>
      <trkpt lat="43.01137" lon="-0.14928">
        <ele>961.28</ele>
        <time>2013-10-23T13:15:31.129Z</time>
      </trkpt>
      <trkpt lat="43.01141" lon="-0.14915">
        <ele>963.126</ele>
        <time>2013-10-23T13:15:33.474Z</time>
      </trkpt>
      <trkpt lat="43.01146" lon="-0.14904">
        <ele>965.427</ele>
        <time>2013-10-23T13:15:35.731Z</time>
      </trkpt>
      <trkpt lat="43.01151" lon="-0.14888">
        <ele>966.813</ele>
        <time>2013-10-23T13:15:39.210Z</time>
      </trkpt>
      <trkpt lat="43.01154" lon="-0.14875">
        <ele>966.879</ele>
        <time>2013-10-23T13:15:42.210Z</time>
      </trkpt>
      <trkpt lat="43.0116" lon="-0.14856">
        <ele>965.846</ele>
        <time>2013-10-23T13:15:46.745Z</time>
      </trkpt>
      <trkpt lat="43.01164" lon="-0.14839">
        <ele>964.441</ele>
        <time>2013-10-23T13:15:50.458Z</time>
      </trkpt>
      <trkpt lat="43.01167" lon="-0.14819">
        <ele>962.799</ele>
        <time>2013-10-23T13:15:54.071Z</time>
      </trkpt>
      <trkpt lat="43.01169" lon="-0.14804">
        <ele>962.699</ele>
        <time>2013-10-23T13:15:56.351Z</time>
      </trkpt>
      <trkpt lat="43.01173" lon="-0.14775">
        <ele>962.79</ele>
        <time>2013-10-23T13:16:00.698Z</time>
      </trkpt>
      <trkpt lat="43.01177" lon="-0.14748">
        <ele>963.084</ele>
        <time>2013-10-23T13:16:04.651Z</time>
      </trkpt>
      <trkpt lat="43.01181" lon="-0.14723">
        <ele>963.699</ele>
        <time>2013-10-23T13:16:07.820Z</time>
      </trkpt>
      <trkpt lat="43.01184" lon="-0.14696">
        <ele>965.218</ele>
        <time>2013-10-23T13:16:11.064Z</time>
      </trkpt>
      <trkpt lat="43.01183" lon="-0.1468">
        <ele>966.414</ele>
        <time>2013-10-23T13:16:13.053Z</time>
      </trkpt>
      <trkpt lat="43.01183" lon="-0.14667">
        <ele>967.239</ele>
        <time>2013-10-23T13:16:14.751Z</time>
      </trkpt>
      <trkpt lat="43.01184" lon="-0.14652">
        <ele>967.738</ele>
        <time>2013-10-23T13:16:16.745Z</time>
      </trkpt>
      <trkpt lat="43.01187" lon="-0.14637">
        <ele>968.519</ele>
        <time>2013-10-23T13:16:18.670Z</time>
      </trkpt>
      <trkpt lat="43.01187" lon="-0.14621">
        <ele>969.734</ele>
        <time>2013-10-23T13:16:21.221Z</time>
      </trkpt>
      <trkpt lat="43.01191" lon="-0.14605">
        <ele>970.917</ele>
        <time>2013-10-23T13:16:24.538Z</time>
      </trkpt>
      <trkpt lat="43.01197" lon="-0.14589">
        <ele>969.068</ele>
        <time>2013-10-23T13:16:28.751Z</time>
      </trkpt>
      <trkpt lat="43.01203" lon="-0.14573">
        <ele>964.991</ele>
        <time>2013-10-23T13:16:32.448Z</time>
      </trkpt>
      <trkpt lat="43.01211" lon="-0.14548">
        <ele>961.517</ele>
        <time>2013-10-23T13:16:37.227Z</time>
      </trkpt>
      <trkpt lat="43.01213" lon="-0.14527">
        <ele>959.871</ele>
        <time>2013-10-23T13:16:39.916Z</time>
      </trkpt>
      <trkpt lat="43.01215" lon="-0.14505">
        <ele>959.262</ele>
        <time>2013-10-23T13:16:42.487Z</time>
      </trkpt>
      <trkpt lat="43.01218" lon="-0.14485">
        <ele>959.191</ele>
        <time>2013-10-23T13:16:44.639Z</time>
      </trkpt>
      <trkpt lat="43.01222" lon="-0.14465">
        <ele>959.159</ele>
        <time>2013-10-23T13:16:46.653Z</time>
      </trkpt>
      <trkpt lat="43.01225" lon="-0.14445">
        <ele>958.756</ele>
        <time>2013-10-23T13:16:48.547Z</time>
      </trkpt>
      <trkpt lat="43.01232" lon="-0.14419">
        <ele>958.093</ele>
        <time>2013-10-23T13:16:51.210Z</time>
      </trkpt>
      <trkpt lat="43.01239" lon="-0.14387">
        <ele>957.035</ele>
        <time>2013-10-23T13:16:54.337Z</time>
      </trkpt>
      <trkpt lat="43.01242" lon="-0.14365">
        <ele>956.289</ele>
        <time>2013-10-23T13:16:56.346Z</time>
      </trkpt>
      <trkpt lat="43.01242" lon="-0.14336">
        <ele>956.324</ele>
        <time>2013-10-23T13:16:59.054Z</time>
      </trkpt>
      <trkpt lat="43.01238" lon="-0.14316">
        <ele>956.372</ele>
        <time>2013-10-23T13:17:01.173Z</time>
      </trkpt>
      <trkpt lat="43.01234" lon="-0.14296">
        <ele>955.75</ele>
        <time>2013-10-23T13:17:03.349Z</time>
      </trkpt>
      <trkpt lat="43.01233" lon="-0.14267">
        <ele>954.82</ele>
        <time>2013-10-23T13:17:06.438Z</time>
      </trkpt>
      <trkpt lat="43.01239" lon="-0.14247">
        <ele>954.077</ele>
        <time>2013-10-23T13:17:08.600Z</time>
      </trkpt>
      <trkpt lat="43.01244" lon="-0.14226">
        <ele>953.612</ele>
        <time>2013-10-23T13:17:10.609Z</time>
      </trkpt>
      <trkpt lat="43.01249" lon="-0.14197">
        <ele>953.536</ele>
        <time>2013-10-23T13:17:13.201Z</time>
      </trkpt>
      <trkpt lat="43.01251" lon="-0.14161">
        <ele>953.794</ele>
        <time>2013-10-23T13:17:16.512Z</time>
      </trkpt>
      <trkpt lat="43.01247" lon="-0.14129">
        <ele>953.825</ele>
        <time>2013-10-23T13:17:19.551Z</time>
      </trkpt>
      <trkpt lat="43.01239" lon="-0.14115">
        <ele>953.245</ele>
        <time>2013-10-23T13:17:21.355Z</time>
      </trkpt>
      <trkpt lat="43.0123" lon="-0.14102">
        <ele>952.515</ele>
        <time>2013-10-23T13:17:23.293Z</time>
      </trkpt>
      <trkpt lat="43.01219" lon="-0.14089">
        <ele>951.208</ele>
        <time>2013-10-23T13:17:25.739Z</time>
      </trkpt>
      <trkpt lat="43.01212" lon="-0.14075">
        <ele>950.233</ele>
        <time>2013-10-23T13:17:28.244Z</time>
      </trkpt>
      <trkpt lat="43.01205" lon="-0.14061">
        <ele>950.287</ele>
        <time>2013-10-23T13:17:30.933Z</time>
      </trkpt>
      <trkpt lat="43.01201" lon="-0.1405">
        <ele>952.726</ele>
        <time>2013-10-23T13:17:33.145Z</time>
      </trkpt>
      <trkpt lat="43.01193" lon="-0.14038">
        <ele>955.194</ele>
        <time>2013-10-23T13:17:36.084Z</time>
      </trkpt>
      <trkpt lat="43.01189" lon="-0.14028">
        <ele>958.917</ele>
        <time>2013-10-23T13:17:38.986Z</time>
      </trkpt>
      <trkpt lat="43.01175" lon="-0.14012">
        <ele>961.799</ele>
        <time>2013-10-23T13:17:44.229Z</time>
      </trkpt>
      <trkpt lat="43.01158" lon="-0.14">
        <ele>961.955</ele>
        <time>2013-10-23T13:17:48.123Z</time>
      </trkpt>
      <trkpt lat="43.01141" lon="-0.13992">
        <ele>959.959</ele>
        <time>2013-10-23T13:17:51.713Z</time>
      </trkpt>
      <trkpt lat="43.01131" lon="-0.13987">
        <ele>957.678</ele>
        <time>2013-10-23T13:17:53.871Z</time>
      </trkpt>
      <trkpt lat="43.01122" lon="-0.13979">
        <ele>956.408</ele>
        <time>2013-10-23T13:17:56.397Z</time>
      </trkpt>
      <trkpt lat="43.01113" lon="-0.13973">
        <ele>956.615</ele>
        <time>2013-10-23T13:17:59.057Z</time>
      </trkpt>
      <trkpt lat="43.01105" lon="-0.13965">
        <ele>958.091</ele>
        <time>2013-10-23T13:18:02.069Z</time>
      </trkpt>
      <trkpt lat="43.01096" lon="-0.13958">
        <ele>959.69</ele>
        <time>2013-10-23T13:18:05.142Z</time>
      </trkpt>
      <trkpt lat="43.01085" lon="-0.13952">
        <ele>959.805</ele>
        <time>2013-10-23T13:18:08.578Z</time>
      </trkpt>
      <trkpt lat="43.01074" lon="-0.13947">
        <ele>958.036</ele>
        <time>2013-10-23T13:18:11.765Z</time>
      </trkpt>
      <trkpt lat="43.01063" lon="-0.13945">
        <ele>955.573</ele>
        <time>2013-10-23T13:18:15.042Z</time>
      </trkpt>
      <trkpt lat="43.0102" lon="-0.13923">
        <ele>952.864</ele>
        <time>2013-10-23T13:18:27.558Z</time>
      </trkpt>
      <trkpt lat="43.01008" lon="-0.13913">
        <ele>955.377</ele>
        <time>2013-10-23T13:18:31.004Z</time>
      </trkpt>
      <trkpt lat="43.00995" lon="-0.13904">
        <ele>962.404</ele>
        <time>2013-10-23T13:18:34.246Z</time>
      </trkpt>
      <trkpt lat="43.00951" lon="-0.13857">
        <ele>975.686</ele>
        <time>2013-10-23T13:18:47.124Z</time>
      </trkpt>
      <trkpt lat="43.00944" lon="-0.13842">
        <ele>977.98</ele>
        <time>2013-10-23T13:18:49.721Z</time>
      </trkpt>
      <trkpt lat="43.00937" lon="-0.13832">
        <ele>979.215</ele>
        <time>2013-10-23T13:18:51.593Z</time>
      </trkpt>
      <trkpt lat="43.00922" lon="-0.13819">
        <ele>980.639</ele>
        <time>2013-10-23T13:18:54.642Z</time>
      </trkpt>
      <trkpt lat="43.00909" lon="-0.13814">
        <ele>980.86</ele>
        <time>2013-10-23T13:18:56.819Z</time>
      </trkpt>
      <trkpt lat="43.00892" lon="-0.13801">
        <ele>978.526</ele>
        <time>2013-10-23T13:18:59.842Z</time>
      </trkpt>
      <trkpt lat="43.00884" lon="-0.13787">
        <ele>975.475</ele>
        <time>2013-10-23T13:19:02.025Z</time>
      </trkpt>
      <trkpt lat="43.00885" lon="-0.13766">
        <ele>973.32</ele>
        <time>2013-10-23T13:19:04.964Z</time>
      </trkpt>
      <trkpt lat="43.00889" lon="-0.13751">
        <ele>970.988</ele>
        <time>2013-10-23T13:19:07.587Z</time>
      </trkpt>
      <trkpt lat="43.0089" lon="-0.13737">
        <ele>967.633</ele>
        <time>2013-10-23T13:19:09.467Z</time>
      </trkpt>
      <trkpt lat="43.0088" lon="-0.13728">
        <ele>963.974</ele>
        <time>2013-10-23T13:19:11.295Z</time>
      </trkpt>
      <trkpt lat="43.00859" lon="-0.13714">
        <ele>960.806</ele>
        <time>2013-10-23T13:19:14.719Z</time>
      </trkpt>
      <trkpt lat="43.00845" lon="-0.13704">
        <ele>958.459</ele>
        <time>2013-10-23T13:19:17.434Z</time>
      </trkpt>
      <trkpt lat="43.00829" lon="-0.13706">
        <ele>957.204</ele>
        <time>2013-10-23T13:19:20.297Z</time>
      </trkpt>
      <trkpt lat="43.00816" lon="-0.13708">
        <ele>956.817</ele>
        <time>2013-10-23T13:19:22.392Z</time>
      </trkpt>
      <trkpt lat="43.00797" lon="-0.13706">
        <ele>956.813</ele>
        <time>2013-10-23T13:19:24.989Z</time>
      </trkpt>
      <trkpt lat="43.00776" lon="-0.13695">
        <ele>957.305</ele>
        <time>2013-10-23T13:19:27.744Z</time>
      </trkpt>
      <trkpt lat="43.0076" lon="-0.13684">
        <ele>958.406</ele>
        <time>2013-10-23T13:19:29.715Z</time>
      </trkpt>
      <trkpt lat="43.00734" lon="-0.13662">
        <ele>959.336</ele>
        <time>2013-10-23T13:19:33.000Z</time>
      </trkpt>
      <trkpt lat="43.00706" lon="-0.13645">
        <ele>958.376</ele>
        <time>2013-10-23T13:19:36.459Z</time>
      </trkpt>
      <trkpt lat="43.0069" lon="-0.13641">
        <ele>955.263</ele>
        <time>2013-10-23T13:19:38.285Z</time>
      </trkpt>
      <trkpt lat="43.00667" lon="-0.13629">
        <ele>952.133</ele>
        <time>2013-10-23T13:19:40.954Z</time>
      </trkpt>
      <trkpt lat="43.00643" lon="-0.13614">
        <ele>950.757</ele>
        <time>2013-10-23T13:19:43.817Z</time>
      </trkpt>
      <trkpt lat="43.00619" lon="-0.136">
        <ele>951.063</ele>
        <time>2013-10-23T13:19:46.488Z</time>
      </trkpt>
      <trkpt lat="43.00606" lon="-0.13588">
        <ele>952.309</ele>
        <time>2013-10-23T13:19:48.161Z</time>
      </trkpt>
      <trkpt lat="43.00594" lon="-0.13574">
        <ele>953.451</ele>
        <time>2013-10-23T13:19:49.836Z</time>
      </trkpt>
      <trkpt lat="43.00575" lon="-0.1355">
        <ele>953.678</ele>
        <time>2013-10-23T13:19:52.494Z</time>
      </trkpt>
      <trkpt lat="43.00554" lon="-0.13524">
        <ele>952.212</ele>
        <time>2013-10-23T13:19:55.377Z</time>
      </trkpt>
      <trkpt lat="43.00534" lon="-0.13496">
        <ele>948.478</ele>
        <time>2013-10-23T13:19:58.341Z</time>
      </trkpt>
      <trkpt lat="43.00521" lon="-0.13477">
        <ele>943.78</ele>
        <time>2013-10-23T13:20:00.333Z</time>
      </trkpt>
      <trkpt lat="43.00508" lon="-0.13461">
        <ele>940.346</ele>
        <time>2013-10-23T13:20:02.133Z</time>
      </trkpt>
      <trkpt lat="43.00487" lon="-0.13439">
        <ele>937.93</ele>
        <time>2013-10-23T13:20:05.198Z</time>
      </trkpt>
      <trkpt lat="43.00465" lon="-0.13429">
        <ele>935.254</ele>
        <time>2013-10-23T13:20:08.084Z</time>
      </trkpt>
      <trkpt lat="43.0045" lon="-0.13427">
        <ele>932.99</ele>
        <time>2013-10-23T13:20:09.974Z</time>
      </trkpt>
      <trkpt lat="43.00423" lon="-0.13425">
        <ele>932.093</ele>
        <time>2013-10-23T13:20:13.328Z</time>
      </trkpt>
      <trkpt lat="43.00365" lon="-0.1341">
        <ele>933.277</ele>
        <time>2013-10-23T13:20:20.505Z</time>
      </trkpt>
      <trkpt lat="43.00344" lon="-0.13395">
        <ele>935.436</ele>
        <time>2013-10-23T13:20:23.279Z</time>
      </trkpt>
      <trkpt lat="43.00326" lon="-0.13374">
        <ele>937.524</ele>
        <time>2013-10-23T13:20:26.056Z</time>
      </trkpt>
      <trkpt lat="43.00316" lon="-0.13356">
        <ele>937.963</ele>
        <time>2013-10-23T13:20:27.960Z</time>
      </trkpt>
      <trkpt lat="43.00303" lon="-0.13329">
        <ele>935.993</ele>
        <time>2013-10-23T13:20:30.801Z</time>
      </trkpt>
      <trkpt lat="43.00295" lon="-0.13312">
        <ele>932.567</ele>
        <time>2013-10-23T13:20:32.738Z</time>
      </trkpt>
      <trkpt lat="43.00281" lon="-0.13287">
        <ele>929.868</ele>
        <time>2013-10-23T13:20:35.770Z</time>
      </trkpt>
      <trkpt lat="43.00272" lon="-0.13264">
        <ele>928.553</ele>
        <time>2013-10-23T13:20:38.595Z</time>
      </trkpt>
      <trkpt lat="43.00266" lon="-0.13244">
        <ele>927.705</ele>
        <time>2013-10-23T13:20:41.206Z</time>
      </trkpt>
      <trkpt lat="43.00261" lon="-0.13231">
        <ele>927.056</ele>
        <time>2013-10-23T13:20:43.449Z</time>
      </trkpt>
      <trkpt lat="43.00254" lon="-0.1322">
        <ele>926.98</ele>
        <time>2013-10-23T13:20:46.264Z</time>
      </trkpt>
      <trkpt lat="43.00244" lon="-0.13218">
        <ele>927.448</ele>
        <time>2013-10-23T13:20:49.316Z</time>
      </trkpt>
      <trkpt lat="43.00232" lon="-0.13216">
        <ele>927.963</ele>
        <time>2013-10-23T13:20:52.202Z</time>
      </trkpt>
      <trkpt lat="43.00222" lon="-0.13215">
        <ele>928.673</ele>
        <time>2013-10-23T13:20:54.363Z</time>
      </trkpt>
      <trkpt lat="43.00211" lon="-0.13215">
        <ele>930.175</ele>
        <time>2013-10-23T13:20:56.358Z</time>
      </trkpt>
      <trkpt lat="43.00194" lon="-0.13213">
        <ele>932.032</ele>
        <time>2013-10-23T13:20:59.235Z</time>
      </trkpt>
      <trkpt lat="43.0018" lon="-0.13213">
        <ele>932.789</ele>
        <time>2013-10-23T13:21:01.245Z</time>
      </trkpt>
      <trkpt lat="43.00158" lon="-0.13214">
        <ele>932.058</ele>
        <time>2013-10-23T13:21:04.212Z</time>
      </trkpt>
      <trkpt lat="43.00135" lon="-0.13216">
        <ele>931.075</ele>
        <time>2013-10-23T13:21:07.271Z</time>
      </trkpt>
      <trkpt lat="43.00121" lon="-0.13218">
        <ele>930.915</ele>
        <time>2013-10-23T13:21:09.038Z</time>
      </trkpt>
      <trkpt lat="43.00106" lon="-0.13219">
        <ele>931.211</ele>
        <time>2013-10-23T13:21:11.096Z</time>
      </trkpt>
      <trkpt lat="43.00083" lon="-0.1322">
        <ele>930.784</ele>
        <time>2013-10-23T13:21:14.179Z</time>
      </trkpt>
      <trkpt lat="43.0006" lon="-0.1322">
        <ele>929.244</ele>
        <time>2013-10-23T13:21:17.303Z</time>
      </trkpt>
      <trkpt lat="43.00036" lon="-0.13218">
        <ele>927.631</ele>
        <time>2013-10-23T13:21:20.475Z</time>
      </trkpt>
      <trkpt lat="43.00016" lon="-0.13216">
        <ele>926.918</ele>
        <time>2013-10-23T13:21:23.405Z</time>
      </trkpt>
      <trkpt lat="43.00006" lon="-0.13216">
        <ele>926.987</ele>
        <time>2013-10-23T13:21:25.275Z</time>
      </trkpt>
      <trkpt lat="42.99991" lon="-0.13219">
        <ele>927.526</ele>
        <time>2013-10-23T13:21:28.541Z</time>
      </trkpt>
      <trkpt lat="42.99983" lon="-0.13226">
        <ele>928.084</ele>
        <time>2013-10-23T13:21:31.233Z</time>
      </trkpt>
      <trkpt lat="42.99983" lon="-0.13226">
        <ele>928.112</ele>
        <time>2013-10-23T13:21:35.227Z</time>
      </trkpt>
      <trkpt lat="42.99983" lon="-0.13226">
        <ele>927.632</ele>
        <time>2013-10-23T13:21:39.237Z</time>
      </trkpt>
      <trkpt lat="42.99983" lon="-0.13226">
        <ele>927.167</ele>
        <time>2013-10-23T13:21:39.337Z</time>
      </trkpt>
      <trkpt lat="42.99981" lon="-0.13234">
        <ele>926.701</ele>
        <time>2013-10-23T13:22:25.226Z</time>
      </trkpt>
    </trkseg>
  </trk>
</gpx>